MYDAX CHILLER For M1 mirror 
            

Key: (Temperatures in Centigrade) 
A) System is ON or OFF
B) Actual Tank Temperature as sensed by the Output RTD                   
C) Set point Temperature 
D) Calculated temperature of the refrigerant line at the suction pressure transducer
E) Pressure in PSIg of the refrigerant line at the suction pressure transducer
F & G) Temperature in the refrigerant line at the Superheat and Condenser RTDs
H) Temperature in the refrigerant line at the Discharge RTD (2-stage design only)
I) Temperature in the refrigerant line at the Subcooler RTD (inactive)
J) Valve drives of evaporator 

----------- DATE ----------: A    B     C     D     E    F    G    H   I J

 last update: Fri Apr 19 21:16:46 PDT 2024
Fri Apr 19 21:16:18 PDT 2024 ON: 21.27 +20.0 21.33 -21.4 18.9 22.5 28.0 20 0 Alarm State:  0
Fri Apr 19 21:15:17 PDT 2024 ON: 21.29 +20.0 21.35 -21.4 18.9 22.5 28.0 20 0 Alarm State:  0
Fri Apr 19 21:14:15 PDT 2024 ON: 21.29 +20.0 21.35 -21.5 18.8 22.6 28.0 20 0 Alarm State:  0
Fri Apr 19 21:13:14 PDT 2024 ON: 21.28 +20.0 21.34 -21.4 18.9 22.5 28.0 20 0 Alarm State:  0
Fri Apr 19 21:12:12 PDT 2024 ON: 21.30 +20.0 21.35 -21.4 18.9 22.5 28.0 20 0 Alarm State:  0
Fri Apr 19 21:11:11 PDT 2024 ON: 21.29 +20.0 21.34 -21.4 18.9 22.5 28.0 20 0 Alarm State:  0
Fri Apr 19 21:10:09 PDT 2024 ON: 21.31 +20.0 21.36 -21.4 18.9 22.5 28.0 20 0 Alarm State:  0
Fri Apr 19 21:09:08 PDT 2024 ON: 21.30 +20.0 21.35 -21.4 18.9 22.5 28.0 20 0 Alarm State:  0
Fri Apr 19 21:08:06 PDT 2024 ON: 21.31 +20.0 21.37 -21.4 18.9 22.5 28.0 20 0 Alarm State:  0
Fri Apr 19 21:07:05 PDT 2024 ON: 21.32 +20.0 21.37 -21.5 18.8 22.6 28.0 20 0 Alarm State:  0
Fri Apr 19 21:06:03 PDT 2024 ON: 21.31 +20.0 21.36 -21.4 18.9 22.5 28.0 20 0 Alarm State:  0
Fri Apr 19 21:05:02 PDT 2024 ON: 21.32 +20.0 21.37 -21.4 18.9 22.5 28.0 20 0 Alarm State:  0
Fri Apr 19 21:04:00 PDT 2024 ON: 21.32 +20.0 21.38 -21.4 18.9 22.5 28.0 20 0 Alarm State:  0
Fri Apr 19 21:02:59 PDT 2024 ON: 21.33 +20.0 21.39 -21.4 18.9 22.5 28.0 20 0 Alarm State:  0
Fri Apr 19 21:01:57 PDT 2024 ON: 21.33 +20.0 21.38 -21.4 18.9 22.5 28.0 19 0 Alarm State:  0
Fri Apr 19 21:00:56 PDT 2024 ON: 21.33 +20.0 21.38 -21.4 18.9 22.5 28.0 20 0 Alarm State:  0
Fri Apr 19 20:59:54 PDT 2024 ON: 21.33 +20.0 21.39 -21.4 18.9 22.5 28.0 20 0 Alarm State:  0
Fri Apr 19 20:58:53 PDT 2024 ON: 21.33 +20.0 21.38 -21.4 18.9 22.5 28.0 20 0 Alarm State:  0
Fri Apr 19 20:57:51 PDT 2024 ON: 21.35 +20.0 21.40 -21.4 18.9 22.5 28.0 20 0 Alarm State:  0
Fri Apr 19 20:56:50 PDT 2024 ON: 21.34 +20.0 21.39 -21.4 18.9 22.5 28.0 20 0 Alarm State:  0
Fri Apr 19 20:55:48 PDT 2024 ON: 21.35 +20.0 21.40 -21.5 18.8 22.6 28.0 20 0 Alarm State:  0
Fri Apr 19 20:54:47 PDT 2024 ON: 21.36 +20.0 21.41 -21.4 18.9 22.5 28.0 20 0 Alarm State:  0
Fri Apr 19 20:53:45 PDT 2024 ON: 21.35 +20.0 21.40 -21.5 18.8 22.6 28.0 20 0 Alarm State:  0
Fri Apr 19 20:52:44 PDT 2024 ON: 21.36 +20.0 21.41 -21.5 18.8 22.6 28.0 19 0 Alarm State:  0
Fri Apr 19 20:51:42 PDT 2024 ON: 21.36 +20.0 21.41 -21.4 18.9 22.5 28.0 20 0 Alarm State:  0
Fri Apr 19 20:50:41 PDT 2024 ON: 21.37 +20.0 21.42 -21.5 18.8 22.6 28.0 20 0 Alarm State:  0
Fri Apr 19 20:49:39 PDT 2024 ON: 21.36 +20.0 21.41 -21.5 18.8 22.6 28.0 20 0 Alarm State:  0
Fri Apr 19 20:48:38 PDT 2024 ON: 21.36 +20.0 21.41 -21.4 18.9 22.5 28.0 19 0 Alarm State:  0
Fri Apr 19 20:47:36 PDT 2024 ON: 21.36 +20.0 21.41 -21.5 18.8 22.6 28.0 20 0 Alarm State:  0
Fri Apr 19 20:46:35 PDT 2024 ON: 21.37 +20.0 21.42 -21.5 18.8 22.6 28.0 20 0 Alarm State:  0
Fri Apr 19 20:45:33 PDT 2024 ON: 21.37 +20.0 21.42 -21.4 18.9 22.5 28.0 20 0 Alarm State:  0
Fri Apr 19 20:44:32 PDT 2024 ON: 21.39 +20.0 21.44 -21.4 18.9 22.5 28.0 20 0 Alarm State:  0
Fri Apr 19 20:43:30 PDT 2024 ON: 21.38 +20.0 21.43 -21.4 18.9 22.5 28.0 20 0 Alarm State:  0
Fri Apr 19 20:42:29 PDT 2024 ON: 21.39 +20.0 21.44 -21.4 18.9 22.5 28.0 20 0 Alarm State:  0
Fri Apr 19 20:41:27 PDT 2024 ON: 21.40 +20.0 21.44 -21.5 18.8 22.6 28.0 20 0 Alarm State:  0
Fri Apr 19 20:40:26 PDT 2024 ON: 21.39 +20.0 21.44 -21.4 18.9 22.5 28.0 20 0 Alarm State:  0
Fri Apr 19 20:39:24 PDT 2024 ON: 21.40 +20.0 21.44 -21.4 18.9 22.5 28.0 20 0 Alarm State:  0
Fri Apr 19 20:38:23 PDT 2024 ON: 21.40 +20.0 21.45 -21.4 18.9 22.5 28.0 20 0 Alarm State:  0
Fri Apr 19 20:37:21 PDT 2024 ON: 21.41 +20.0 21.47 -21.4 18.9 22.5 28.0 19 0 Alarm State:  0
Fri Apr 19 20:36:20 PDT 2024 ON: 21.40 +20.0 21.45 -21.3 19.0 22.5 28.0 20 0 Alarm State:  0
Fri Apr 19 20:35:18 PDT 2024 ON: 21.42 +20.0 21.47 -21.4 18.9 22.5 28.0 20 0 Alarm State:  0
Fri Apr 19 20:34:17 PDT 2024 ON: 21.42 +20.0 21.46 -21.4 18.9 22.5 28.0 20 0 Alarm State:  0
Fri Apr 19 20:33:15 PDT 2024 ON: 21.43 +20.0 21.48 -21.3 19.0 22.5 28.0 20 0 Alarm State:  0
Fri Apr 19 20:32:14 PDT 2024 ON: 21.42 +20.0 21.48 -21.3 19.0 22.5 28.0 20 0 Alarm State:  0
Fri Apr 19 20:31:12 PDT 2024 ON: 21.43 +20.0 21.48 -21.5 18.8 22.6 28.0 20 0 Alarm State:  0
Fri Apr 19 20:30:11 PDT 2024 ON: 21.43 +20.0 21.47 -21.4 18.9 22.5 28.0 20 0 Alarm State:  0
Fri Apr 19 20:29:09 PDT 2024 ON: 21.44 +20.0 21.49 -21.3 19.0 22.5 28.0 20 0 Alarm State:  0
Fri Apr 19 20:28:08 PDT 2024 ON: 21.44 +20.0 21.49 -21.4 18.9 22.5 28.0 20 0 Alarm State:  0
Fri Apr 19 20:27:06 PDT 2024 ON: 21.44 +20.0 21.49 -21.4 18.9 22.5 28.0 20 0 Alarm State:  0
Fri Apr 19 20:26:04 PDT 2024 ON: 21.44 +20.0 21.49 -21.4 18.9 22.5 28.0 20 0 Alarm State:  0
Fri Apr 19 20:25:03 PDT 2024 ON: 21.46 +20.0 21.51 -21.4 18.9 22.5 28.0 20 0 Alarm State:  0
Fri Apr 19 20:24:01 PDT 2024 ON: 21.46 +20.0 21.51 -21.5 18.8 22.6 28.0 20 0 Alarm State:  0
Fri Apr 19 20:23:00 PDT 2024 ON: 21.45 +20.0 21.50 -21.4 18.9 22.5 28.0 20 0 Alarm State:  0
Fri Apr 19 20:21:58 PDT 2024 ON: 21.46 +20.0 21.51 -21.3 19.0 22.5 28.0 20 0 Alarm State:  0
Fri Apr 19 20:20:57 PDT 2024 ON: 21.46 +20.0 21.51 -21.4 18.9 22.5 28.0 19 0 Alarm State:  0
Fri Apr 19 20:19:55 PDT 2024 ON: 21.46 +20.0 21.51 -21.4 18.9 22.5 28.0 20 0 Alarm State:  0
Fri Apr 19 20:18:54 PDT 2024 ON: 21.47 +20.0 21.52 -21.4 18.9 22.5 28.0 20 0 Alarm State:  0
Fri Apr 19 20:17:52 PDT 2024 ON: 21.48 +20.0 21.53 -21.5 18.8 22.6 28.0 20 0 Alarm State:  0
Fri Apr 19 20:16:51 PDT 2024 ON: 21.48 +20.0 21.53 -21.4 18.9 22.5 28.0 20 0 Alarm State:  0
Fri Apr 19 20:15:49 PDT 2024 ON: 21.49 +20.0 21.54 -21.4 18.9 22.5 28.0 20 0 Alarm State:  0
Fri Apr 19 20:14:48 PDT 2024 ON: 21.50 +20.0 21.55 -21.4 18.9 22.5 28.0 20 0 Alarm State:  0
Fri Apr 19 20:13:46 PDT 2024 ON: 21.50 +20.0 21.54 -21.4 18.9 22.5 28.0 20 0 Alarm State:  0
Fri Apr 19 20:12:45 PDT 2024 ON: 21.49 +20.0 21.54 -21.4 18.9 22.5 28.0 19 0 Alarm State:  0
Fri Apr 19 20:11:43 PDT 2024 ON: 21.49 +20.0 21.55 -21.5 18.8 22.6 28.0 20 0 Alarm State:  0
Fri Apr 19 20:10:42 PDT 2024 ON: 21.51 +20.0 21.56 -21.4 18.9 22.5 28.0 20 0 Alarm State:  0
Fri Apr 19 20:09:40 PDT 2024 ON: 21.50 +20.0 21.55 -21.4 18.9 22.5 28.0 20 0 Alarm State:  0
Fri Apr 19 20:08:39 PDT 2024 ON: 21.51 +20.0 21.56 -21.4 18.9 22.5 28.0 20 0 Alarm State:  0
Fri Apr 19 20:07:37 PDT 2024 ON: 21.51 +20.0 21.56 -21.4 18.9 22.5 28.0 19 0 Alarm State:  0
Fri Apr 19 20:06:36 PDT 2024 ON: 21.51 +20.0 21.55 -21.4 18.9 22.5 28.0 20 0 Alarm State:  0
Fri Apr 19 20:05:34 PDT 2024 ON: 21.52 +20.0 21.58 -21.4 18.9 22.5 28.0 20 0 Alarm State:  0
Fri Apr 19 20:04:33 PDT 2024 ON: 21.52 +20.0 21.57 -21.4 18.9 22.5 28.0 20 0 Alarm State:  0
Fri Apr 19 20:03:31 PDT 2024 ON: 21.53 +20.0 21.58 -21.5 18.8 22.6 28.0 20 0 Alarm State:  0
Fri Apr 19 20:02:30 PDT 2024 ON: 21.54 +20.0 21.59 -21.5 18.8 22.6 28.0 20 0 Alarm State:  0
Fri Apr 19 20:01:28 PDT 2024 ON: 21.54 +20.0 21.59 -21.4 18.9 22.5 28.0 20 0 Alarm State:  0
Fri Apr 19 20:00:27 PDT 2024 ON: 21.54 +20.0 21.59 -21.4 18.9 22.5 28.0 20 0 Alarm State:  0
Fri Apr 19 19:59:25 PDT 2024 ON: 21.55 +20.0 21.60 -21.4 18.9 22.5 28.0 19 0 Alarm State:  0
Fri Apr 19 19:58:24 PDT 2024 ON: 21.54 +20.0 21.58 -21.4 18.9 22.5 28.0 20 0 Alarm State:  0
Fri Apr 19 19:57:22 PDT 2024 ON: 21.54 +20.0 21.60 -21.3 19.0 22.5 28.0 20 0 Alarm State:  0
Fri Apr 19 19:56:21 PDT 2024 ON: 21.56 +20.0 21.61 -21.4 18.9 22.5 28.0 20 0 Alarm State:  0
Fri Apr 19 19:55:19 PDT 2024 ON: 21.56 +20.0 21.62 -21.4 18.9 22.5 28.0 19 0 Alarm State:  0
Fri Apr 19 19:54:18 PDT 2024 ON: 21.56 +20.0 21.61 -21.3 19.0 22.5 28.0 20 0 Alarm State:  0
Fri Apr 19 19:53:16 PDT 2024 ON: 21.56 +20.0 21.61 -21.4 18.9 22.5 28.0 20 0 Alarm State:  0
Fri Apr 19 19:52:15 PDT 2024 ON: 21.58 +20.0 21.63 -21.4 18.9 22.5 28.0 20 0 Alarm State:  0
Fri Apr 19 19:51:13 PDT 2024 ON: 21.57 +20.0 21.61 -21.4 18.9 22.5 28.0 20 0 Alarm State:  0
Fri Apr 19 19:50:12 PDT 2024 ON: 21.57 +20.0 21.62 -21.5 18.8 22.6 28.0 20 0 Alarm State:  0
Fri Apr 19 19:49:10 PDT 2024 ON: 21.58 +20.0 21.63 -21.4 18.9 22.5 28.0 20 0 Alarm State:  0
Fri Apr 19 19:48:09 PDT 2024 ON: 21.58 +20.0 21.63 -21.4 18.9 22.5 28.0 20 0 Alarm State:  0
Fri Apr 19 19:47:07 PDT 2024 ON: 21.58 +20.0 21.63 -21.4 18.9 22.5 28.0 20 0 Alarm State:  0
Fri Apr 19 19:46:06 PDT 2024 ON: 21.60 +20.0 21.64 -21.3 19.0 22.5 28.0 20 0 Alarm State:  0
Fri Apr 19 19:45:04 PDT 2024 ON: 21.59 +20.0 21.64 -21.4 18.9 22.5 28.0 20 0 Alarm State:  0
Fri Apr 19 19:44:03 PDT 2024 ON: 21.58 +20.0 21.63 -21.5 18.8 22.6 28.0 20 0 Alarm State:  0
Fri Apr 19 19:43:01 PDT 2024 ON: 21.58 +20.0 21.63 -21.5 18.7 22.7 28.0 20 0 Alarm State:  0
Fri Apr 19 19:42:00 PDT 2024 ON: 21.59 +20.0 21.64 -21.4 18.9 22.5 28.0 20 0 Alarm State:  0
Fri Apr 19 19:40:58 PDT 2024 ON: 21.59 +20.0 21.64 -21.5 18.8 22.6 28.0 20 0 Alarm State:  0
Fri Apr 19 19:39:57 PDT 2024 ON: 21.60 +20.0 21.64 -21.4 18.9 22.5 28.0 19 0 Alarm State:  0
Fri Apr 19 19:38:55 PDT 2024 ON: 21.58 +20.0 21.63 -21.5 18.8 22.6 28.0 20 0 Alarm State:  0
Fri Apr 19 19:37:54 PDT 2024 ON: 21.58 +20.0 21.63 -21.4 18.9 22.5 28.0 20 0 Alarm State:  0
Fri Apr 19 19:36:52 PDT 2024 ON: 21.59 +20.0 21.63 -21.3 19.0 22.5 28.0 20 0 Alarm State:  0
Fri Apr 19 19:35:51 PDT 2024 ON: 21.60 +20.0 21.64 -21.4 18.9 22.5 28.0 20 0 Alarm State:  0
Fri Apr 19 19:34:49 PDT 2024 ON: 21.59 +20.0 21.65 -21.4 18.9 22.5 28.0 20 0 Alarm State:  0
Fri Apr 19 19:33:48 PDT 2024 ON: 21.59 +20.0 21.64 -21.4 18.9 22.5 28.0 20 0 Alarm State:  0
Fri Apr 19 19:32:46 PDT 2024 ON: 21.59 +20.0 21.63 -21.5 18.8 22.6 28.0 20 0 Alarm State:  0
Fri Apr 19 19:31:45 PDT 2024 ON: 21.59 +20.0 21.64 -21.4 18.9 22.5 28.0 20 0 Alarm State:  0
Fri Apr 19 19:30:43 PDT 2024 ON: 21.59 +20.0 21.63 -21.4 18.9 22.5 28.0 19 0 Alarm State:  0
Fri Apr 19 19:29:41 PDT 2024 ON: 21.59 +20.0 21.63 -21.4 18.9 22.5 28.0 20 0 Alarm State:  0
Fri Apr 19 19:28:40 PDT 2024 ON: 21.58 +20.0 21.63 -21.5 18.8 22.6 28.0 20 0 Alarm State:  0
Fri Apr 19 19:27:38 PDT 2024 ON: 21.58 +20.0 21.63 -21.4 18.9 22.5 28.0 20 0 Alarm State:  0
Fri Apr 19 19:26:37 PDT 2024 ON: 21.59 +20.0 21.64 -21.4 18.9 22.5 28.0 20 0 Alarm State:  0
Fri Apr 19 19:25:35 PDT 2024 ON: 21.59 +20.0 21.64 -21.3 19.0 22.5 28.0 20 0 Alarm State:  0
Fri Apr 19 19:24:34 PDT 2024 ON: 21.58 +20.0 21.62 -21.4 18.9 22.5 28.0 20 0 Alarm State:  0
Fri Apr 19 19:23:32 PDT 2024 ON: 21.58 +20.0 21.62 -21.4 18.9 22.5 28.0 20 0 Alarm State:  0
Fri Apr 19 19:22:31 PDT 2024 ON: 21.59 +20.0 21.63 -21.4 18.9 22.5 28.0 20 0 Alarm State:  0
Fri Apr 19 19:21:29 PDT 2024 ON: 21.57 +20.0 21.62 -21.5 18.8 22.6 28.0 19 0 Alarm State:  0
Fri Apr 19 19:20:28 PDT 2024 ON: 21.57 +20.0 21.61 -21.5 18.8 22.6 28.0 20 0 Alarm State:  0
Fri Apr 19 19:19:26 PDT 2024 ON: 21.58 +20.0 21.63 -21.4 18.9 22.5 28.0 20 0 Alarm State:  0
Fri Apr 19 19:18:25 PDT 2024 ON: 21.57 +20.0 21.62 -21.4 18.9 22.5 28.0 20 0 Alarm State:  0
Fri Apr 19 19:17:23 PDT 2024 ON: 21.58 +20.0 21.62 -21.4 18.9 22.5 28.0 20 0 Alarm State:  0
Fri Apr 19 19:16:22 PDT 2024 ON: 21.59 +20.0 21.64 -21.4 18.9 22.5 28.0 20 0 Alarm State:  0
Fri Apr 19 19:15:20 PDT 2024 ON: 21.59 +20.0 21.63 -21.4 18.9 22.5 28.0 20 0 Alarm State:  0
Fri Apr 19 19:14:19 PDT 2024 ON: 21.58 +20.0 21.63 -21.4 18.9 22.5 28.0 20 0 Alarm State:  0
Fri Apr 19 19:13:17 PDT 2024 ON: 21.59 +20.0 21.64 -21.4 18.9 22.5 28.0 20 0 Alarm State:  0
Fri Apr 19 19:12:16 PDT 2024 ON: 21.58 +20.0 21.63 -21.5 18.8 22.6 28.0 20 0 Alarm State:  0
Fri Apr 19 19:11:14 PDT 2024 ON: 21.59 +20.0 21.64 -21.4 18.9 22.5 28.0 20 0 Alarm State:  0
Fri Apr 19 19:10:13 PDT 2024 ON: 21.58 +20.0 21.62 -21.4 18.9 22.5 28.0 20 0 Alarm State:  0
Fri Apr 19 19:09:11 PDT 2024 ON: 21.59 +20.0 21.64 -21.4 18.9 22.5 28.0 20 0 Alarm State:  0
Fri Apr 19 19:08:10 PDT 2024 ON: 21.59 +20.0 21.63 -21.4 18.9 22.5 28.0 20 0 Alarm State:  0
Fri Apr 19 19:07:08 PDT 2024 ON: 21.59 +20.0 21.64 -21.5 18.8 22.6 28.0 20 0 Alarm State:  0
Fri Apr 19 19:06:07 PDT 2024 ON: 21.58 +20.0 21.63 -21.4 18.9 22.5 28.0 20 0 Alarm State:  0
Fri Apr 19 19:05:05 PDT 2024 ON: 21.59 +20.0 21.63 -21.4 18.9 22.5 28.0 20 0 Alarm State:  0
Fri Apr 19 19:04:04 PDT 2024 ON: 21.59 +20.0 21.64 -21.3 19.0 22.5 28.0 19 0 Alarm State:  0
Fri Apr 19 19:03:02 PDT 2024 ON: 21.59 +20.0 21.63 -21.4 18.9 22.5 28.0 20 0 Alarm State:  0
Fri Apr 19 19:02:01 PDT 2024 ON: 21.58 +20.0 21.62 -21.5 18.8 22.6 28.0 20 0 Alarm State:  0
Fri Apr 19 19:00:59 PDT 2024 ON: 21.59 +20.0 21.64 -21.5 18.8 22.6 28.0 20 0 Alarm State:  0
Fri Apr 19 18:59:58 PDT 2024 ON: 21.59 +20.0 21.64 -21.4 18.9 22.5 28.0 20 0 Alarm State:  0
Fri Apr 19 18:58:56 PDT 2024 ON: 21.59 +20.0 21.64 -21.4 18.9 22.5 28.0 20 0 Alarm State:  0
Fri Apr 19 18:57:55 PDT 2024 ON: 21.58 +20.0 21.63 -21.5 18.8 22.6 28.0 20 0 Alarm State:  0
Fri Apr 19 18:56:53 PDT 2024 ON: 21.58 +20.0 21.63 -21.4 18.9 22.5 28.0 20 0 Alarm State:  0
Fri Apr 19 18:55:52 PDT 2024 ON: 21.59 +20.0 21.64 -21.4 18.9 22.5 28.0 19 0 Alarm State:  0
Fri Apr 19 18:54:50 PDT 2024 ON: 21.58 +20.0 21.62 -21.5 18.8 22.6 28.0 20 0 Alarm State:  0
Fri Apr 19 18:53:49 PDT 2024 ON: 21.58 +20.0 21.63 -21.4 18.9 22.5 28.0 20 0 Alarm State:  0
Fri Apr 19 18:52:47 PDT 2024 ON: 21.58 +20.0 21.63 -21.4 18.9 22.5 28.0 20 0 Alarm State:  0
Fri Apr 19 18:51:46 PDT 2024 ON: 21.58 +20.0 21.63 -21.3 19.0 22.5 28.0 19 0 Alarm State:  0
Fri Apr 19 18:50:44 PDT 2024 ON: 21.59 +20.0 21.64 -21.4 18.9 22.5 28.0 20 0 Alarm State:  0
Fri Apr 19 18:49:43 PDT 2024 ON: 21.59 +20.0 21.64 -21.4 18.9 22.5 28.0 20 0 Alarm State:  0
Fri Apr 19 18:48:41 PDT 2024 ON: 21.59 +20.0 21.64 -21.5 18.8 22.6 28.0 20 0 Alarm State:  0
Fri Apr 19 18:47:40 PDT 2024 ON: 21.58 +20.0 21.63 -21.5 18.8 22.6 28.0 20 0 Alarm State:  0
Fri Apr 19 18:46:38 PDT 2024 ON: 21.58 +20.0 21.63 -21.3 19.0 22.5 28.0 20 0 Alarm State:  0
Fri Apr 19 18:45:37 PDT 2024 ON: 21.58 +20.0 21.62 -21.4 18.9 22.5 28.0 20 0 Alarm State:  0
Fri Apr 19 18:44:35 PDT 2024 ON: 21.58 +20.0 21.62 -21.4 18.9 22.5 28.0 20 0 Alarm State:  0
Fri Apr 19 18:43:34 PDT 2024 ON: 21.59 +20.0 21.64 -21.3 19.0 22.5 28.0 19 0 Alarm State:  0
Fri Apr 19 18:42:32 PDT 2024 ON: 21.57 +20.0 21.62 -21.4 18.9 22.5 28.0 20 0 Alarm State:  0
Fri Apr 19 18:41:31 PDT 2024 ON: 21.58 +20.0 21.62 -21.5 18.8 22.6 28.0 20 0 Alarm State:  0
Fri Apr 19 18:40:29 PDT 2024 ON: 21.59 +20.0 21.63 -21.4 18.9 22.5 28.0 20 0 Alarm State:  0
Fri Apr 19 18:39:28 PDT 2024 ON: 21.57 +20.0 21.62 -21.4 18.9 22.5 28.0 20 0 Alarm State:  0
Fri Apr 19 18:38:26 PDT 2024 ON: 21.57 +20.0 21.62 -21.4 18.9 22.5 28.0 20 0 Alarm State:  0
Fri Apr 19 18:37:25 PDT 2024 ON: 21.58 +20.0 21.63 -21.5 18.8 22.6 28.0 20 0 Alarm State:  0
Fri Apr 19 18:36:23 PDT 2024 ON: 21.58 +20.0 21.62 -21.4 18.9 22.5 28.0 20 0 Alarm State:  0
Fri Apr 19 18:35:22 PDT 2024 ON: 21.57 +20.0 21.61 -21.4 18.9 22.5 28.0 20 0 Alarm State:  0
Fri Apr 19 18:34:10 PDT 2024 ON: 21.57 +20.0 21.61 -21.4 18.9 22.5 28.0 20 0 Alarm State:  0
Fri Apr 19 18:33:09 PDT 2024 ON: 21.57 +20.0 21.61 -21.4 18.9 22.5 28.0 20 0 Alarm State:  0
Fri Apr 19 18:32:07 PDT 2024 ON: 21.57 +20.0 21.62 -21.5 18.8 22.6 28.0 20 0 Alarm State:  0
Fri Apr 19 18:31:06 PDT 2024 ON: 21.56 +20.0 21.61 -21.4 18.9 22.5 28.0 20 0 Alarm State:  0
Fri Apr 19 18:30:04 PDT 2024 ON: 21.58 +20.0 21.63 -21.4 18.9 22.5 28.0 20 0 Alarm State:  0
Fri Apr 19 18:29:03 PDT 2024 ON: 21.58 +20.0 21.61 -21.4 18.9 22.5 28.0 20 0 Alarm State:  0
Fri Apr 19 18:28:01 PDT 2024 ON: 21.58 +20.0 21.63 -21.4 18.9 22.5 28.0 20 0 Alarm State:  0
Fri Apr 19 18:27:00 PDT 2024 ON: 21.58 +20.0 21.62 -21.4 18.9 22.5 28.0 20 0 Alarm State:  0
Fri Apr 19 18:25:58 PDT 2024 ON: 21.58 +20.0 21.63 -21.3 19.0 22.5 28.0 20 0 Alarm State:  0
Fri Apr 19 18:24:57 PDT 2024 ON: 21.58 +20.0 21.62 -21.5 18.8 22.6 28.0 20 0 Alarm State:  0
Fri Apr 19 18:23:55 PDT 2024 ON: 21.58 +20.0 21.63 -21.4 18.9 22.5 28.0 20 0 Alarm State:  0
Fri Apr 19 18:22:54 PDT 2024 ON: 21.58 +20.0 21.63 -21.4 18.9 22.5 28.0 20 0 Alarm State:  0
Fri Apr 19 18:21:52 PDT 2024 ON: 21.57 +20.0 21.62 -21.4 18.9 22.5 28.0 20 0 Alarm State:  0
Fri Apr 19 18:20:51 PDT 2024 ON: 21.58 +20.0 21.62 -21.4 18.9 22.5 28.0 20 0 Alarm State:  0
Fri Apr 19 18:19:49 PDT 2024 ON: 21.58 +20.0 21.63 -21.4 18.9 22.5 28.0 20 0 Alarm State:  0
Fri Apr 19 18:18:48 PDT 2024 ON: 21.58 +20.0 21.63 -21.4 18.9 22.5 28.0 20 0 Alarm State:  0
Fri Apr 19 18:17:46 PDT 2024 ON: 21.58 +20.0 21.63 -21.5 18.8 22.6 28.0 20 0 Alarm State:  0
Fri Apr 19 18:16:45 PDT 2024 ON: 21.58 +20.0 21.63 -21.4 18.9 22.5 28.0 20 0 Alarm State:  0
Fri Apr 19 18:15:43 PDT 2024 ON: 21.57 +20.0 21.62 -21.4 18.9 22.5 28.0 20 0 Alarm State:  0
Fri Apr 19 18:14:42 PDT 2024 ON: 21.57 +20.0 21.62 -21.5 18.8 22.6 28.0 20 0 Alarm State:  0
Fri Apr 19 18:13:40 PDT 2024 ON: 21.58 +20.0 21.63 -21.3 19.0 22.5 28.0 19 0 Alarm State:  0
Fri Apr 19 18:12:39 PDT 2024 ON: 21.58 +20.0 21.63 -21.4 18.9 22.5 28.0 20 0 Alarm State:  0
Fri Apr 19 18:11:37 PDT 2024 ON: 21.57 +20.0 21.61 -21.4 18.9 22.5 28.0 20 0 Alarm State:  0
Fri Apr 19 18:10:35 PDT 2024 ON: 21.57 +20.0 21.61 -21.4 18.9 22.5 28.0 20 0 Alarm State:  0
Fri Apr 19 18:09:34 PDT 2024 ON: 21.57 +20.0 21.61 -21.4 18.9 22.5 28.0 20 0 Alarm State:  0
Fri Apr 19 18:08:32 PDT 2024 ON: 21.57 +20.0 21.62 -21.4 18.9 22.5 28.0 20 0 Alarm State:  0
Fri Apr 19 18:07:31 PDT 2024 ON: 21.58 +20.0 21.63 -21.4 18.9 22.5 28.0 20 0 Alarm State:  0
Fri Apr 19 18:06:29 PDT 2024 ON: 21.58 +20.0 21.62 -21.4 18.9 22.5 28.0 20 0 Alarm State:  0
Fri Apr 19 18:05:28 PDT 2024 ON: 21.57 +20.0 21.62 -21.3 19.0 22.5 28.0 19 0 Alarm State:  0
Fri Apr 19 18:04:26 PDT 2024 ON: 21.58 +20.0 21.62 -21.4 18.9 22.5 28.0 20 0 Alarm State:  0
Fri Apr 19 18:03:25 PDT 2024 ON: 21.57 +20.0 21.62 -21.4 18.9 22.5 28.0 20 0 Alarm State:  0
Fri Apr 19 18:02:14 PDT 2024  Alarm State: 0
Fri Apr 19 18:02:14 PDT 2024 Chiller did not report ON, got this reading: 
Fri Apr 19 18:01:12 PDT 2024 ON: 21.57 +20.0 21.62 -21.4 18.9 22.5 28.0 20 0 Alarm State:  0
Fri Apr 19 18:00:11 PDT 2024 ON: 21.58 +20.0 21.62 -21.4 18.9 22.5 28.0 20 0 Alarm State:  0
Fri Apr 19 17:59:09 PDT 2024 ON: 21.57 +20.0 21.61 -21.4 18.9 22.5 28.0 20 0 Alarm State:  0
Fri Apr 19 17:58:08 PDT 2024 ON: 21.57 +20.0 21.62 -21.3 19.0 22.5 28.0 20 0 Alarm State:  0
Fri Apr 19 17:57:06 PDT 2024 ON: 21.57 +20.0 21.62 -21.3 19.0 22.5 28.0 20 0 Alarm State:  0
Fri Apr 19 17:56:05 PDT 2024 ON: 21.57 +20.0 21.61 -21.3 19.0 22.5 28.0 20 0 Alarm State:  0
Fri Apr 19 17:55:03 PDT 2024 ON: 21.58 +20.0 21.63 -21.4 18.9 22.5 28.0 20 0 Alarm State:  0
Fri Apr 19 17:54:01 PDT 2024 ON: 21.57 +20.0 21.61 -21.5 18.8 22.6 28.0 20 0 Alarm State:  0
Fri Apr 19 17:53:00 PDT 2024 ON: 21.57 +20.0 21.62 -21.4 18.9 22.5 28.0 20 0 Alarm State:  0
Fri Apr 19 17:51:58 PDT 2024 ON: 21.57 +20.0 21.62 -21.5 18.8 22.6 28.0 20 0 Alarm State:  0
Fri Apr 19 17:50:57 PDT 2024 ON: 21.57 +20.0 21.62 -21.4 18.9 22.5 28.0 20 0 Alarm State:  0
Fri Apr 19 17:49:55 PDT 2024 ON: 21.57 +20.0 21.62 -21.5 18.8 22.6 28.0 20 0 Alarm State:  0
Fri Apr 19 17:48:54 PDT 2024 ON: 21.57 +20.0 21.62 -21.4 18.9 22.5 28.0 20 0 Alarm State:  0
Fri Apr 19 17:47:52 PDT 2024 ON: 21.56 +20.0 21.61 -21.5 18.8 22.6 28.0 20 0 Alarm State:  0
Fri Apr 19 17:46:51 PDT 2024 ON: 21.56 +20.0 21.60 -21.3 19.0 22.5 28.0 20 0 Alarm State:  0
Fri Apr 19 17:45:49 PDT 2024 ON: 21.56 +20.0 21.61 -21.4 18.9 22.5 28.0 20 0 Alarm State:  0
Fri Apr 19 17:44:48 PDT 2024 ON: 21.56 +20.0 21.61 -21.3 19.0 22.5 28.0 20 0 Alarm State:  0
Fri Apr 19 17:43:46 PDT 2024 ON: 21.57 +20.0 21.62 -21.4 18.9 22.5 28.0 20 0 Alarm State:  0
Fri Apr 19 17:42:45 PDT 2024 ON: 21.58 +20.0 21.62 -21.4 18.9 22.5 28.0 20 0 Alarm State:  0
Fri Apr 19 17:41:43 PDT 2024 ON: 21.57 +20.0 21.62 -21.4 18.9 22.5 28.0 20 0 Alarm State:  0
Fri Apr 19 17:40:42 PDT 2024 ON: 21.56 +20.0 21.61 -21.4 18.9 22.5 28.0 20 0 Alarm State:  0
Fri Apr 19 17:39:40 PDT 2024 ON: 21.56 +20.0 21.61 -21.4 18.9 22.5 28.0 20 0 Alarm State:  0
Fri Apr 19 17:38:39 PDT 2024 ON: 21.57 +20.0 21.62 -21.3 19.0 22.5 28.0 20 0 Alarm State:  0
Fri Apr 19 17:37:37 PDT 2024 ON: 21.57 +20.0 21.61 -21.4 18.9 22.5 28.0 20 0 Alarm State:  0
Fri Apr 19 17:36:36 PDT 2024 ON: 21.56 +20.0 21.60 -21.4 18.9 22.5 28.0 19 0 Alarm State:  0
Fri Apr 19 17:35:34 PDT 2024 ON: 21.56 +20.0 21.61 -21.4 18.9 22.5 28.0 20 0 Alarm State:  0
Fri Apr 19 17:34:33 PDT 2024 ON: 21.57 +20.0 21.63 -21.4 18.9 22.5 28.0 19 0 Alarm State:  0
Fri Apr 19 17:33:31 PDT 2024 ON: 21.57 +20.0 21.62 -21.4 18.9 22.5 28.0 20 0 Alarm State:  0
Fri Apr 19 17:32:30 PDT 2024 ON: 21.56 +20.0 21.61 -21.5 18.8 22.6 28.0 20 0 Alarm State:  0
Fri Apr 19 17:31:28 PDT 2024 ON: 21.56 +20.0 21.61 -21.5 18.8 22.6 28.0 20 0 Alarm State:  0
Fri Apr 19 17:30:27 PDT 2024 ON: 21.57 +20.0 21.62 -21.3 19.0 22.5 28.0 20 0 Alarm State:  0
Fri Apr 19 17:29:25 PDT 2024 ON: 21.56 +20.0 21.61 -21.4 18.9 22.5 28.0 20 0 Alarm State:  0
Fri Apr 19 17:28:24 PDT 2024 ON: 21.58 +20.0 21.62 -21.4 18.9 22.5 28.0 20 0 Alarm State:  0
Fri Apr 19 17:27:22 PDT 2024 ON: 21.57 +20.0 21.62 -21.4 18.9 22.5 28.0 20 0 Alarm State:  0
Fri Apr 19 17:26:21 PDT 2024 ON: 21.57 +20.0 21.62 -21.4 18.9 22.5 28.0 20 0 Alarm State:  0
Fri Apr 19 17:25:19 PDT 2024 ON: 21.56 +20.0 21.61 -21.4 18.9 22.5 28.0 20 0 Alarm State:  0
Fri Apr 19 17:24:18 PDT 2024 ON: 21.56 +20.0 21.61 -21.4 18.9 22.5 28.0 20 0 Alarm State:  0
Fri Apr 19 17:23:16 PDT 2024 ON: 21.56 +20.0 21.61 -21.4 18.9 22.5 28.0 20 0 Alarm State:  0
Fri Apr 19 17:22:15 PDT 2024 ON: 21.56 +20.0 21.61 -21.4 18.9 22.5 28.0 20 0 Alarm State:  0
Fri Apr 19 17:21:13 PDT 2024 ON: 21.56 +20.0 21.60 -21.4 18.9 22.5 28.0 20 0 Alarm State:  0
Fri Apr 19 17:20:12 PDT 2024 ON: 21.56 +20.0 21.60 -21.4 18.9 22.5 28.0 20 0 Alarm State:  0
Fri Apr 19 17:19:10 PDT 2024 ON: 21.56 +20.0 21.60 -21.4 18.9 22.5 28.0 20 0 Alarm State:  0
Fri Apr 19 17:18:09 PDT 2024 ON: 21.56 +20.0 21.61 -21.4 18.9 22.5 28.0 20 0 Alarm State:  0
Fri Apr 19 17:17:07 PDT 2024 ON: 21.57 +20.0 21.61 -21.3 19.0 22.5 28.0 20 0 Alarm State:  0
Fri Apr 19 17:16:06 PDT 2024 ON: 21.56 +20.0 21.60 -21.4 18.9 22.5 28.0 20 0 Alarm State:  0
Fri Apr 19 17:15:04 PDT 2024 ON: 21.57 +20.0 21.61 -21.4 18.9 22.5 28.0 20 0 Alarm State:  0
Fri Apr 19 17:14:03 PDT 2024 ON: 21.57 +20.0 21.62 -21.5 18.8 22.6 28.0 20 0 Alarm State:  0
Fri Apr 19 17:13:01 PDT 2024 ON: 21.56 +20.0 21.61 -21.4 18.9 22.5 28.0 19 0 Alarm State:  0
Fri Apr 19 17:12:00 PDT 2024 ON: 21.56 +20.0 21.61 -21.5 18.8 22.6 28.0 20 0 Alarm State:  0
Fri Apr 19 17:10:58 PDT 2024 ON: 21.56 +20.0 21.61 -21.4 18.9 22.5 28.0 19 0 Alarm State:  0
Fri Apr 19 17:09:57 PDT 2024 ON: 21.55 +20.0 21.60 -21.4 18.9 22.5 28.0 20 0 Alarm State:  0
Fri Apr 19 17:08:55 PDT 2024 ON: 21.56 +20.0 21.61 -21.5 18.8 22.6 28.0 20 0 Alarm State:  0
Fri Apr 19 17:07:54 PDT 2024 ON: 21.56 +20.0 21.60 -21.5 18.8 22.6 28.0 20 0 Alarm State:  0
Fri Apr 19 17:06:52 PDT 2024 ON: 21.56 +20.0 21.61 -21.4 18.9 22.5 28.0 19 0 Alarm State:  0
Fri Apr 19 17:05:51 PDT 2024 ON: 21.55 +20.0 21.60 -21.4 18.9 22.5 28.0 20 0 Alarm State:  0
Fri Apr 19 17:04:49 PDT 2024 ON: 21.55 +20.0 21.60 -21.5 18.7 22.7 28.0 20 0 Alarm State:  0
Fri Apr 19 17:03:48 PDT 2024 ON: 21.56 +20.0 21.60 -21.4 18.9 22.5 27.9 20 0 Alarm State:  0
Fri Apr 19 17:02:46 PDT 2024 ON: 21.56 +20.0 21.61 -21.4 18.9 22.5 28.0 20 0 Alarm State:  0
Fri Apr 19 17:01:45 PDT 2024 ON: 21.54 +20.0 21.59 -21.3 19.0 22.5 28.0 19 0 Alarm State:  0
Fri Apr 19 17:00:43 PDT 2024 ON: 21.55 +20.0 21.60 -21.4 18.9 22.5 28.0 20 0 Alarm State:  0
Fri Apr 19 16:59:42 PDT 2024 ON: 21.55 +20.0 21.59 -21.4 18.9 22.5 28.0 20 0 Alarm State:  0
Fri Apr 19 16:58:40 PDT 2024 ON: 21.55 +20.0 21.60 -21.5 18.8 22.6 28.0 20 0 Alarm State:  0
Fri Apr 19 16:57:38 PDT 2024 ON: 21.55 +20.0 21.60 -21.4 18.9 22.5 28.0 20 0 Alarm State:  0
Fri Apr 19 16:56:37 PDT 2024 ON: 21.55 +20.0 21.60 -21.5 18.8 22.6 28.0 20 0 Alarm State:  0
Fri Apr 19 16:55:35 PDT 2024 ON: 21.54 +20.0 21.58 -21.4 18.9 22.5 28.0 20 0 Alarm State:  0
Fri Apr 19 16:54:34 PDT 2024 ON: 21.54 +20.0 21.59 -21.4 18.9 22.5 28.0 20 0 Alarm State:  0
Fri Apr 19 16:53:32 PDT 2024 ON: 21.55 +20.0 21.60 -21.5 18.8 22.6 28.0 20 0 Alarm State:  0
Fri Apr 19 16:52:31 PDT 2024 ON: 21.54 +20.0 21.60 -21.5 18.8 22.6 28.0 20 0 Alarm State:  0
Fri Apr 19 16:51:29 PDT 2024 ON: 21.54 +20.0 21.59 -21.4 18.9 22.5 28.0 20 0 Alarm State:  0
Fri Apr 19 16:50:28 PDT 2024 ON: 21.54 +20.0 21.59 -21.5 18.8 22.6 27.9 20 0 Alarm State:  0
Fri Apr 19 16:49:26 PDT 2024 ON: 21.54 +20.0 21.58 -21.3 19.0 22.5 28.0 20 0 Alarm State:  0
Fri Apr 19 16:48:25 PDT 2024 ON: 21.55 +20.0 21.60 -21.5 18.8 22.6 28.0 20 0 Alarm State:  0
Fri Apr 19 16:47:23 PDT 2024 ON: 21.55 +20.0 21.60 -21.4 18.9 22.5 28.0 20 0 Alarm State:  0
Fri Apr 19 16:46:22 PDT 2024 ON: 21.54 +20.0 21.59 -21.5 18.7 22.7 28.0 20 0 Alarm State:  0
Fri Apr 19 16:45:20 PDT 2024 ON: 21.54 +20.0 21.58 -21.5 18.8 22.6 28.0 20 0 Alarm State:  0
Fri Apr 19 16:44:19 PDT 2024 ON: 21.54 +20.0 21.59 -21.4 18.9 22.5 28.0 20 0 Alarm State:  0
Fri Apr 19 16:43:17 PDT 2024 ON: 21.53 +20.0 21.58 -21.4 18.9 22.5 28.0 19 0 Alarm State:  0
Fri Apr 19 16:42:16 PDT 2024 ON: 21.54 +20.0 21.59 -21.5 18.8 22.6 28.0 20 0 Alarm State:  0
Fri Apr 19 16:41:14 PDT 2024 ON: 21.55 +20.0 21.59 -21.4 18.9 22.5 28.0 20 0 Alarm State:  0
Fri Apr 19 16:40:13 PDT 2024 ON: 21.53 +20.0 21.58 -21.5 18.7 22.7 28.0 20 0 Alarm State:  0
Fri Apr 19 16:39:11 PDT 2024 ON: 21.55 +20.0 21.59 -21.4 18.9 22.5 28.0 20 0 Alarm State:  0
Fri Apr 19 16:38:10 PDT 2024 ON: 21.53 +20.0 21.58 -21.4 18.9 22.5 28.0 20 0 Alarm State:  0
Fri Apr 19 16:37:08 PDT 2024 ON: 21.54 +20.0 21.59 -21.5 18.7 22.7 28.0 20 0 Alarm State:  0
Fri Apr 19 16:36:07 PDT 2024 ON: 21.53 +20.0 21.58 -21.5 18.7 22.7 28.0 20 0 Alarm State:  0
Fri Apr 19 16:35:05 PDT 2024 ON: 21.54 +20.0 21.58 -21.5 18.8 22.6 28.0 20 0 Alarm State:  0
Fri Apr 19 16:34:04 PDT 2024 ON: 21.54 +20.0 21.59 -21.5 18.8 22.6 28.0 20 0 Alarm State:  0
Fri Apr 19 16:33:02 PDT 2024 ON: 21.53 +20.0 21.57 -21.4 18.9 22.5 28.0 20 0 Alarm State:  0
Fri Apr 19 16:32:01 PDT 2024 ON: 21.54 +20.0 21.59 -21.5 18.8 22.6 28.0 20 0 Alarm State:  0
Fri Apr 19 16:30:49 PDT 2024  Alarm State: 0
Fri Apr 19 16:30:49 PDT 2024 Chiller did not report ON, got this reading: 
Fri Apr 19 16:29:48 PDT 2024 ON: 21.55 +20.0 21.59 -21.4 18.9 22.5 28.0 20 0 Alarm State:  0
Fri Apr 19 16:28:46 PDT 2024 ON: 21.54 +20.0 21.59 -21.4 18.9 22.6 28.0 19 0 Alarm State:  0
Fri Apr 19 16:27:45 PDT 2024 ON: 21.53 +20.0 21.58 -21.5 18.7 22.7 28.0 20 0 Alarm State:  0
Fri Apr 19 16:26:43 PDT 2024 ON: 21.54 +20.0 21.59 -21.5 18.8 22.6 28.0 20 0 Alarm State:  0
Fri Apr 19 16:25:42 PDT 2024 ON: 21.53 +20.0 21.57 -21.4 18.9 22.5 28.0 20 0 Alarm State:  0
Fri Apr 19 16:24:40 PDT 2024 ON: 21.53 +20.0 21.59 -21.4 18.9 22.5 28.0 20 0 Alarm State:  0
Fri Apr 19 16:23:39 PDT 2024 ON: 21.54 +20.0 21.59 -21.5 18.8 22.6 28.0 20 0 Alarm State:  0
Fri Apr 19 16:22:37 PDT 2024 ON: 21.53 +20.0 21.57 -21.5 18.8 22.6 28.0 20 0 Alarm State:  0
Fri Apr 19 16:21:36 PDT 2024 ON: 21.55 +20.0 21.59 -21.4 18.9 22.5 28.0 20 0 Alarm State:  0
Fri Apr 19 16:20:34 PDT 2024 ON: 21.53 +20.0 21.58 -21.5 18.8 22.6 28.0 20 0 Alarm State:  0
Fri Apr 19 16:19:33 PDT 2024 ON: 21.55 +20.0 21.59 -21.5 18.8 22.6 28.0 20 0 Alarm State:  0
Fri Apr 19 16:18:31 PDT 2024 ON: 21.55 +20.0 21.59 -21.4 18.9 22.5 28.0 20 0 Alarm State:  0
Fri Apr 19 16:17:30 PDT 2024 ON: 21.54 +20.0 21.59 -21.4 18.9 22.5 28.0 19 0 Alarm State:  0
Fri Apr 19 16:16:28 PDT 2024 ON: 21.55 +20.0 21.60 -21.3 19.0 22.5 28.0 20 0 Alarm State:  0
Fri Apr 19 16:15:27 PDT 2024 ON: 21.55 +20.0 21.60 -21.5 18.7 22.7 28.0 20 0 Alarm State:  0
Fri Apr 19 16:14:25 PDT 2024 ON: 21.54 +20.0 21.58 -21.5 18.8 22.6 28.0 20 0 Alarm State:  0
Fri Apr 19 16:13:24 PDT 2024 ON: 21.55 +20.0 21.61 -21.4 18.9 22.5 28.0 20 0 Alarm State:  0
Fri Apr 19 16:12:22 PDT 2024 ON: 21.55 +20.0 21.60 -21.4 18.9 22.5 27.9 20 0 Alarm State:  0
Fri Apr 19 16:11:11 PDT 2024  Alarm State: 0
Fri Apr 19 16:11:11 PDT 2024 Chiller did not report ON, got this reading: 
Fri Apr 19 16:10:09 PDT 2024 ON: 21.55 +20.0 21.59 -21.4 18.9 22.5 28.0 19 0 Alarm State:  0
Fri Apr 19 16:09:08 PDT 2024 ON: 21.55 +20.0 21.60 -21.5 18.8 22.6 28.0 20 0 Alarm State:  0
Fri Apr 19 16:08:06 PDT 2024 ON: 21.54 +20.0 21.59 -21.5 18.8 22.6 28.0 20 0 Alarm State:  0
Fri Apr 19 16:07:05 PDT 2024 ON: 21.55 +20.0 21.60 -21.4 18.9 22.5 28.0 19 0 Alarm State:  0
Fri Apr 19 16:06:03 PDT 2024 ON: 21.55 +20.0 21.59 -21.3 19.0 22.5 28.0 19 0 Alarm State:  0
Fri Apr 19 16:05:02 PDT 2024 ON: 21.54 +20.0 21.59 -21.5 18.8 22.6 28.0 20 0 Alarm State:  0
Fri Apr 19 16:04:00 PDT 2024 ON: 21.54 +20.0 21.58 -21.4 18.9 22.5 28.0 20 0 Alarm State:  0
Fri Apr 19 16:02:59 PDT 2024 ON: 21.53 +20.0 21.58 -21.5 18.8 22.6 28.0 20 0 Alarm State:  0
Fri Apr 19 16:01:57 PDT 2024 ON: 21.54 +20.0 21.58 -21.5 18.8 22.6 28.0 20 0 Alarm State:  0
Fri Apr 19 16:00:56 PDT 2024 ON: 21.53 +20.0 21.57 -21.5 18.8 22.6 28.0 20 0 Alarm State:  0
Fri Apr 19 15:59:54 PDT 2024 ON: 21.53 +20.0 21.57 -21.4 18.9 22.5 28.0 19 0 Alarm State:  0
Fri Apr 19 15:58:53 PDT 2024 ON: 21.53 +20.0 21.58 -21.4 18.9 22.5 28.0 20 0 Alarm State:  0
Fri Apr 19 15:57:51 PDT 2024 ON: 21.54 +20.0 21.58 -21.4 18.9 22.5 28.0 20 0 Alarm State:  0
Fri Apr 19 15:56:50 PDT 2024 ON: 21.54 +20.0 21.58 -21.4 18.9 22.5 28.0 20 0 Alarm State:  0
Fri Apr 19 15:55:48 PDT 2024 ON: 21.54 +20.0 21.58 -21.4 18.9 22.5 28.0 20 0 Alarm State:  0
Fri Apr 19 15:54:47 PDT 2024 ON: 21.52 +20.0 21.57 -21.5 18.8 22.6 28.0 20 0 Alarm State:  0
Fri Apr 19 15:53:45 PDT 2024 ON: 21.52 +20.0 21.57 -21.5 18.8 22.6 28.0 20 0 Alarm State:  0
Fri Apr 19 15:52:44 PDT 2024 ON: 21.52 +20.0 21.57 -21.5 18.8 22.6 28.0 20 0 Alarm State:  0
Fri Apr 19 15:51:42 PDT 2024 ON: 21.52 +20.0 21.57 -21.5 18.8 22.6 28.0 20 0 Alarm State:  0
Fri Apr 19 15:50:41 PDT 2024 ON: 21.52 +20.0 21.57 -21.5 18.8 22.6 28.0 20 0 Alarm State:  0
Fri Apr 19 15:49:39 PDT 2024 ON: 21.52 +20.0 21.56 -21.5 18.8 22.6 28.0 20 0 Alarm State:  0
Fri Apr 19 15:48:38 PDT 2024 ON: 21.52 +20.0 21.56 -21.5 18.8 22.6 28.0 20 0 Alarm State:  0
Fri Apr 19 15:47:26 PDT 2024  Alarm State: 0
Fri Apr 19 15:47:26 PDT 2024 Chiller did not report ON, got this reading: 
Fri Apr 19 15:46:25 PDT 2024 ON: 21.52 +20.0 21.57 -21.5 18.8 22.6 28.0 20 0 Alarm State:  0
Fri Apr 19 15:45:23 PDT 2024 ON: 21.51 +20.0 21.55 -21.4 18.9 22.5 28.0 20 0 Alarm State:  0
Fri Apr 19 15:44:22 PDT 2024 ON: 21.51 +20.0 21.55 -21.5 18.8 22.6 28.0 20 0 Alarm State:  0
Fri Apr 19 15:43:20 PDT 2024 ON: 21.51 +20.0 21.56 -21.4 18.9 22.5 28.0 20 0 Alarm State:  0
Fri Apr 19 15:42:19 PDT 2024 ON: 21.51 +20.0 21.56 -21.4 18.9 22.5 28.0 20 0 Alarm State:  0
Fri Apr 19 15:41:17 PDT 2024 ON: 21.50 +20.0 21.55 -21.5 18.7 22.7 28.0 20 0 Alarm State:  0
Fri Apr 19 15:40:16 PDT 2024 ON: 21.51 +20.0 21.56 -21.4 18.9 22.5 28.0 20 0 Alarm State:  0
Fri Apr 19 15:39:14 PDT 2024 ON: 21.51 +20.0 21.55 -21.4 18.9 22.5 28.0 20 0 Alarm State:  0
Fri Apr 19 15:38:13 PDT 2024 ON: 21.51 +20.0 21.56 -21.4 18.9 22.5 28.0 20 0 Alarm State:  0
Fri Apr 19 15:37:11 PDT 2024 ON: 21.50 +20.0 21.54 -21.5 18.8 22.6 28.0 20 0 Alarm State:  0
Fri Apr 19 15:36:10 PDT 2024 ON: 21.50 +20.0 21.55 -21.5 18.8 22.6 28.0 20 0 Alarm State:  0
Fri Apr 19 15:35:08 PDT 2024 ON: 21.50 +20.0 21.55 -21.5 18.8 22.6 28.0 20 0 Alarm State:  0
Fri Apr 19 15:34:07 PDT 2024 ON: 21.49 +20.0 21.53 -21.4 18.9 22.5 28.0 20 0 Alarm State:  0
Fri Apr 19 15:33:05 PDT 2024 ON: 21.50 +20.0 21.55 -21.4 18.9 22.5 27.9 20 0 Alarm State:  0
Fri Apr 19 15:32:04 PDT 2024 ON: 21.50 +20.0 21.55 -21.5 18.8 22.6 28.0 20 0 Alarm State:  0
Fri Apr 19 15:31:02 PDT 2024 ON: 21.50 +20.0 21.55 -21.4 18.9 22.5 28.0 20 0 Alarm State:  0
Fri Apr 19 15:30:01 PDT 2024 ON: 21.50 +20.0 21.55 -21.4 18.9 22.5 28.0 20 0 Alarm State:  0
Fri Apr 19 15:28:59 PDT 2024 ON: 21.50 +20.0 21.54 -21.5 18.8 22.6 28.0 20 0 Alarm State:  0
Fri Apr 19 15:27:58 PDT 2024 ON: 21.49 +20.0 21.54 -21.4 18.9 22.5 27.9 20 0 Alarm State:  0
Fri Apr 19 15:26:56 PDT 2024 ON: 21.50 +20.0 21.55 -21.4 18.9 22.5 28.0 20 0 Alarm State:  0
Fri Apr 19 15:25:55 PDT 2024 ON: 21.50 +20.0 21.54 -21.4 18.9 22.5 28.0 20 0 Alarm State:  0
Fri Apr 19 15:24:53 PDT 2024 ON: 21.50 +20.0 21.55 -21.5 18.8 22.6 27.9 20 0 Alarm State:  0
Fri Apr 19 15:23:52 PDT 2024 ON: 21.50 +20.0 21.54 -21.4 18.9 22.5 28.0 20 0 Alarm State:  0
Fri Apr 19 15:22:50 PDT 2024 ON: 21.51 +20.0 21.56 -21.5 18.8 22.6 27.9 20 0 Alarm State:  0
Fri Apr 19 15:21:49 PDT 2024 ON: 21.50 +20.0 21.55 -21.5 18.7 22.7 28.0 20 0 Alarm State:  0
Fri Apr 19 15:20:47 PDT 2024 ON: 21.50 +20.0 21.55 -21.4 18.9 22.5 28.0 20 0 Alarm State:  0
Fri Apr 19 15:19:46 PDT 2024 ON: 21.51 +20.0 21.56 -21.5 18.7 22.7 28.0 20 0 Alarm State:  0
Fri Apr 19 15:18:44 PDT 2024 ON: 21.51 +20.0 21.56 -21.5 18.8 22.6 28.0 20 0 Alarm State:  0
Fri Apr 19 15:17:43 PDT 2024 ON: 21.50 +20.0 21.55 -21.5 18.7 22.7 27.9 20 0 Alarm State:  0
Fri Apr 19 15:16:41 PDT 2024 ON: 21.51 +20.0 21.56 -21.5 18.8 22.6 28.0 20 0 Alarm State:  0
Fri Apr 19 15:15:40 PDT 2024 ON: 21.51 +20.0 21.56 -21.5 18.8 22.6 28.0 19 0 Alarm State:  0
Fri Apr 19 15:14:38 PDT 2024 ON: 21.49 +20.0 21.54 -21.5 18.8 22.6 28.0 20 0 Alarm State:  0
Fri Apr 19 15:13:37 PDT 2024 ON: 21.50 +20.0 21.54 -21.5 18.8 22.6 28.0 20 0 Alarm State:  0
Fri Apr 19 15:12:35 PDT 2024 ON: 21.51 +20.0 21.55 -21.3 19.0 22.5 28.0 20 0 Alarm State:  0
Fri Apr 19 15:11:34 PDT 2024 ON: 21.51 +20.0 21.56 -21.5 18.8 22.6 28.0 20 0 Alarm State:  0
Fri Apr 19 15:10:32 PDT 2024 ON: 21.50 +20.0 21.55 -21.5 18.8 22.6 28.0 20 0 Alarm State:  0
Fri Apr 19 15:09:31 PDT 2024 ON: 21.51 +20.0 21.56 -21.4 18.9 22.5 28.0 20 0 Alarm State:  0
Fri Apr 19 15:08:29 PDT 2024 ON: 21.50 +20.0 21.55 -21.4 18.9 22.5 28.0 20 0 Alarm State:  0
Fri Apr 19 15:07:28 PDT 2024 ON: 21.50 +20.0 21.55 -21.4 18.9 22.5 28.0 20 0 Alarm State:  0
Fri Apr 19 15:06:26 PDT 2024 ON: 21.51 +20.0 21.56 -21.5 18.8 22.6 28.0 20 0 Alarm State:  0
Fri Apr 19 15:05:25 PDT 2024 ON: 21.50 +20.0 21.55 -21.5 18.8 22.6 28.0 20 0 Alarm State:  0
Fri Apr 19 15:04:23 PDT 2024 ON: 21.51 +20.0 21.55 -21.4 18.9 22.5 28.0 20 0 Alarm State:  0
Fri Apr 19 15:03:21 PDT 2024 ON: 21.51 +20.0 21.55 -21.5 18.8 22.6 28.0 20 0 Alarm State:  0
Fri Apr 19 15:02:20 PDT 2024 ON: 21.50 +20.0 21.55 -21.5 18.8 22.6 28.0 20 0 Alarm State:  0
Fri Apr 19 15:01:18 PDT 2024 ON: 21.50 +20.0 21.55 -21.5 18.7 22.7 27.9 20 0 Alarm State:  0
Fri Apr 19 15:00:17 PDT 2024 ON: 21.51 +20.0 21.55 -21.4 18.9 22.5 28.0 20 0 Alarm State:  0
Fri Apr 19 14:59:15 PDT 2024 ON: 21.50 +20.0 21.55 -21.5 18.8 22.6 28.0 20 0 Alarm State:  0
Fri Apr 19 14:58:14 PDT 2024 ON: 21.49 +20.0 21.54 -21.5 18.8 22.6 28.0 20 0 Alarm State:  0
Fri Apr 19 14:57:12 PDT 2024 ON: 21.50 +20.0 21.55 -21.4 18.9 22.5 28.0 20 0 Alarm State:  0
Fri Apr 19 14:56:01 PDT 2024  Alarm State: 0
Fri Apr 19 14:56:01 PDT 2024 Chiller did not report ON, got this reading: 
Fri Apr 19 14:55:00 PDT 2024 ON: 21.51 +20.0 21.56 -21.3 19.0 22.5 28.0 20 0 Alarm State:  0
Fri Apr 19 14:53:58 PDT 2024 ON: 21.50 +20.0 21.55 -21.3 19.0 22.5 28.0 20 0 Alarm State:  0
Fri Apr 19 14:52:57 PDT 2024 ON: 21.50 +20.0 21.55 -21.4 18.9 22.5 28.0 20 0 Alarm State:  0
Fri Apr 19 14:51:55 PDT 2024 ON: 21.50 +20.0 21.55 -21.5 18.8 22.6 28.0 20 0 Alarm State:  0
Fri Apr 19 14:50:54 PDT 2024 ON: 21.50 +20.0 21.53 -21.4 18.9 22.5 28.0 20 0 Alarm State:  0
Fri Apr 19 14:49:52 PDT 2024 ON: 21.50 +20.0 21.55 -21.4 18.9 22.5 28.0 20 0 Alarm State:  0
Fri Apr 19 14:48:51 PDT 2024 ON: 21.50 +20.0 21.55 -21.5 18.7 22.7 28.0 20 0 Alarm State:  0
Fri Apr 19 14:47:49 PDT 2024 ON: 21.50 +20.0 21.55 -21.4 18.9 22.5 28.0 20 0 Alarm State:  0
Fri Apr 19 14:46:48 PDT 2024 ON: 21.49 +20.0 21.54 -21.4 18.9 22.5 28.0 20 0 Alarm State:  0
Fri Apr 19 14:45:46 PDT 2024 ON: 21.51 +20.0 21.56 -21.4 18.9 22.5 28.0 20 0 Alarm State:  0
Fri Apr 19 14:44:44 PDT 2024 ON: 21.50 +20.0 21.55 -21.4 18.9 22.5 28.0 20 0 Alarm State:  0
Fri Apr 19 14:43:43 PDT 2024 ON: 21.51 +20.0 21.56 -21.4 18.9 22.5 28.0 20 0 Alarm State:  0
Fri Apr 19 14:42:41 PDT 2024 ON: 21.50 +20.0 21.55 -21.4 18.9 22.5 28.0 20 0 Alarm State:  0
Fri Apr 19 14:41:40 PDT 2024 ON: 21.50 +20.0 21.55 -21.4 18.9 22.5 28.0 20 0 Alarm State:  0
Fri Apr 19 14:40:38 PDT 2024 ON: 21.51 +20.0 21.56 -21.4 18.9 22.5 28.0 20 0 Alarm State:  0
Fri Apr 19 14:39:37 PDT 2024 ON: 21.51 +20.0 21.55 -21.4 18.9 22.5 28.0 20 0 Alarm State:  0
Fri Apr 19 14:38:35 PDT 2024 ON: 21.50 +20.0 21.55 -21.4 18.9 22.5 28.0 20 0 Alarm State:  0
Fri Apr 19 14:37:34 PDT 2024 ON: 21.50 +20.0 21.55 -21.4 18.9 22.5 28.0 20 0 Alarm State:  0
Fri Apr 19 14:36:32 PDT 2024 ON: 21.50 +20.0 21.55 -21.4 18.9 22.5 28.0 20 0 Alarm State:  0
Fri Apr 19 14:35:31 PDT 2024 ON: 21.51 +20.0 21.56 -21.3 19.0 22.5 28.0 20 0 Alarm State:  0
Fri Apr 19 14:34:29 PDT 2024 ON: 21.51 +20.0 21.55 -21.5 18.8 22.6 28.0 20 0 Alarm State:  0
Fri Apr 19 14:33:28 PDT 2024 ON: 21.51 +20.0 21.56 -21.4 18.9 22.5 28.0 20 0 Alarm State:  0
Fri Apr 19 14:32:26 PDT 2024 ON: 21.49 +20.0 21.53 -21.5 18.8 22.6 28.0 20 0 Alarm State:  0
Fri Apr 19 14:31:25 PDT 2024 ON: 21.50 +20.0 21.55 -21.5 18.8 22.6 28.0 20 0 Alarm State:  0
Fri Apr 19 14:30:23 PDT 2024 ON: 21.50 +20.0 21.55 -21.4 18.9 22.5 28.0 19 0 Alarm State:  0
Fri Apr 19 14:29:22 PDT 2024 ON: 21.48 +20.0 21.52 -21.4 18.9 22.5 28.0 20 0 Alarm State:  0
Fri Apr 19 14:28:20 PDT 2024 ON: 21.49 +20.0 21.54 -21.5 18.8 22.6 28.0 20 0 Alarm State:  0
Fri Apr 19 14:27:19 PDT 2024 ON: 21.49 +20.0 21.54 -21.4 18.9 22.5 28.0 20 0 Alarm State:  0
Fri Apr 19 14:26:17 PDT 2024 ON: 21.49 +20.0 21.53 -21.5 18.8 22.6 28.0 20 0 Alarm State:  0
Fri Apr 19 14:25:16 PDT 2024 ON: 21.48 +20.0 21.53 -21.5 18.8 22.6 28.0 20 0 Alarm State:  0
Fri Apr 19 14:24:14 PDT 2024 ON: 21.48 +20.0 21.52 -21.3 19.0 22.5 28.0 20 0 Alarm State:  0
Fri Apr 19 14:23:13 PDT 2024 ON: 21.48 +20.0 21.53 -21.4 18.9 22.5 28.0 20 0 Alarm State:  0
Fri Apr 19 14:22:11 PDT 2024 ON: 21.48 +20.0 21.53 -21.4 18.9 22.5 28.0 20 0 Alarm State:  0
Fri Apr 19 14:21:10 PDT 2024 ON: 21.47 +20.0 21.52 -21.4 18.9 22.5 28.0 20 0 Alarm State:  0
Fri Apr 19 14:20:08 PDT 2024 ON: 21.46 +20.0 21.51 -21.4 18.9 22.5 28.0 20 0 Alarm State:  0
Fri Apr 19 14:19:07 PDT 2024 ON: 21.47 +20.0 21.52 -21.5 18.8 22.6 28.0 20 0 Alarm State:  0
Fri Apr 19 14:18:05 PDT 2024 ON: 21.47 +20.0 21.52 -21.3 19.0 22.5 28.0 20 0 Alarm State:  0
Fri Apr 19 14:17:04 PDT 2024 ON: 21.48 +20.0 21.52 -21.5 18.8 22.6 28.0 20 0 Alarm State:  0
Fri Apr 19 14:16:02 PDT 2024 ON: 21.46 +20.0 21.50 -21.4 18.9 22.5 28.0 20 0 Alarm State:  0
Fri Apr 19 14:15:01 PDT 2024 ON: 21.47 +20.0 21.52 -21.4 18.9 22.5 28.0 19 0 Alarm State:  0
Fri Apr 19 14:13:59 PDT 2024 ON: 21.46 +20.0 21.51 -21.5 18.7 22.7 28.0 20 0 Alarm State:  0
Fri Apr 19 14:12:58 PDT 2024 ON: 21.47 +20.0 21.51 -21.4 18.9 22.5 28.0 20 0 Alarm State:  0
Fri Apr 19 14:11:56 PDT 2024 ON: 21.46 +20.0 21.50 -21.4 18.9 22.5 28.0 20 0 Alarm State:  0
Fri Apr 19 14:10:55 PDT 2024 ON: 21.47 +20.0 21.52 -21.5 18.8 22.6 28.0 20 0 Alarm State:  0
Fri Apr 19 14:09:53 PDT 2024 ON: 21.46 +20.0 21.51 -21.4 18.9 22.5 28.0 20 0 Alarm State:  0
Fri Apr 19 14:08:52 PDT 2024 ON: 21.47 +20.0 21.52 -21.4 18.9 22.5 28.0 20 0 Alarm State:  0
Fri Apr 19 14:07:50 PDT 2024 ON: 21.45 +20.0 21.50 -21.4 18.9 22.5 28.0 20 0 Alarm State:  0
Fri Apr 19 14:06:49 PDT 2024 ON: 21.47 +20.0 21.52 -21.4 18.9 22.5 28.0 20 0 Alarm State:  0
Fri Apr 19 14:05:47 PDT 2024 ON: 21.46 +20.0 21.51 -21.4 18.9 22.5 28.0 20 0 Alarm State:  0
Fri Apr 19 14:04:46 PDT 2024 ON: 21.46 +20.0 21.51 -21.5 18.8 22.6 28.0 20 0 Alarm State:  0
Fri Apr 19 14:03:44 PDT 2024 ON: 21.46 +20.0 21.51 -21.5 18.8 22.6 28.0 20 0 Alarm State:  0
Fri Apr 19 14:02:43 PDT 2024 ON: 21.46 +20.0 21.50 -21.4 18.9 22.5 28.0 20 0 Alarm State:  0
Fri Apr 19 14:01:41 PDT 2024 ON: 21.46 +20.0 21.50 -21.4 18.9 22.5 28.0 20 0 Alarm State:  0
Fri Apr 19 14:00:40 PDT 2024 ON: 21.45 +20.0 21.50 -21.4 18.9 22.5 28.0 20 0 Alarm State:  0
Fri Apr 19 13:59:38 PDT 2024 ON: 21.45 +20.0 21.50 -21.4 18.9 22.5 28.0 20 0 Alarm State:  0
Fri Apr 19 13:58:36 PDT 2024 ON: 21.46 +20.0 21.51 -21.4 18.9 22.5 28.0 20 0 Alarm State:  0
Fri Apr 19 13:57:35 PDT 2024 ON: 21.45 +20.0 21.50 -21.5 18.8 22.6 28.0 20 0 Alarm State:  0
Fri Apr 19 13:56:33 PDT 2024 ON: 21.45 +20.0 21.50 -21.4 18.9 22.5 28.0 20 0 Alarm State:  0
Fri Apr 19 13:55:32 PDT 2024 ON: 21.45 +20.0 21.50 -21.3 19.0 22.5 28.0 20 0 Alarm State:  0
Fri Apr 19 13:54:30 PDT 2024 ON: 21.45 +20.0 21.49 -21.5 18.8 22.6 28.0 20 0 Alarm State:  0
Fri Apr 19 13:53:29 PDT 2024 ON: 21.45 +20.0 21.50 -21.4 18.9 22.5 28.0 20 0 Alarm State:  0
Fri Apr 19 13:52:27 PDT 2024 ON: 21.45 +20.0 21.49 -21.4 18.9 22.5 28.0 20 0 Alarm State:  0
Fri Apr 19 13:51:26 PDT 2024 ON: 21.44 +20.0 21.49 -21.5 18.8 22.6 28.0 20 0 Alarm State:  0
Fri Apr 19 13:50:24 PDT 2024 ON: 21.44 +20.0 21.49 -21.5 18.8 22.6 28.0 20 0 Alarm State:  0
Fri Apr 19 13:49:23 PDT 2024 ON: 21.45 +20.0 21.49 -21.5 18.8 22.6 28.0 20 0 Alarm State:  0
Fri Apr 19 13:48:21 PDT 2024 ON: 21.44 +20.0 21.49 -21.4 18.9 22.5 28.0 20 0 Alarm State:  0
Fri Apr 19 13:47:20 PDT 2024 ON: 21.44 +20.0 21.49 -21.5 18.8 22.6 28.0 20 0 Alarm State:  0
Fri Apr 19 13:46:18 PDT 2024 ON: 21.44 +20.0 21.48 -21.3 19.0 22.5 28.0 20 0 Alarm State:  0
Fri Apr 19 13:45:17 PDT 2024 ON: 21.43 +20.0 21.48 -21.4 18.9 22.5 28.0 20 0 Alarm State:  0
Fri Apr 19 13:44:15 PDT 2024 ON: 21.44 +20.0 21.49 -21.4 18.9 22.5 28.0 20 0 Alarm State:  0
Fri Apr 19 13:43:14 PDT 2024 ON: 21.43 +20.0 21.48 -21.5 18.8 22.6 28.0 20 0 Alarm State:  0
Fri Apr 19 13:42:12 PDT 2024 ON: 21.44 +20.0 21.49 -21.4 18.9 22.5 28.0 19 0 Alarm State:  0
Fri Apr 19 13:41:11 PDT 2024 ON: 21.44 +20.0 21.48 -21.4 18.9 22.5 28.0 20 0 Alarm State:  0
Fri Apr 19 13:40:09 PDT 2024 ON: 21.43 +20.0 21.48 -21.4 18.9 22.5 28.0 20 0 Alarm State:  0
Fri Apr 19 13:39:08 PDT 2024 ON: 21.45 +20.0 21.49 -21.4 18.9 22.5 28.0 20 0 Alarm State:  0
Fri Apr 19 13:38:06 PDT 2024 ON: 21.45 +20.0 21.50 -21.5 18.8 22.6 28.0 20 0 Alarm State:  0
Fri Apr 19 13:37:05 PDT 2024 ON: 21.45 +20.0 21.50 -21.4 18.9 22.5 28.0 19 0 Alarm State:  0
Fri Apr 19 13:36:03 PDT 2024 ON: 21.44 +20.0 21.49 -21.5 18.8 22.6 27.9 20 0 Alarm State:  0
Fri Apr 19 13:35:02 PDT 2024 ON: 21.44 +20.0 21.49 -21.4 18.9 22.5 28.0 20 0 Alarm State:  0
Fri Apr 19 13:34:00 PDT 2024 ON: 21.45 +20.0 21.49 -21.5 18.8 22.6 28.0 20 0 Alarm State:  0
Fri Apr 19 13:32:59 PDT 2024 ON: 21.44 +20.0 21.49 -21.3 19.0 22.5 28.0 20 0 Alarm State:  0
Fri Apr 19 13:31:57 PDT 2024 ON: 21.43 +20.0 21.48 -21.5 18.8 22.6 28.0 19 0 Alarm State:  0
Fri Apr 19 13:30:56 PDT 2024 ON: 21.44 +20.0 21.50 -21.5 18.8 22.6 28.0 19 0 Alarm State:  0
Fri Apr 19 13:29:54 PDT 2024 ON: 21.44 +20.0 21.49 -21.5 18.7 22.7 27.9 20 0 Alarm State:  0
Fri Apr 19 13:28:53 PDT 2024 ON: 21.44 +20.0 21.48 -21.5 18.8 22.6 27.9 20 0 Alarm State:  0
Fri Apr 19 13:27:51 PDT 2024 ON: 21.45 +20.0 21.49 -21.5 18.8 22.6 28.0 20 0 Alarm State:  0
Fri Apr 19 13:26:50 PDT 2024 ON: 21.44 +20.0 21.48 -21.5 18.8 22.6 28.0 20 0 Alarm State:  0
Fri Apr 19 13:25:48 PDT 2024 ON: 21.45 +20.0 21.49 -21.3 19.0 22.5 28.0 19 0 Alarm State:  0
Fri Apr 19 13:24:47 PDT 2024 ON: 21.45 +20.0 21.50 -21.5 18.7 22.7 28.0 20 0 Alarm State:  0
Fri Apr 19 13:23:45 PDT 2024 ON: 21.44 +20.0 21.49 -21.5 18.8 22.6 28.0 20 0 Alarm State:  0
Fri Apr 19 13:22:44 PDT 2024 ON: 21.43 +20.0 21.47 -21.5 18.8 22.6 27.9 20 0 Alarm State:  0
Fri Apr 19 13:21:42 PDT 2024 ON: 21.44 +20.0 21.48 -21.4 18.9 22.5 28.0 20 0 Alarm State:  0
Fri Apr 19 13:20:41 PDT 2024 ON: 21.44 +20.0 21.49 -21.3 19.0 22.5 28.0 20 0 Alarm State:  0
Fri Apr 19 13:19:39 PDT 2024 ON: 21.43 +20.0 21.47 -21.5 18.8 22.6 28.0 20 0 Alarm State:  0
Fri Apr 19 13:18:38 PDT 2024 ON: 21.44 +20.0 21.49 -21.5 18.8 22.6 28.0 20 0 Alarm State:  0
Fri Apr 19 13:17:36 PDT 2024 ON: 21.44 +20.0 21.49 -21.4 18.9 22.5 28.0 20 0 Alarm State:  0
Fri Apr 19 13:16:35 PDT 2024 ON: 21.43 +20.0 21.48 -21.5 18.8 22.6 28.0 20 0 Alarm State:  0
Fri Apr 19 13:15:33 PDT 2024 ON: 21.43 +20.0 21.48 -21.5 18.8 22.6 28.0 20 0 Alarm State:  0
Fri Apr 19 13:14:32 PDT 2024 ON: 21.44 +20.0 21.48 -21.5 18.8 22.6 28.0 20 0 Alarm State:  0
Fri Apr 19 13:13:30 PDT 2024 ON: 21.43 +20.0 21.48 -21.5 18.8 22.6 27.9 20 0 Alarm State:  0
Fri Apr 19 13:12:29 PDT 2024 ON: 21.42 +20.0 21.47 -21.5 18.8 22.6 27.9 20 0 Alarm State:  0
Fri Apr 19 13:11:27 PDT 2024 ON: 21.43 +20.0 21.47 -21.5 18.7 22.7 28.0 20 0 Alarm State:  0
Fri Apr 19 13:10:26 PDT 2024 ON: 21.42 +20.0 21.46 -21.5 18.8 22.6 28.0 20 0 Alarm State:  0
Fri Apr 19 13:09:24 PDT 2024 ON: 21.43 +20.0 21.47 -21.4 18.9 22.5 28.0 20 0 Alarm State:  0
Fri Apr 19 13:08:23 PDT 2024 ON: 21.42 +20.0 21.47 -21.4 18.9 22.5 28.0 20 0 Alarm State:  0
Fri Apr 19 13:07:21 PDT 2024 ON: 21.43 +20.0 21.48 -21.4 18.9 22.5 28.0 20 0 Alarm State:  0
Fri Apr 19 13:06:20 PDT 2024 ON: 21.42 +20.0 21.46 -21.5 18.8 22.6 28.0 20 0 Alarm State:  0
Fri Apr 19 13:05:18 PDT 2024 ON: 21.41 +20.0 21.46 -21.5 18.8 22.6 28.0 20 0 Alarm State:  0
Fri Apr 19 13:04:17 PDT 2024 ON: 21.43 +20.0 21.48 -21.5 18.8 22.6 28.0 20 0 Alarm State:  0
Fri Apr 19 13:03:15 PDT 2024 ON: 21.41 +20.0 21.46 -21.4 18.9 22.5 28.0 19 0 Alarm State:  0
Fri Apr 19 13:02:14 PDT 2024 ON: 21.41 +20.0 21.46 -21.5 18.8 22.6 28.0 20 0 Alarm State:  0
Fri Apr 19 13:01:12 PDT 2024 ON: 21.41 +20.0 21.45 -21.4 18.9 22.5 28.0 19 0 Alarm State:  0
Fri Apr 19 13:00:10 PDT 2024 ON: 21.42 +20.0 21.47 -21.5 18.8 22.6 28.0 20 0 Alarm State:  0
Fri Apr 19 12:59:09 PDT 2024 ON: 21.42 +20.0 21.47 -21.4 18.9 22.5 28.0 20 0 Alarm State:  0
Fri Apr 19 12:58:07 PDT 2024 ON: 21.41 +20.0 21.45 -21.5 18.8 22.6 28.0 20 0 Alarm State:  0
Fri Apr 19 12:57:06 PDT 2024 ON: 21.42 +20.0 21.46 -21.4 18.9 22.5 28.0 20 0 Alarm State:  0
Fri Apr 19 12:56:04 PDT 2024 ON: 21.42 +20.0 21.46 -21.4 18.9 22.5 28.0 19 0 Alarm State:  0
Fri Apr 19 12:55:03 PDT 2024 ON: 21.42 +20.0 21.46 -21.5 18.8 22.6 28.0 20 0 Alarm State:  0
Fri Apr 19 12:54:01 PDT 2024 ON: 21.40 +20.0 21.45 -21.5 18.8 22.6 27.9 20 0 Alarm State:  0
Fri Apr 19 12:53:00 PDT 2024 ON: 21.40 +20.0 21.45 -21.5 18.8 22.6 28.0 20 0 Alarm State:  0
Fri Apr 19 12:51:58 PDT 2024 ON: 21.42 +20.0 21.46 -21.5 18.8 22.6 28.0 20 0 Alarm State:  0
Fri Apr 19 12:50:57 PDT 2024 ON: 21.42 +20.0 21.46 -21.5 18.8 22.6 28.0 20 0 Alarm State:  0
Fri Apr 19 12:49:55 PDT 2024 ON: 21.41 +20.0 21.46 -21.5 18.8 22.6 28.0 20 0 Alarm State:  0
Fri Apr 19 12:48:54 PDT 2024 ON: 21.41 +20.0 21.46 -21.5 18.8 22.6 28.0 20 0 Alarm State:  0
Fri Apr 19 12:47:52 PDT 2024 ON: 21.42 +20.0 21.46 -21.5 18.8 22.6 27.9 19 0 Alarm State:  0
Fri Apr 19 12:46:51 PDT 2024 ON: 21.41 +20.0 21.46 -21.4 18.9 22.5 28.0 20 0 Alarm State:  0
Fri Apr 19 12:45:49 PDT 2024 ON: 21.40 +20.0 21.45 -21.3 19.0 22.5 28.0 20 0 Alarm State:  0
Fri Apr 19 12:44:48 PDT 2024 ON: 21.41 +20.0 21.46 -21.5 18.7 22.7 28.0 20 0 Alarm State:  0
Fri Apr 19 12:43:46 PDT 2024 ON: 21.41 +20.0 21.46 -21.3 19.0 22.5 28.0 20 0 Alarm State:  0
Fri Apr 19 12:42:45 PDT 2024 ON: 21.41 +20.0 21.46 -21.4 18.9 22.5 28.0 20 0 Alarm State:  0
Fri Apr 19 12:41:43 PDT 2024 ON: 21.42 +20.0 21.47 -21.5 18.8 22.6 28.0 20 0 Alarm State:  0
Fri Apr 19 12:40:42 PDT 2024 ON: 21.41 +20.0 21.47 -21.5 18.8 22.6 28.0 20 0 Alarm State:  0
Fri Apr 19 12:39:40 PDT 2024 ON: 21.40 +20.0 21.45 -21.5 18.8 22.6 28.0 20 0 Alarm State:  0
Fri Apr 19 12:38:39 PDT 2024 ON: 21.40 +20.0 21.44 -21.5 18.8 22.6 28.0 20 0 Alarm State:  0
Fri Apr 19 12:37:37 PDT 2024 ON: 21.41 +20.0 21.46 -21.5 18.8 22.6 28.0 20 0 Alarm State:  0
Fri Apr 19 12:36:36 PDT 2024 ON: 21.41 +20.0 21.45 -21.3 19.0 22.5 28.0 20 0 Alarm State:  0
Fri Apr 19 12:35:34 PDT 2024 ON: 21.40 +20.0 21.44 -21.5 18.7 22.7 28.0 20 0 Alarm State:  0
Fri Apr 19 12:34:33 PDT 2024 ON: 21.39 +20.0 21.43 -21.4 18.9 22.5 28.0 19 0 Alarm State:  0
Fri Apr 19 12:33:31 PDT 2024 ON: 21.40 +20.0 21.45 -21.5 18.8 22.6 28.0 20 0 Alarm State:  0
Fri Apr 19 12:32:30 PDT 2024 ON: 21.39 +20.0 21.44 -21.5 18.8 22.6 28.0 20 0 Alarm State:  0
Fri Apr 19 12:31:28 PDT 2024 ON: 21.39 +20.0 21.44 -21.5 18.8 22.6 28.0 20 0 Alarm State:  0
Fri Apr 19 12:30:27 PDT 2024 ON: 21.39 +20.0 21.44 -21.5 18.8 22.6 28.0 20 0 Alarm State:  0
Fri Apr 19 12:29:25 PDT 2024 ON: 21.39 +20.0 21.44 -21.5 18.8 22.6 28.0 20 0 Alarm State:  0
Fri Apr 19 12:28:24 PDT 2024 ON: 21.40 +20.0 21.44 -21.5 18.8 22.6 28.0 20 0 Alarm State:  0
Fri Apr 19 12:27:22 PDT 2024 ON: 21.38 +20.0 21.42 -21.4 18.9 22.5 28.0 20 0 Alarm State:  0
Fri Apr 19 12:26:21 PDT 2024 ON: 21.39 +20.0 21.44 -21.5 18.8 22.6 28.0 20 0 Alarm State:  0
Fri Apr 19 12:25:19 PDT 2024 ON: 21.40 +20.0 21.44 -21.4 18.9 22.5 28.0 20 0 Alarm State:  0
Fri Apr 19 12:24:18 PDT 2024 ON: 21.39 +20.0 21.44 -21.5 18.8 22.6 28.0 19 0 Alarm State:  0
Fri Apr 19 12:23:16 PDT 2024 ON: 21.40 +20.0 21.44 -21.5 18.8 22.6 28.0 20 0 Alarm State:  0
Fri Apr 19 12:22:15 PDT 2024 ON: 21.40 +20.0 21.45 -21.4 18.9 22.5 27.9 20 0 Alarm State:  0
Fri Apr 19 12:21:13 PDT 2024 ON: 21.40 +20.0 21.44 -21.5 18.8 22.6 28.0 20 0 Alarm State:  0
Fri Apr 19 12:20:12 PDT 2024 ON: 21.39 +20.0 21.44 -21.4 18.9 22.5 28.0 20 0 Alarm State:  0
Fri Apr 19 12:19:10 PDT 2024 ON: 21.40 +20.0 21.45 -21.4 18.9 22.5 28.0 20 0 Alarm State:  0
Fri Apr 19 12:18:09 PDT 2024 ON: 21.39 +20.0 21.44 -21.4 18.9 22.5 28.0 20 0 Alarm State:  0
Fri Apr 19 12:17:07 PDT 2024 ON: 21.39 +20.0 21.43 -21.3 19.0 22.5 28.0 19 0 Alarm State:  0
Fri Apr 19 12:16:06 PDT 2024 ON: 21.40 +20.0 21.44 -21.4 18.9 22.5 28.0 20 0 Alarm State:  0
Fri Apr 19 12:15:04 PDT 2024 ON: 21.39 +20.0 21.43 -21.5 18.8 22.6 27.9 19 0 Alarm State:  0
Fri Apr 19 12:14:03 PDT 2024 ON: 21.39 +20.0 21.44 -21.5 18.8 22.6 28.0 20 0 Alarm State:  0
Fri Apr 19 12:13:01 PDT 2024 ON: 21.39 +20.0 21.44 -21.5 18.8 22.6 28.0 20 0 Alarm State:  0
Fri Apr 19 12:12:00 PDT 2024 ON: 21.40 +20.0 21.45 -21.5 18.8 22.6 28.0 20 0 Alarm State:  0
Fri Apr 19 12:10:58 PDT 2024 ON: 21.40 +20.0 21.44 -21.5 18.8 22.6 28.0 19 0 Alarm State:  0
Fri Apr 19 12:09:57 PDT 2024 ON: 21.39 +20.0 21.43 -21.5 18.8 22.6 28.0 20 0 Alarm State:  0
Fri Apr 19 12:08:55 PDT 2024 ON: 21.39 +20.0 21.44 -21.5 18.8 22.6 28.0 19 0 Alarm State:  0
Fri Apr 19 12:07:54 PDT 2024 ON: 21.39 +20.0 21.43 -21.4 18.9 22.5 28.0 20 0 Alarm State:  0
Fri Apr 19 12:06:52 PDT 2024 ON: 21.40 +20.0 21.45 -21.5 18.8 22.6 28.0 20 0 Alarm State:  0
Fri Apr 19 12:05:51 PDT 2024 ON: 21.39 +20.0 21.43 -21.5 18.8 22.6 28.0 20 0 Alarm State:  0
Fri Apr 19 12:04:49 PDT 2024 ON: 21.40 +20.0 21.44 -21.4 18.9 22.5 28.0 20 0 Alarm State:  0
Fri Apr 19 12:03:48 PDT 2024 ON: 21.39 +20.0 21.44 -21.5 18.8 22.6 28.0 20 0 Alarm State:  0
Fri Apr 19 12:02:46 PDT 2024 ON: 21.40 +20.0 21.45 -21.5 18.8 22.6 28.0 20 0 Alarm State:  0
Fri Apr 19 12:01:44 PDT 2024 ON: 21.40 +20.0 21.45 -21.5 18.8 22.6 28.0 20 0 Alarm State:  0
Fri Apr 19 12:00:43 PDT 2024 ON: 21.40 +20.0 21.45 -21.5 18.8 22.6 28.0 20 0 Alarm State:  0
Fri Apr 19 11:59:41 PDT 2024 ON: 21.39 +20.0 21.44 -21.5 18.8 22.6 28.0 20 0 Alarm State:  0
Fri Apr 19 11:58:40 PDT 2024 ON: 21.39 +20.0 21.44 -21.5 18.8 22.6 28.0 20 0 Alarm State:  0
Fri Apr 19 11:57:38 PDT 2024 ON: 21.39 +20.0 21.44 -21.5 18.8 22.6 28.0 20 0 Alarm State:  0
Fri Apr 19 11:56:37 PDT 2024 ON: 21.40 +20.0 21.45 -21.5 18.8 22.6 28.0 20 0 Alarm State:  0
Fri Apr 19 11:55:35 PDT 2024 ON: 21.40 +20.0 21.45 -21.4 18.9 22.5 28.0 20 0 Alarm State:  0
Fri Apr 19 11:54:34 PDT 2024 ON: 21.39 +20.0 21.44 -21.4 18.9 22.5 28.0 20 0 Alarm State:  0
Fri Apr 19 11:53:32 PDT 2024 ON: 21.40 +20.0 21.45 -21.5 18.7 22.7 28.0 20 0 Alarm State:  0
Fri Apr 19 11:52:31 PDT 2024 ON: 21.40 +20.0 21.44 -21.5 18.8 22.6 28.0 20 0 Alarm State:  0
Fri Apr 19 11:51:29 PDT 2024 ON: 21.41 +20.0 21.45 -21.4 18.9 22.5 28.0 19 0 Alarm State:  0
Fri Apr 19 11:50:28 PDT 2024 ON: 21.41 +20.0 21.46 -21.5 18.8 22.6 28.0 20 0 Alarm State:  0
Fri Apr 19 11:49:26 PDT 2024 ON: 21.40 +20.0 21.45 -21.4 18.9 22.5 28.0 20 0 Alarm State:  0
Fri Apr 19 11:48:25 PDT 2024 ON: 21.40 +20.0 21.45 -21.4 18.9 22.5 27.9 20 0 Alarm State:  0
Fri Apr 19 11:47:23 PDT 2024 ON: 21.40 +20.0 21.45 -21.4 18.9 22.5 28.0 20 0 Alarm State:  0
Fri Apr 19 11:46:22 PDT 2024 ON: 21.41 +20.0 21.46 -21.5 18.8 22.6 27.9 20 0 Alarm State:  0
Fri Apr 19 11:45:20 PDT 2024 ON: 21.42 +20.0 21.46 -21.5 18.8 22.6 28.0 20 0 Alarm State:  0
Fri Apr 19 11:44:19 PDT 2024 ON: 21.41 +20.0 21.46 -21.4 18.9 22.5 28.0 20 0 Alarm State:  0
Fri Apr 19 11:43:17 PDT 2024 ON: 21.42 +20.0 21.46 -21.5 18.8 22.6 28.0 20 0 Alarm State:  0
Fri Apr 19 11:42:16 PDT 2024 ON: 21.41 +20.0 21.45 -21.4 18.9 22.5 28.0 19 0 Alarm State:  0
Fri Apr 19 11:41:14 PDT 2024 ON: 21.41 +20.0 21.46 -21.4 18.9 22.5 28.0 20 0 Alarm State:  0
Fri Apr 19 11:40:13 PDT 2024 ON: 21.41 +20.0 21.46 -21.5 18.8 22.6 28.0 20 0 Alarm State:  0
Fri Apr 19 11:39:11 PDT 2024 ON: 21.42 +20.0 21.48 -21.4 18.9 22.5 28.0 19 0 Alarm State:  0
Fri Apr 19 11:38:10 PDT 2024 ON: 21.41 +20.0 21.46 -21.4 18.9 22.5 28.0 20 0 Alarm State:  0
Fri Apr 19 11:37:08 PDT 2024 ON: 21.43 +20.0 21.47 -21.4 18.9 22.5 28.0 19 0 Alarm State:  0
Fri Apr 19 11:36:07 PDT 2024 ON: 21.41 +20.0 21.46 -21.5 18.8 22.6 28.0 20 0 Alarm State:  0
Fri Apr 19 11:35:05 PDT 2024 ON: 21.43 +20.0 21.47 -21.4 18.9 22.5 28.0 20 0 Alarm State:  0
Fri Apr 19 11:34:04 PDT 2024 ON: 21.41 +20.0 21.45 -21.4 18.9 22.5 28.0 20 0 Alarm State:  0
Fri Apr 19 11:33:02 PDT 2024 ON: 21.43 +20.0 21.47 -21.5 18.8 22.6 28.0 20 0 Alarm State:  0
Fri Apr 19 11:32:01 PDT 2024 ON: 21.43 +20.0 21.47 -21.4 18.9 22.5 28.0 20 0 Alarm State:  0
Fri Apr 19 11:30:59 PDT 2024 ON: 21.42 +20.0 21.47 -21.4 18.9 22.5 28.0 20 0 Alarm State:  0
Fri Apr 19 11:29:58 PDT 2024 ON: 21.43 +20.0 21.47 -21.5 18.8 22.6 28.0 19 0 Alarm State:  0
Fri Apr 19 11:28:56 PDT 2024 ON: 21.42 +20.0 21.46 -21.4 18.9 22.5 28.0 20 0 Alarm State:  0
Fri Apr 19 11:27:55 PDT 2024 ON: 21.43 +20.0 21.48 -21.4 18.9 22.5 28.0 20 0 Alarm State:  0
Fri Apr 19 11:26:53 PDT 2024 ON: 21.41 +20.0 21.45 -21.3 19.0 22.5 28.0 20 0 Alarm State:  0
Fri Apr 19 11:25:52 PDT 2024 ON: 21.42 +20.0 21.47 -21.5 18.8 22.6 28.0 20 0 Alarm State:  0
Fri Apr 19 11:24:50 PDT 2024 ON: 21.42 +20.0 21.46 -21.5 18.8 22.6 28.0 20 0 Alarm State:  0
Fri Apr 19 11:23:49 PDT 2024 ON: 21.41 +20.0 21.46 -21.4 18.9 22.5 28.0 20 0 Alarm State:  0
Fri Apr 19 11:22:47 PDT 2024 ON: 21.42 +20.0 21.46 -21.4 18.9 22.5 28.0 20 0 Alarm State:  0
Fri Apr 19 11:21:46 PDT 2024 ON: 21.41 +20.0 21.46 -21.5 18.8 22.6 28.0 20 0 Alarm State:  0
Fri Apr 19 11:20:44 PDT 2024 ON: 21.42 +20.0 21.47 -21.5 18.8 22.6 28.0 20 0 Alarm State:  0
Fri Apr 19 11:19:43 PDT 2024 ON: 21.42 +20.0 21.47 -21.5 18.8 22.6 28.0 20 0 Alarm State:  0
Fri Apr 19 11:18:41 PDT 2024 ON: 21.42 +20.0 21.46 -21.5 18.8 22.6 28.0 20 0 Alarm State:  0
Fri Apr 19 11:17:40 PDT 2024 ON: 21.41 +20.0 21.46 -21.4 18.9 22.5 27.9 20 0 Alarm State:  0
Fri Apr 19 11:16:38 PDT 2024 ON: 21.42 +20.0 21.47 -21.4 18.9 22.5 28.0 20 0 Alarm State:  0
Fri Apr 19 11:15:37 PDT 2024 ON: 21.42 +20.0 21.46 -21.4 18.9 22.5 28.0 20 0 Alarm State:  0
Fri Apr 19 11:14:35 PDT 2024 ON: 21.42 +20.0 21.47 -21.5 18.8 22.6 28.0 20 0 Alarm State:  0
Fri Apr 19 11:13:34 PDT 2024 ON: 21.41 +20.0 21.46 -21.4 18.9 22.5 28.0 20 0 Alarm State:  0
Fri Apr 19 11:12:32 PDT 2024 ON: 21.41 +20.0 21.46 -21.5 18.8 22.6 28.0 20 0 Alarm State:  0
Fri Apr 19 11:11:31 PDT 2024 ON: 21.42 +20.0 21.47 -21.4 18.9 22.5 28.0 20 0 Alarm State:  0
Fri Apr 19 11:10:29 PDT 2024 ON: 21.42 +20.0 21.47 -21.5 18.8 22.6 28.0 20 0 Alarm State:  0
Fri Apr 19 11:09:27 PDT 2024 ON: 21.42 +20.0 21.47 -21.5 18.8 22.6 28.0 20 0 Alarm State:  0
Fri Apr 19 11:08:26 PDT 2024 ON: 21.41 +20.0 21.46 -21.5 18.8 22.6 28.0 20 0 Alarm State:  0
Fri Apr 19 11:07:24 PDT 2024 ON: 21.43 +20.0 21.47 -21.4 18.9 22.5 28.0 20 0 Alarm State:  0
Fri Apr 19 11:06:23 PDT 2024 ON: 21.42 +20.0 21.46 -21.5 18.8 22.6 28.0 20 0 Alarm State:  0
Fri Apr 19 11:05:21 PDT 2024 ON: 21.43 +20.0 21.47 -21.4 18.9 22.5 28.0 19 0 Alarm State:  0
Fri Apr 19 11:04:20 PDT 2024 ON: 21.43 +20.0 21.48 -21.4 18.9 22.5 28.0 20 0 Alarm State:  0
Fri Apr 19 11:03:18 PDT 2024 ON: 21.42 +20.0 21.46 -21.4 18.9 22.5 28.0 20 0 Alarm State:  0
Fri Apr 19 11:02:17 PDT 2024 ON: 21.43 +20.0 21.48 -21.5 18.7 22.7 28.0 20 0 Alarm State:  0
Fri Apr 19 11:01:15 PDT 2024 ON: 21.42 +20.0 21.46 -21.5 18.8 22.6 28.0 20 0 Alarm State:  0
Fri Apr 19 11:00:14 PDT 2024 ON: 21.42 +20.0 21.47 -21.4 18.9 22.5 28.0 20 0 Alarm State:  0
Fri Apr 19 10:59:12 PDT 2024 ON: 21.43 +20.0 21.47 -21.5 18.8 22.6 28.0 20 0 Alarm State:  0
Fri Apr 19 10:58:11 PDT 2024 ON: 21.43 +20.0 21.48 -21.4 18.9 22.5 28.0 20 0 Alarm State:  0
Fri Apr 19 10:57:09 PDT 2024 ON: 21.42 +20.0 21.46 -21.4 18.9 22.5 28.0 20 0 Alarm State:  0
Fri Apr 19 10:56:08 PDT 2024 ON: 21.43 +20.0 21.48 -21.4 18.9 22.5 28.0 20 0 Alarm State:  0
Fri Apr 19 10:55:06 PDT 2024 ON: 21.43 +20.0 21.48 -21.4 18.9 22.5 28.0 20 0 Alarm State:  0
Fri Apr 19 10:54:05 PDT 2024 ON: 21.43 +20.0 21.48 -21.4 18.9 22.5 28.0 20 0 Alarm State:  0
Fri Apr 19 10:53:03 PDT 2024 ON: 21.42 +20.0 21.46 -21.4 18.9 22.5 28.0 20 0 Alarm State:  0
Fri Apr 19 10:52:02 PDT 2024 ON: 21.43 +20.0 21.48 -21.4 18.9 22.5 28.0 20 0 Alarm State:  0
Fri Apr 19 10:51:00 PDT 2024 ON: 21.43 +20.0 21.47 -21.5 18.8 22.6 28.0 20 0 Alarm State:  0
Fri Apr 19 10:49:59 PDT 2024 ON: 21.43 +20.0 21.48 -21.4 18.9 22.5 28.0 20 0 Alarm State:  0
Fri Apr 19 10:48:57 PDT 2024 ON: 21.43 +20.0 21.47 -21.4 18.9 22.5 28.0 20 0 Alarm State:  0
Fri Apr 19 10:47:56 PDT 2024 ON: 21.43 +20.0 21.48 -21.4 18.9 22.5 28.0 20 0 Alarm State:  0
Fri Apr 19 10:46:54 PDT 2024 ON: 21.42 +20.0 21.47 -21.4 18.9 22.5 28.0 20 0 Alarm State:  0
Fri Apr 19 10:45:53 PDT 2024 ON: 21.43 +20.0 21.48 -21.3 19.0 22.5 28.0 20 0 Alarm State:  0
Fri Apr 19 10:44:51 PDT 2024 ON: 21.43 +20.0 21.48 -21.4 18.9 22.5 28.0 20 0 Alarm State:  0
Fri Apr 19 10:43:50 PDT 2024 ON: 21.43 +20.0 21.48 -21.5 18.8 22.6 28.0 20 0 Alarm State:  0
Fri Apr 19 10:42:48 PDT 2024 ON: 21.42 +20.0 21.47 -21.4 18.9 22.5 28.0 20 0 Alarm State:  0
Fri Apr 19 10:41:47 PDT 2024 ON: 21.42 +20.0 21.46 -21.4 18.9 22.5 28.0 20 0 Alarm State:  0
Fri Apr 19 10:40:45 PDT 2024 ON: 21.43 +20.0 21.48 -21.5 18.8 22.6 28.0 20 0 Alarm State:  0
Fri Apr 19 10:39:44 PDT 2024 ON: 21.43 +20.0 21.48 -21.5 18.8 22.6 28.0 20 0 Alarm State:  0
Fri Apr 19 10:38:42 PDT 2024 ON: 21.42 +20.0 21.46 -21.5 18.8 22.6 28.0 20 0 Alarm State:  0
Fri Apr 19 10:37:30 PDT 2024  Alarm State: 0
Fri Apr 19 10:37:30 PDT 2024 Chiller did not report ON, got this reading: 
Fri Apr 19 10:36:28 PDT 2024 ON: 21.42 +20.0 21.47 -21.4 18.9 22.5 28.0 20 0 Alarm State:  0
Fri Apr 19 10:35:27 PDT 2024 ON: 21.42 +20.0 21.46 -21.4 18.9 22.5 28.0 19 0 Alarm State:  0
Fri Apr 19 10:34:25 PDT 2024 ON: 21.43 +20.0 21.48 -21.5 18.8 22.6 28.0 20 0 Alarm State:  0
Fri Apr 19 10:33:24 PDT 2024 ON: 21.43 +20.0 21.47 -21.5 18.8 22.6 28.0 20 0 Alarm State:  0
Fri Apr 19 10:32:22 PDT 2024 ON: 21.42 +20.0 21.46 -21.5 18.7 22.7 28.0 20 0 Alarm State:  0
Fri Apr 19 10:31:21 PDT 2024 ON: 21.42 +20.0 21.46 -21.4 18.9 22.5 28.0 20 0 Alarm State:  0
Fri Apr 19 10:30:19 PDT 2024 ON: 21.41 +20.0 21.46 -21.4 18.9 22.5 28.0 19 0 Alarm State:  0
Fri Apr 19 10:29:18 PDT 2024 ON: 21.42 +20.0 21.46 -21.5 18.8 22.6 28.0 20 0 Alarm State:  0
Fri Apr 19 10:28:16 PDT 2024 ON: 21.42 +20.0 21.47 -21.4 18.9 22.5 28.0 19 0 Alarm State:  0
Fri Apr 19 10:27:15 PDT 2024 ON: 21.42 +20.0 21.47 -21.4 18.9 22.5 28.0 20 0 Alarm State:  0
Fri Apr 19 10:26:13 PDT 2024 ON: 21.41 +20.0 21.45 -21.4 18.9 22.5 28.0 20 0 Alarm State:  0
Fri Apr 19 10:25:12 PDT 2024 ON: 21.42 +20.0 21.47 -21.4 18.9 22.5 28.0 20 0 Alarm State:  0
Fri Apr 19 10:24:10 PDT 2024 ON: 21.42 +20.0 21.47 -21.4 18.9 22.5 28.0 20 0 Alarm State:  0
Fri Apr 19 10:23:09 PDT 2024 ON: 21.43 +20.0 21.48 -21.4 18.9 22.5 28.0 20 0 Alarm State:  0
Fri Apr 19 10:22:07 PDT 2024 ON: 21.42 +20.0 21.47 -21.4 18.9 22.5 28.0 19 0 Alarm State:  0
Fri Apr 19 10:21:06 PDT 2024 ON: 21.41 +20.0 21.46 -21.5 18.8 22.6 28.0 20 0 Alarm State:  0
Fri Apr 19 10:20:04 PDT 2024 ON: 21.41 +20.0 21.46 -21.4 18.9 22.5 28.0 20 0 Alarm State:  0
Fri Apr 19 10:19:03 PDT 2024 ON: 21.42 +20.0 21.47 -21.5 18.8 22.6 28.0 20 0 Alarm State:  0
Fri Apr 19 10:18:01 PDT 2024 ON: 21.42 +20.0 21.47 -21.4 18.9 22.5 28.0 19 0 Alarm State:  0
Fri Apr 19 10:17:00 PDT 2024 ON: 21.41 +20.0 21.46 -21.4 18.9 22.5 28.0 19 0 Alarm State:  0
Fri Apr 19 10:15:58 PDT 2024 ON: 21.42 +20.0 21.47 -21.5 18.8 22.6 28.0 20 0 Alarm State:  0
Fri Apr 19 10:14:57 PDT 2024 ON: 21.42 +20.0 21.47 -21.5 18.8 22.6 27.9 20 0 Alarm State:  0
Fri Apr 19 10:13:55 PDT 2024 ON: 21.42 +20.0 21.47 -21.5 18.8 22.6 28.0 20 0 Alarm State:  0
Fri Apr 19 10:12:54 PDT 2024 ON: 21.42 +20.0 21.46 -21.4 18.9 22.5 28.0 20 0 Alarm State:  0
Fri Apr 19 10:11:52 PDT 2024 ON: 21.42 +20.0 21.46 -21.5 18.8 22.6 28.0 20 0 Alarm State:  0
Fri Apr 19 10:10:51 PDT 2024 ON: 21.43 +20.0 21.47 -21.4 18.9 22.5 28.0 20 0 Alarm State:  0
Fri Apr 19 10:09:49 PDT 2024 ON: 21.43 +20.0 21.47 -21.5 18.8 22.6 28.0 20 0 Alarm State:  0
Fri Apr 19 10:08:48 PDT 2024 ON: 21.43 +20.0 21.48 -21.4 18.9 22.5 28.0 20 0 Alarm State:  0
Fri Apr 19 10:07:46 PDT 2024 ON: 21.42 +20.0 21.46 -21.5 18.8 22.6 28.0 20 0 Alarm State:  0
Fri Apr 19 10:06:45 PDT 2024 ON: 21.42 +20.0 21.46 -21.3 19.0 22.5 28.0 20 0 Alarm State:  0
Fri Apr 19 10:05:43 PDT 2024 ON: 21.42 +20.0 21.47 -21.3 19.0 22.5 28.0 19 0 Alarm State:  0
Fri Apr 19 10:04:42 PDT 2024 ON: 21.43 +20.0 21.48 -21.5 18.8 22.6 28.0 20 0 Alarm State:  0
Fri Apr 19 10:03:40 PDT 2024 ON: 21.42 +20.0 21.47 -21.5 18.8 22.6 28.0 20 0 Alarm State:  0
Fri Apr 19 10:02:39 PDT 2024 ON: 21.43 +20.0 21.48 -21.4 18.9 22.5 28.0 20 0 Alarm State:  0
Fri Apr 19 10:01:37 PDT 2024 ON: 21.43 +20.0 21.48 -21.5 18.7 22.7 28.0 20 0 Alarm State:  0
Fri Apr 19 10:00:36 PDT 2024 ON: 21.42 +20.0 21.47 -21.5 18.8 22.6 27.9 20 0 Alarm State:  0
Fri Apr 19 09:59:34 PDT 2024 ON: 21.42 +20.0 21.47 -21.5 18.8 22.6 28.0 20 0 Alarm State:  0
Fri Apr 19 09:58:33 PDT 2024 ON: 21.43 +20.0 21.48 -21.4 18.9 22.5 28.0 20 0 Alarm State:  0
Fri Apr 19 09:57:31 PDT 2024 ON: 21.42 +20.0 21.47 -21.5 18.8 22.6 28.0 20 0 Alarm State:  0
Fri Apr 19 09:56:30 PDT 2024 ON: 21.43 +20.0 21.48 -21.4 18.9 22.5 28.0 19 0 Alarm State:  0
Fri Apr 19 09:55:28 PDT 2024 ON: 21.43 +20.0 21.48 -21.5 18.8 22.6 27.9 20 0 Alarm State:  0
Fri Apr 19 09:54:27 PDT 2024 ON: 21.43 +20.0 21.48 -21.5 18.8 22.6 28.0 20 0 Alarm State:  0
Fri Apr 19 09:53:25 PDT 2024 ON: 21.43 +20.0 21.48 -21.5 18.8 22.6 28.0 20 0 Alarm State:  0
Fri Apr 19 09:52:24 PDT 2024 ON: 21.43 +20.0 21.48 -21.5 18.7 22.7 27.9 20 0 Alarm State:  0
Fri Apr 19 09:51:22 PDT 2024 ON: 21.42 +20.0 21.47 -21.5 18.8 22.6 28.0 20 0 Alarm State:  0
Fri Apr 19 09:50:21 PDT 2024 ON: 21.44 +20.0 21.49 -21.4 18.9 22.5 28.0 20 0 Alarm State:  0
Fri Apr 19 09:49:19 PDT 2024 ON: 21.43 +20.0 21.47 -21.5 18.8 22.6 28.0 20 0 Alarm State:  0
Fri Apr 19 09:48:18 PDT 2024 ON: 21.44 +20.0 21.49 -21.4 18.9 22.5 28.0 20 0 Alarm State:  0
Fri Apr 19 09:47:16 PDT 2024 ON: 21.42 +20.0 21.47 -21.4 18.9 22.5 28.0 20 0 Alarm State:  0
Fri Apr 19 09:46:15 PDT 2024 ON: 21.43 +20.0 21.48 -21.5 18.8 22.6 28.0 20 0 Alarm State:  0
Fri Apr 19 09:45:13 PDT 2024 ON: 21.44 +20.0 21.48 -21.5 18.8 22.6 28.0 20 0 Alarm State:  0
Fri Apr 19 09:44:11 PDT 2024 ON: 21.44 +20.0 21.49 -21.4 18.9 22.5 28.0 20 0 Alarm State:  0
Fri Apr 19 09:43:10 PDT 2024 ON: 21.43 +20.0 21.47 -21.4 18.9 22.5 28.0 20 0 Alarm State:  0
Fri Apr 19 09:42:08 PDT 2024 ON: 21.43 +20.0 21.48 -21.5 18.8 22.6 28.0 20 0 Alarm State:  0
Fri Apr 19 09:41:07 PDT 2024 ON: 21.43 +20.0 21.48 -21.5 18.8 22.6 28.0 20 0 Alarm State:  0
Fri Apr 19 09:40:05 PDT 2024 ON: 21.43 +20.0 21.48 -21.5 18.8 22.6 28.0 20 0 Alarm State:  0
Fri Apr 19 09:39:04 PDT 2024 ON: 21.43 +20.0 21.47 -21.4 18.9 22.5 28.0 20 0 Alarm State:  0
Fri Apr 19 09:38:02 PDT 2024 ON: 21.44 +20.0 21.49 -21.4 18.9 22.5 28.0 19 0 Alarm State:  0
Fri Apr 19 09:37:01 PDT 2024 ON: 21.44 +20.0 21.48 -21.4 18.9 22.5 28.0 20 0 Alarm State:  0
Fri Apr 19 09:35:59 PDT 2024 ON: 21.44 +20.0 21.49 -21.4 18.9 22.5 28.0 20 0 Alarm State:  0
Fri Apr 19 09:34:58 PDT 2024 ON: 21.44 +20.0 21.49 -21.4 18.9 22.5 28.0 20 0 Alarm State:  0
Fri Apr 19 09:33:56 PDT 2024 ON: 21.44 +20.0 21.49 -21.5 18.8 22.6 28.0 20 0 Alarm State:  0
Fri Apr 19 09:32:55 PDT 2024 ON: 21.43 +20.0 21.47 -21.4 18.9 22.5 28.0 20 0 Alarm State:  0
Fri Apr 19 09:31:53 PDT 2024 ON: 21.45 +20.0 21.49 -21.5 18.8 22.6 27.9 20 0 Alarm State:  0
Fri Apr 19 09:30:52 PDT 2024 ON: 21.44 +20.0 21.49 -21.5 18.8 22.6 28.0 20 0 Alarm State:  0
Fri Apr 19 09:29:50 PDT 2024 ON: 21.43 +20.0 21.48 -21.4 18.9 22.5 28.0 20 0 Alarm State:  0
Fri Apr 19 09:28:49 PDT 2024 ON: 21.43 +20.0 21.48 -21.4 18.9 22.5 28.0 20 0 Alarm State:  0
Fri Apr 19 09:27:47 PDT 2024 ON: 21.43 +20.0 21.48 -21.5 18.8 22.6 28.0 20 0 Alarm State:  0
Fri Apr 19 09:26:46 PDT 2024 ON: 21.45 +20.0 21.50 -21.4 18.9 22.5 28.0 20 0 Alarm State:  0
Fri Apr 19 09:25:44 PDT 2024 ON: 21.43 +20.0 21.48 -21.5 18.8 22.6 28.0 20 0 Alarm State:  0
Fri Apr 19 09:24:43 PDT 2024 ON: 21.43 +20.0 21.49 -21.5 18.8 22.6 28.0 20 0 Alarm State:  0
Fri Apr 19 09:23:41 PDT 2024 ON: 21.44 +20.0 21.49 -21.5 18.8 22.6 28.0 19 0 Alarm State:  0
Fri Apr 19 09:22:40 PDT 2024 ON: 21.43 +20.0 21.49 -21.4 18.9 22.5 28.0 19 0 Alarm State:  0
Fri Apr 19 09:21:38 PDT 2024 ON: 21.43 +20.0 21.48 -21.4 18.9 22.5 28.0 20 0 Alarm State:  0
Fri Apr 19 09:20:37 PDT 2024 ON: 21.43 +20.0 21.48 -21.4 18.9 22.5 28.0 20 0 Alarm State:  0
Fri Apr 19 09:19:35 PDT 2024 ON: 21.43 +20.0 21.47 -21.4 18.9 22.5 28.0 19 0 Alarm State:  0
Fri Apr 19 09:18:34 PDT 2024 ON: 21.43 +20.0 21.47 -21.3 19.0 22.5 28.0 20 0 Alarm State:  0
Fri Apr 19 09:17:32 PDT 2024 ON: 21.43 +20.0 21.47 -21.4 18.9 22.5 28.0 19 0 Alarm State:  0
Fri Apr 19 09:16:31 PDT 2024 ON: 21.43 +20.0 21.47 -21.4 18.9 22.5 28.0 19 0 Alarm State:  0
Fri Apr 19 09:15:29 PDT 2024 ON: 21.43 +20.0 21.48 -21.5 18.7 22.7 28.0 20 0 Alarm State:  0
Fri Apr 19 09:14:28 PDT 2024 ON: 21.44 +20.0 21.48 -21.4 18.9 22.5 28.0 20 0 Alarm State:  0
Fri Apr 19 09:13:26 PDT 2024 ON: 21.43 +20.0 21.47 -21.4 18.9 22.5 28.0 20 0 Alarm State:  0
Fri Apr 19 09:12:25 PDT 2024 ON: 21.44 +20.0 21.49 -21.5 18.8 22.6 28.0 19 0 Alarm State:  0
Fri Apr 19 09:11:23 PDT 2024 ON: 21.43 +20.0 21.48 -21.4 18.9 22.5 28.0 20 0 Alarm State:  0
Fri Apr 19 09:10:22 PDT 2024 ON: 21.43 +20.0 21.47 -21.5 18.8 22.6 28.0 20 0 Alarm State:  0
Fri Apr 19 09:09:20 PDT 2024 ON: 21.43 +20.0 21.47 -21.5 18.8 22.6 28.0 20 0 Alarm State:  0
Fri Apr 19 09:08:19 PDT 2024 ON: 21.43 +20.0 21.47 -21.4 18.9 22.5 28.0 20 0 Alarm State:  0
Fri Apr 19 09:07:17 PDT 2024 ON: 21.44 +20.0 21.48 -21.5 18.8 22.6 28.0 20 0 Alarm State:  0
Fri Apr 19 09:06:16 PDT 2024 ON: 21.44 +20.0 21.49 -21.5 18.8 22.6 28.0 20 0 Alarm State:  0
Fri Apr 19 09:05:14 PDT 2024 ON: 21.42 +20.0 21.47 -21.5 18.8 22.6 28.0 20 0 Alarm State:  0
Fri Apr 19 09:04:13 PDT 2024 ON: 21.43 +20.0 21.48 -21.5 18.8 22.6 28.0 20 0 Alarm State:  0
Fri Apr 19 09:03:11 PDT 2024 ON: 21.42 +20.0 21.47 -21.5 18.7 22.7 27.9 20 0 Alarm State:  0
Fri Apr 19 09:02:10 PDT 2024 ON: 21.42 +20.0 21.46 -21.5 18.8 22.6 28.0 20 0 Alarm State:  0
Fri Apr 19 09:01:08 PDT 2024 ON: 21.43 +20.0 21.48 -21.4 18.9 22.5 28.0 20 0 Alarm State:  0
Fri Apr 19 08:59:57 PDT 2024 ON: 21.42 +20.0 21.47 -21.5 18.7 22.7 27.9 20 0 Alarm State:  0
Fri Apr 19 08:58:55 PDT 2024 ON: 21.41 +20.0 21.46 -21.5 18.8 22.6 28.0 20 0 Alarm State:  0
Fri Apr 19 08:57:54 PDT 2024 ON: 21.42 +20.0 21.47 -21.5 18.8 22.6 28.0 20 0 Alarm State:  0
Fri Apr 19 08:56:52 PDT 2024 ON: 21.41 +20.0 21.45 -21.4 18.9 22.5 28.0 20 0 Alarm State:  0
Fri Apr 19 08:55:51 PDT 2024 ON: 21.42 +20.0 21.47 -21.5 18.8 22.6 28.0 20 0 Alarm State:  0
Fri Apr 19 08:54:49 PDT 2024 ON: 21.42 +20.0 21.47 -21.5 18.8 22.6 28.0 20 0 Alarm State:  0
Fri Apr 19 08:53:48 PDT 2024 ON: 21.42 +20.0 21.47 -21.4 18.9 22.5 28.0 20 0 Alarm State:  0
Fri Apr 19 08:52:46 PDT 2024 ON: 21.41 +20.0 21.46 -21.5 18.8 22.6 27.9 20 0 Alarm State:  0
Fri Apr 19 08:51:45 PDT 2024 ON: 21.41 +20.0 21.46 -21.5 18.8 22.6 28.0 20 0 Alarm State:  0
Fri Apr 19 08:50:43 PDT 2024 ON: 21.40 +20.0 21.45 -21.5 18.8 22.6 28.0 20 0 Alarm State:  0
Fri Apr 19 08:49:42 PDT 2024 ON: 21.40 +20.0 21.44 -21.4 18.9 22.5 28.0 20 0 Alarm State:  0
Fri Apr 19 08:48:40 PDT 2024 ON: 21.39 +20.0 21.44 -21.4 18.9 22.5 28.0 20 0 Alarm State:  0
Fri Apr 19 08:47:39 PDT 2024 ON: 21.41 +20.0 21.45 -21.4 18.9 22.5 28.0 19 0 Alarm State:  0
Fri Apr 19 08:46:37 PDT 2024 ON: 21.41 +20.0 21.46 -21.4 18.9 22.5 28.0 19 0 Alarm State:  0
Fri Apr 19 08:45:36 PDT 2024 ON: 21.40 +20.0 21.45 -21.5 18.8 22.6 28.0 20 0 Alarm State:  0
Fri Apr 19 08:44:34 PDT 2024 ON: 21.39 +20.0 21.44 -21.5 18.8 22.6 28.0 20 0 Alarm State:  0
Fri Apr 19 08:43:33 PDT 2024 ON: 21.40 +20.0 21.44 -21.5 18.8 22.6 28.0 20 0 Alarm State:  0
Fri Apr 19 08:42:31 PDT 2024 ON: 21.39 +20.0 21.43 -21.5 18.8 22.6 28.0 20 0 Alarm State:  0
Fri Apr 19 08:41:30 PDT 2024 ON: 21.39 +20.0 21.44 -21.5 18.8 22.6 28.0 20 0 Alarm State:  0
Fri Apr 19 08:40:27 PDT 2024 ON: 21.38 +20.0 21.43 -21.4 18.9 22.5 28.0 19 0 Alarm State:  0
Fri Apr 19 08:39:26 PDT 2024 ON: 21.38 +20.0 21.43 -21.5 18.8 22.6 27.9 20 0 Alarm State:  0
Fri Apr 19 08:38:24 PDT 2024 ON: 21.38 +20.0 21.43 -21.5 18.8 22.6 27.9 20 0 Alarm State:  0
Fri Apr 19 08:37:23 PDT 2024 ON: 21.39 +20.0 21.43 -21.5 18.8 22.6 27.9 20 0 Alarm State:  0
Fri Apr 19 08:36:21 PDT 2024 ON: 21.39 +20.0 21.44 -21.5 18.8 22.6 27.9 20 0 Alarm State:  0
Fri Apr 19 08:35:20 PDT 2024 ON: 21.38 +20.0 21.42 -21.5 18.8 22.6 28.0 20 0 Alarm State:  0
Fri Apr 19 08:34:18 PDT 2024 ON: 21.38 +20.0 21.43 -21.5 18.8 22.6 28.0 20 0 Alarm State:  0
Fri Apr 19 08:33:17 PDT 2024 ON: 21.39 +20.0 21.44 -21.5 18.8 22.6 28.0 20 0 Alarm State:  0
Fri Apr 19 08:32:15 PDT 2024 ON: 21.38 +20.0 21.43 -21.4 18.9 22.5 28.0 19 0 Alarm State:  0
Fri Apr 19 08:31:14 PDT 2024 ON: 21.38 +20.0 21.42 -21.5 18.7 22.7 28.0 20 0 Alarm State:  0
Fri Apr 19 08:30:12 PDT 2024 ON: 21.38 +20.0 21.43 -21.4 18.9 22.5 28.0 20 0 Alarm State:  0
Fri Apr 19 08:29:11 PDT 2024 ON: 21.37 +20.0 21.42 -21.4 18.9 22.5 28.0 20 0 Alarm State:  0
Fri Apr 19 08:28:09 PDT 2024 ON: 21.38 +20.0 21.42 -21.4 18.9 22.5 28.0 19 0 Alarm State:  0
Fri Apr 19 08:27:08 PDT 2024 ON: 21.38 +20.0 21.43 -21.5 18.8 22.6 28.0 19 0 Alarm State:  0
Fri Apr 19 08:26:06 PDT 2024 ON: 21.37 +20.0 21.42 -21.5 18.8 22.6 28.0 20 0 Alarm State:  0
Fri Apr 19 08:25:05 PDT 2024 ON: 21.38 +20.0 21.44 -21.5 18.8 22.6 28.0 20 0 Alarm State:  0
Fri Apr 19 08:24:03 PDT 2024 ON: 21.38 +20.0 21.42 -21.5 18.8 22.6 28.0 20 0 Alarm State:  0
Fri Apr 19 08:23:02 PDT 2024 ON: 21.38 +20.0 21.42 -21.4 18.9 22.5 28.0 20 0 Alarm State:  0
Fri Apr 19 08:22:00 PDT 2024 ON: 21.39 +20.0 21.43 -21.5 18.8 22.6 28.0 20 0 Alarm State:  0
Fri Apr 19 08:20:59 PDT 2024 ON: 21.38 +20.0 21.42 -21.4 18.9 22.5 28.0 20 0 Alarm State:  0
Fri Apr 19 08:19:57 PDT 2024 ON: 21.38 +20.0 21.43 -21.5 18.8 22.6 28.0 20 0 Alarm State:  0
Fri Apr 19 08:18:56 PDT 2024 ON: 21.38 +20.0 21.43 -21.5 18.7 22.7 27.9 20 0 Alarm State:  0
Fri Apr 19 08:17:54 PDT 2024 ON: 21.39 +20.0 21.44 -21.4 18.9 22.5 28.0 20 0 Alarm State:  0
Fri Apr 19 08:16:52 PDT 2024 ON: 21.38 +20.0 21.43 -21.5 18.8 22.6 28.0 20 0 Alarm State:  0
Fri Apr 19 08:15:51 PDT 2024 ON: 21.38 +20.0 21.42 -21.4 18.9 22.5 28.0 19 0 Alarm State:  0
Fri Apr 19 08:14:49 PDT 2024 ON: 21.39 +20.0 21.44 -21.4 18.9 22.5 28.0 20 0 Alarm State:  0
Fri Apr 19 08:13:48 PDT 2024 ON: 21.38 +20.0 21.43 -21.5 18.7 22.7 28.0 20 0 Alarm State:  0
Fri Apr 19 08:12:46 PDT 2024 ON: 21.39 +20.0 21.44 -21.4 18.9 22.5 28.0 20 0 Alarm State:  0
Fri Apr 19 08:11:45 PDT 2024 ON: 21.38 +20.0 21.43 -21.5 18.8 22.6 28.0 20 0 Alarm State:  0
Fri Apr 19 08:10:43 PDT 2024 ON: 21.38 +20.0 21.43 -21.5 18.8 22.6 28.0 19 0 Alarm State:  0
Fri Apr 19 08:09:42 PDT 2024 ON: 21.39 +20.0 21.43 -21.5 18.8 22.6 28.0 20 0 Alarm State:  0
Fri Apr 19 08:08:40 PDT 2024 ON: 21.38 +20.0 21.42 -21.5 18.8 22.6 28.0 20 0 Alarm State:  0
Fri Apr 19 08:07:39 PDT 2024 ON: 21.39 +20.0 21.43 -21.5 18.8 22.6 28.0 20 0 Alarm State:  0
Fri Apr 19 08:06:37 PDT 2024 ON: 21.37 +20.0 21.42 -21.5 18.8 22.6 28.0 20 0 Alarm State:  0
Fri Apr 19 08:05:36 PDT 2024 ON: 21.38 +20.0 21.42 -21.5 18.8 22.6 28.0 20 0 Alarm State:  0
Fri Apr 19 08:04:34 PDT 2024 ON: 21.37 +20.0 21.42 -21.4 18.9 22.5 28.0 20 0 Alarm State:  0
Fri Apr 19 08:03:33 PDT 2024 ON: 21.37 +20.0 21.42 -21.4 18.9 22.5 28.0 20 0 Alarm State:  0
Fri Apr 19 08:02:31 PDT 2024 ON: 21.37 +20.0 21.42 -21.5 18.8 22.6 27.9 20 0 Alarm State:  0
Fri Apr 19 08:01:30 PDT 2024 ON: 21.37 +20.0 21.42 -21.5 18.8 22.6 28.0 20 0 Alarm State:  0
Fri Apr 19 08:00:28 PDT 2024 ON: 21.37 +20.0 21.42 -21.5 18.8 22.6 28.0 20 0 Alarm State:  0
Fri Apr 19 07:59:27 PDT 2024 ON: 21.37 +20.0 21.42 -21.4 18.9 22.5 28.0 20 0 Alarm State:  0
Fri Apr 19 07:58:25 PDT 2024 ON: 21.37 +20.0 21.42 -21.5 18.8 22.6 28.0 20 0 Alarm State:  0
Fri Apr 19 07:57:24 PDT 2024 ON: 21.37 +20.0 21.42 -21.5 18.8 22.6 28.0 20 0 Alarm State:  0
Fri Apr 19 07:56:22 PDT 2024 ON: 21.37 +20.0 21.42 -21.5 18.8 22.6 28.0 20 0 Alarm State:  0
Fri Apr 19 07:55:21 PDT 2024 ON: 21.38 +20.0 21.43 -21.4 18.9 22.5 28.0 19 0 Alarm State:  0
Fri Apr 19 07:54:19 PDT 2024 ON: 21.37 +20.0 21.42 -21.4 18.9 22.5 28.0 19 0 Alarm State:  0
Fri Apr 19 07:53:18 PDT 2024 ON: 21.37 +20.0 21.42 -21.5 18.8 22.6 28.0 20 0 Alarm State:  0
Fri Apr 19 07:52:16 PDT 2024 ON: 21.37 +20.0 21.42 -21.5 18.8 22.6 28.0 20 0 Alarm State:  0
Fri Apr 19 07:51:15 PDT 2024 ON: 21.37 +20.0 21.42 -21.5 18.8 22.6 28.0 20 0 Alarm State:  0
Fri Apr 19 07:50:13 PDT 2024 ON: 21.36 +20.0 21.41 -21.4 18.9 22.5 28.0 20 0 Alarm State:  0
Fri Apr 19 07:49:12 PDT 2024 ON: 21.37 +20.0 21.42 -21.5 18.8 22.6 28.0 20 0 Alarm State:  0
Fri Apr 19 07:48:10 PDT 2024 ON: 21.38 +20.0 21.43 -21.4 18.9 22.5 28.0 20 0 Alarm State:  0
Fri Apr 19 07:47:09 PDT 2024 ON: 21.36 +20.0 21.41 -21.5 18.8 22.6 28.0 20 0 Alarm State:  0
Fri Apr 19 07:46:07 PDT 2024 ON: 21.37 +20.0 21.43 -21.4 18.9 22.5 28.0 19 0 Alarm State:  0
Fri Apr 19 07:45:06 PDT 2024 ON: 21.37 +20.0 21.42 -21.3 19.0 22.5 28.0 20 0 Alarm State:  0
Fri Apr 19 07:44:04 PDT 2024 ON: 21.36 +20.0 21.41 -21.5 18.8 22.6 28.0 20 0 Alarm State:  0
Fri Apr 19 07:43:03 PDT 2024 ON: 21.36 +20.0 21.40 -21.4 18.9 22.5 28.0 20 0 Alarm State:  0
Fri Apr 19 07:42:01 PDT 2024 ON: 21.36 +20.0 21.41 -21.4 18.9 22.5 28.0 20 0 Alarm State:  0
Fri Apr 19 07:41:00 PDT 2024 ON: 21.36 +20.0 21.41 -21.4 18.9 22.5 28.0 20 0 Alarm State:  0
Fri Apr 19 07:39:58 PDT 2024 ON: 21.37 +20.0 21.41 -21.4 18.9 22.5 28.0 20 0 Alarm State:  0
Fri Apr 19 07:38:57 PDT 2024 ON: 21.38 +20.0 21.43 -21.4 18.9 22.5 28.0 20 0 Alarm State:  0
Fri Apr 19 07:37:55 PDT 2024 ON: 21.37 +20.0 21.41 -21.4 18.9 22.5 28.0 20 0 Alarm State:  0
Fri Apr 19 07:36:54 PDT 2024 ON: 21.37 +20.0 21.42 -21.5 18.8 22.6 28.0 20 0 Alarm State:  0
Fri Apr 19 07:35:52 PDT 2024 ON: 21.36 +20.0 21.41 -21.5 18.8 22.6 28.0 20 0 Alarm State:  0
Fri Apr 19 07:34:51 PDT 2024 ON: 21.37 +20.0 21.42 -21.5 18.8 22.6 28.0 20 0 Alarm State:  0
Fri Apr 19 07:33:49 PDT 2024 ON: 21.38 +20.0 21.42 -21.5 18.8 22.6 28.0 20 0 Alarm State:  0
Fri Apr 19 07:32:48 PDT 2024 ON: 21.37 +20.0 21.42 -21.4 18.9 22.5 28.0 20 0 Alarm State:  0
Fri Apr 19 07:31:46 PDT 2024 ON: 21.37 +20.0 21.41 -21.5 18.8 22.6 28.0 19 0 Alarm State:  0
Fri Apr 19 07:30:45 PDT 2024 ON: 21.37 +20.0 21.42 -21.4 18.9 22.5 28.0 19 0 Alarm State:  0
Fri Apr 19 07:29:43 PDT 2024 ON: 21.36 +20.0 21.40 -21.4 18.9 22.5 28.0 19 0 Alarm State:  0
Fri Apr 19 07:28:42 PDT 2024 ON: 21.37 +20.0 21.41 -21.4 18.9 22.5 28.0 20 0 Alarm State:  0
Fri Apr 19 07:27:40 PDT 2024 ON: 21.37 +20.0 21.42 -21.4 18.9 22.5 28.0 20 0 Alarm State:  0
Fri Apr 19 07:26:39 PDT 2024 ON: 21.36 +20.0 21.41 -21.4 18.9 22.5 28.0 20 0 Alarm State:  0
Fri Apr 19 07:25:37 PDT 2024 ON: 21.36 +20.0 21.41 -21.5 18.8 22.6 28.0 20 0 Alarm State:  0
Fri Apr 19 07:24:36 PDT 2024 ON: 21.35 +20.0 21.40 -21.4 18.9 22.5 28.0 20 0 Alarm State:  0
Fri Apr 19 07:23:34 PDT 2024 ON: 21.36 +20.0 21.41 -21.4 18.9 22.5 28.0 20 0 Alarm State:  0
Fri Apr 19 07:22:33 PDT 2024 ON: 21.35 +20.0 21.40 -21.5 18.8 22.6 28.0 20 0 Alarm State:  0
Fri Apr 19 07:21:31 PDT 2024 ON: 21.35 +20.0 21.40 -21.4 18.9 22.5 28.0 19 0 Alarm State:  0
Fri Apr 19 07:20:30 PDT 2024 ON: 21.35 +20.0 21.40 -21.4 18.9 22.5 28.0 20 0 Alarm State:  0
Fri Apr 19 07:19:28 PDT 2024 ON: 21.35 +20.0 21.40 -21.4 18.9 22.5 28.0 20 0 Alarm State:  0
Fri Apr 19 07:18:26 PDT 2024 ON: 21.35 +20.0 21.40 -21.5 18.8 22.6 28.0 20 0 Alarm State:  0
Fri Apr 19 07:17:25 PDT 2024 ON: 21.35 +20.0 21.40 -21.4 18.9 22.5 28.0 20 0 Alarm State:  0
Fri Apr 19 07:16:23 PDT 2024 ON: 21.35 +20.0 21.40 -21.4 18.9 22.5 28.0 20 0 Alarm State:  0
Fri Apr 19 07:15:22 PDT 2024 ON: 21.35 +20.0 21.40 -21.4 18.9 22.5 28.0 20 0 Alarm State:  0
Fri Apr 19 07:14:20 PDT 2024 ON: 21.35 +20.0 21.39 -21.5 18.8 22.6 28.0 20 0 Alarm State:  0
Fri Apr 19 07:13:19 PDT 2024 ON: 21.34 +20.0 21.38 -21.5 18.8 22.6 28.0 20 0 Alarm State:  0
Fri Apr 19 07:12:17 PDT 2024 ON: 21.35 +20.0 21.40 -21.3 19.0 22.5 28.0 19 0 Alarm State:  0
Fri Apr 19 07:11:16 PDT 2024 ON: 21.34 +20.0 21.39 -21.4 18.9 22.5 28.0 19 0 Alarm State:  0
Fri Apr 19 07:10:14 PDT 2024 ON: 21.34 +20.0 21.39 -21.4 18.9 22.5 28.0 20 0 Alarm State:  0
Fri Apr 19 07:09:13 PDT 2024 ON: 21.33 +20.0 21.38 -21.4 18.9 22.5 28.0 20 0 Alarm State:  0
Fri Apr 19 07:08:11 PDT 2024 ON: 21.34 +20.0 21.39 -21.4 18.9 22.5 28.0 20 0 Alarm State:  0
Fri Apr 19 07:07:10 PDT 2024 ON: 21.34 +20.0 21.39 -21.4 18.9 22.5 28.0 20 0 Alarm State:  0
Fri Apr 19 07:06:08 PDT 2024 ON: 21.34 +20.0 21.39 -21.5 18.8 22.6 28.0 20 0 Alarm State:  0
Fri Apr 19 07:05:07 PDT 2024 ON: 21.33 +20.0 21.38 -21.4 18.9 22.5 28.0 20 0 Alarm State:  0
Fri Apr 19 07:04:05 PDT 2024 ON: 21.33 +20.0 21.39 -21.4 18.9 22.5 28.0 20 0 Alarm State:  0
Fri Apr 19 07:03:04 PDT 2024 ON: 21.33 +20.0 21.38 -21.4 18.9 22.5 28.0 20 0 Alarm State:  0
Fri Apr 19 07:02:02 PDT 2024 ON: 21.34 +20.0 21.39 -21.5 18.8 22.6 28.0 20 0 Alarm State:  0
Fri Apr 19 07:01:01 PDT 2024 ON: 21.34 +20.0 21.38 -21.4 18.9 22.5 28.0 20 0 Alarm State:  0
Fri Apr 19 06:59:59 PDT 2024 ON: 21.34 +20.0 21.39 -21.4 18.9 22.5 28.0 20 0 Alarm State:  0
Fri Apr 19 06:58:58 PDT 2024 ON: 21.33 +20.0 21.38 -21.4 18.9 22.5 28.0 20 0 Alarm State:  0
Fri Apr 19 06:57:56 PDT 2024 ON: 21.33 +20.0 21.37 -21.5 18.8 22.6 28.0 20 0 Alarm State:  0
Fri Apr 19 06:56:55 PDT 2024 ON: 21.33 +20.0 21.37 -21.4 18.9 22.5 28.0 20 0 Alarm State:  0
Fri Apr 19 06:55:53 PDT 2024 ON: 21.33 +20.0 21.37 -21.5 18.8 22.6 28.0 20 0 Alarm State:  0
Fri Apr 19 06:54:52 PDT 2024 ON: 21.33 +20.0 21.37 -21.4 18.9 22.5 28.0 19 0 Alarm State:  0
Fri Apr 19 06:53:50 PDT 2024 ON: 21.34 +20.0 21.39 -21.5 18.8 22.6 28.0 20 0 Alarm State:  0
Fri Apr 19 06:52:49 PDT 2024 ON: 21.32 +20.0 21.36 -21.4 18.9 22.5 28.0 20 0 Alarm State:  0
Fri Apr 19 06:51:47 PDT 2024 ON: 21.33 +20.0 21.37 -21.5 18.8 22.6 28.0 20 0 Alarm State:  0
Fri Apr 19 06:50:46 PDT 2024 ON: 21.32 +20.0 21.37 -21.5 18.8 22.6 28.0 20 0 Alarm State:  0
Fri Apr 19 06:49:44 PDT 2024 ON: 21.33 +20.0 21.38 -21.4 18.9 22.5 28.0 20 0 Alarm State:  0
Fri Apr 19 06:48:43 PDT 2024 ON: 21.32 +20.0 21.36 -21.4 18.9 22.5 28.0 20 0 Alarm State:  0
Fri Apr 19 06:47:41 PDT 2024 ON: 21.32 +20.0 21.36 -21.4 18.9 22.5 28.0 20 0 Alarm State:  0
Fri Apr 19 06:46:40 PDT 2024 ON: 21.32 +20.0 21.36 -21.5 18.7 22.7 27.9 20 0 Alarm State:  0
Fri Apr 19 06:45:38 PDT 2024 ON: 21.33 +20.0 21.37 -21.5 18.8 22.6 28.0 20 0 Alarm State:  0
Fri Apr 19 06:44:37 PDT 2024 ON: 21.32 +20.0 21.37 -21.5 18.8 22.6 28.0 20 0 Alarm State:  0
Fri Apr 19 06:43:35 PDT 2024 ON: 21.33 +20.0 21.38 -21.5 18.8 22.6 28.0 20 0 Alarm State:  0
Fri Apr 19 06:42:34 PDT 2024 ON: 21.32 +20.0 21.37 -21.3 19.0 22.5 28.0 19 0 Alarm State:  0
Fri Apr 19 06:41:32 PDT 2024 ON: 21.32 +20.0 21.37 -21.4 18.9 22.5 28.0 20 0 Alarm State:  0
Fri Apr 19 06:40:31 PDT 2024 ON: 21.32 +20.0 21.37 -21.4 18.9 22.5 28.0 20 0 Alarm State:  0
Fri Apr 19 06:39:29 PDT 2024 ON: 21.32 +20.0 21.37 -21.5 18.8 22.6 28.0 19 0 Alarm State:  0
Fri Apr 19 06:38:28 PDT 2024 ON: 21.32 +20.0 21.37 -21.4 18.9 22.5 28.0 20 0 Alarm State:  0
Fri Apr 19 06:37:26 PDT 2024 ON: 21.32 +20.0 21.37 -21.5 18.8 22.6 28.0 20 0 Alarm State:  0
Fri Apr 19 06:36:25 PDT 2024 ON: 21.33 +20.0 21.38 -21.4 18.9 22.5 28.0 20 0 Alarm State:  0
Fri Apr 19 06:35:23 PDT 2024 ON: 21.32 +20.0 21.37 -21.4 18.9 22.5 28.0 20 0 Alarm State:  0
Fri Apr 19 06:34:22 PDT 2024 ON: 21.33 +20.0 21.38 -21.4 18.9 22.5 28.0 20 0 Alarm State:  0
Fri Apr 19 06:33:20 PDT 2024 ON: 21.33 +20.0 21.38 -21.5 18.8 22.6 28.0 20 0 Alarm State:  0
Fri Apr 19 06:32:19 PDT 2024 ON: 21.32 +20.0 21.37 -21.4 18.9 22.5 28.0 20 0 Alarm State:  0
Fri Apr 19 06:31:17 PDT 2024 ON: 21.32 +20.0 21.37 -21.4 18.9 22.5 28.0 19 0 Alarm State:  0
Fri Apr 19 06:30:16 PDT 2024 ON: 21.32 +20.0 21.37 -21.4 18.9 22.5 28.0 20 0 Alarm State:  0
Fri Apr 19 06:29:14 PDT 2024 ON: 21.33 +20.0 21.38 -21.4 18.9 22.5 28.0 20 0 Alarm State:  0
Fri Apr 19 06:28:13 PDT 2024 ON: 21.33 +20.0 21.37 -21.4 18.9 22.5 28.0 20 0 Alarm State:  0
Fri Apr 19 06:27:11 PDT 2024 ON: 21.34 +20.0 21.39 -21.4 18.9 22.5 28.0 20 0 Alarm State:  0
Fri Apr 19 06:26:10 PDT 2024 ON: 21.33 +20.0 21.38 -21.5 18.8 22.6 28.0 20 0 Alarm State:  0
Fri Apr 19 06:25:08 PDT 2024 ON: 21.33 +20.0 21.38 -21.4 18.9 22.5 28.0 20 0 Alarm State:  0
Fri Apr 19 06:24:06 PDT 2024 ON: 21.33 +20.0 21.37 -21.5 18.8 22.6 28.0 20 0 Alarm State:  0
Fri Apr 19 06:23:05 PDT 2024 ON: 21.33 +20.0 21.37 -21.4 18.9 22.5 28.0 20 0 Alarm State:  0
Fri Apr 19 06:22:03 PDT 2024 ON: 21.33 +20.0 21.37 -21.4 18.9 22.5 28.0 20 0 Alarm State:  0
Fri Apr 19 06:21:02 PDT 2024 ON: 21.33 +20.0 21.37 -21.4 18.9 22.5 28.0 20 0 Alarm State:  0
Fri Apr 19 06:20:00 PDT 2024 ON: 21.33 +20.0 21.38 -21.4 18.9 22.5 28.0 20 0 Alarm State:  0
Fri Apr 19 06:18:59 PDT 2024 ON: 21.33 +20.0 21.38 -21.5 18.8 22.6 28.0 20 0 Alarm State:  0
Fri Apr 19 06:17:57 PDT 2024 ON: 21.33 +20.0 21.38 -21.4 18.9 22.5 28.0 20 0 Alarm State:  0
Fri Apr 19 06:16:56 PDT 2024 ON: 21.32 +20.0 21.37 -21.3 19.0 22.5 28.0 19 0 Alarm State:  0
Fri Apr 19 06:15:54 PDT 2024 ON: 21.33 +20.0 21.37 -21.4 18.9 22.5 28.0 20 0 Alarm State:  0
Fri Apr 19 06:14:53 PDT 2024 ON: 21.32 +20.0 21.37 -21.4 18.9 22.5 28.0 20 0 Alarm State:  0
Fri Apr 19 06:13:51 PDT 2024 ON: 21.33 +20.0 21.38 -21.5 18.8 22.6 28.0 20 0 Alarm State:  0
Fri Apr 19 06:12:50 PDT 2024 ON: 21.32 +20.0 21.37 -21.4 18.9 22.5 28.0 20 0 Alarm State:  0
Fri Apr 19 06:11:48 PDT 2024 ON: 21.33 +20.0 21.38 -21.5 18.8 22.6 28.0 20 0 Alarm State:  0
Fri Apr 19 06:10:47 PDT 2024 ON: 21.32 +20.0 21.37 -21.4 18.9 22.5 28.0 20 0 Alarm State:  0
Fri Apr 19 06:09:45 PDT 2024 ON: 21.32 +20.0 21.37 -21.5 18.8 22.6 28.0 20 0 Alarm State:  0
Fri Apr 19 06:08:44 PDT 2024 ON: 21.32 +20.0 21.37 -21.4 18.9 22.5 28.0 20 0 Alarm State:  0
Fri Apr 19 06:07:42 PDT 2024 ON: 21.31 +20.0 21.36 -21.4 18.9 22.5 28.0 19 0 Alarm State:  0
Fri Apr 19 06:06:41 PDT 2024 ON: 21.32 +20.0 21.37 -21.5 18.8 22.6 28.0 19 0 Alarm State:  0
Fri Apr 19 06:05:39 PDT 2024 ON: 21.31 +20.0 21.36 -21.4 18.9 22.5 28.0 19 0 Alarm State:  0
Fri Apr 19 06:04:38 PDT 2024 ON: 21.30 +20.0 21.35 -21.4 18.9 22.5 28.0 20 0 Alarm State:  0
Fri Apr 19 06:03:36 PDT 2024 ON: 21.31 +20.0 21.35 -21.4 18.9 22.5 28.0 20 0 Alarm State:  0
Fri Apr 19 06:02:35 PDT 2024 ON: 21.31 +20.0 21.36 -21.4 18.9 22.5 28.0 20 0 Alarm State:  0
Fri Apr 19 06:01:33 PDT 2024 ON: 21.31 +20.0 21.36 -21.4 18.9 22.5 28.0 20 0 Alarm State:  0
Fri Apr 19 06:00:32 PDT 2024 ON: 21.31 +20.0 21.36 -21.5 18.8 22.6 28.0 20 0 Alarm State:  0
Fri Apr 19 05:59:30 PDT 2024 ON: 21.30 +20.0 21.36 -21.5 18.8 22.6 28.0 20 0 Alarm State:  0
Fri Apr 19 05:58:29 PDT 2024 ON: 21.31 +20.0 21.36 -21.4 18.9 22.5 28.0 20 0 Alarm State:  0
Fri Apr 19 05:57:27 PDT 2024 ON: 21.31 +20.0 21.35 -21.4 18.9 22.5 28.0 20 0 Alarm State:  0
Fri Apr 19 05:56:26 PDT 2024 ON: 21.30 +20.0 21.35 -21.4 18.9 22.5 28.0 20 0 Alarm State:  0
Fri Apr 19 05:55:24 PDT 2024 ON: 21.31 +20.0 21.36 -21.4 18.9 22.5 28.0 20 0 Alarm State:  0
Fri Apr 19 05:54:23 PDT 2024 ON: 21.31 +20.0 21.36 -21.4 18.9 22.5 28.0 20 0 Alarm State:  0
Fri Apr 19 05:53:21 PDT 2024 ON: 21.31 +20.0 21.36 -21.5 18.8 22.6 28.0 20 0 Alarm State:  0
Fri Apr 19 05:52:20 PDT 2024 ON: 21.31 +20.0 21.35 -21.5 18.8 22.6 28.0 20 0 Alarm State:  0
Fri Apr 19 05:51:18 PDT 2024 ON: 21.30 +20.0 21.35 -21.5 18.7 22.7 28.0 20 0 Alarm State:  0
Fri Apr 19 05:50:17 PDT 2024 ON: 21.31 +20.0 21.36 -21.4 18.9 22.5 28.0 20 0 Alarm State:  0
Fri Apr 19 05:49:15 PDT 2024 ON: 21.30 +20.0 21.35 -21.4 18.9 22.5 28.0 19 0 Alarm State:  0
Fri Apr 19 05:48:14 PDT 2024 ON: 21.31 +20.0 21.36 -21.4 18.9 22.5 28.0 20 0 Alarm State:  0
Fri Apr 19 05:47:12 PDT 2024 ON: 21.31 +20.0 21.36 -21.5 18.8 22.6 28.0 20 0 Alarm State:  0
Fri Apr 19 05:46:11 PDT 2024 ON: 21.30 +20.0 21.36 -21.5 18.7 22.7 28.0 20 0 Alarm State:  0
Fri Apr 19 05:45:09 PDT 2024 ON: 21.30 +20.0 21.35 -21.4 18.9 22.5 28.0 20 0 Alarm State:  0
Fri Apr 19 05:44:08 PDT 2024 ON: 21.31 +20.0 21.35 -21.4 18.9 22.5 28.0 20 0 Alarm State:  0
Fri Apr 19 05:43:06 PDT 2024 ON: 21.30 +20.0 21.35 -21.4 18.9 22.5 28.0 20 0 Alarm State:  0
Fri Apr 19 05:42:05 PDT 2024 ON: 21.30 +20.0 21.35 -21.4 18.9 22.5 28.0 20 0 Alarm State:  0
Fri Apr 19 05:41:03 PDT 2024 ON: 21.30 +20.0 21.35 -21.5 18.8 22.6 28.0 20 0 Alarm State:  0
Fri Apr 19 05:40:02 PDT 2024 ON: 21.30 +20.0 21.35 -21.5 18.8 22.6 28.0 20 0 Alarm State:  0
Fri Apr 19 05:39:00 PDT 2024 ON: 21.31 +20.0 21.35 -21.4 18.9 22.5 28.0 20 0 Alarm State:  0
Fri Apr 19 05:37:59 PDT 2024 ON: 21.30 +20.0 21.34 -21.5 18.8 22.6 28.0 20 0 Alarm State:  0
Fri Apr 19 05:36:57 PDT 2024 ON: 21.30 +20.0 21.36 -21.4 18.9 22.5 28.0 19 0 Alarm State:  0
Fri Apr 19 05:35:56 PDT 2024 ON: 21.30 +20.0 21.35 -21.4 18.9 22.5 28.0 20 0 Alarm State:  0
Fri Apr 19 05:34:54 PDT 2024 ON: 21.31 +20.0 21.36 -21.5 18.8 22.6 28.0 20 0 Alarm State:  0
Fri Apr 19 05:33:53 PDT 2024 ON: 21.31 +20.0 21.36 -21.4 18.9 22.5 28.0 20 0 Alarm State:  0
Fri Apr 19 05:32:51 PDT 2024 ON: 21.30 +20.0 21.35 -21.5 18.8 22.6 28.0 20 0 Alarm State:  0
Fri Apr 19 05:31:50 PDT 2024 ON: 21.30 +20.0 21.36 -21.4 18.9 22.5 28.0 20 0 Alarm State:  0
Fri Apr 19 05:30:48 PDT 2024 ON: 21.30 +20.0 21.36 -21.4 18.9 22.5 28.0 20 0 Alarm State:  0
Fri Apr 19 05:29:47 PDT 2024 ON: 21.30 +20.0 21.35 -21.5 18.8 22.6 28.0 20 0 Alarm State:  0
Fri Apr 19 05:28:45 PDT 2024 ON: 21.30 +20.0 21.35 -21.5 18.8 22.6 28.0 20 0 Alarm State:  0
Fri Apr 19 05:27:44 PDT 2024 ON: 21.30 +20.0 21.36 -21.5 18.8 22.6 28.0 20 0 Alarm State:  0
Fri Apr 19 05:26:42 PDT 2024 ON: 21.31 +20.0 21.36 -21.4 18.9 22.5 28.0 20 0 Alarm State:  0
Fri Apr 19 05:25:41 PDT 2024 ON: 21.31 +20.0 21.36 -21.4 18.9 22.5 28.0 20 0 Alarm State:  0
Fri Apr 19 05:24:39 PDT 2024 ON: 21.31 +20.0 21.36 -21.4 18.9 22.5 28.0 20 0 Alarm State:  0
Fri Apr 19 05:23:37 PDT 2024 ON: 21.31 +20.0 21.36 -21.3 19.0 22.5 28.0 20 0 Alarm State:  0
Fri Apr 19 05:22:36 PDT 2024 ON: 21.30 +20.0 21.35 -21.4 18.9 22.5 28.0 20 0 Alarm State:  0
Fri Apr 19 05:21:34 PDT 2024 ON: 21.31 +20.0 21.36 -21.4 18.9 22.5 28.0 19 0 Alarm State:  0
Fri Apr 19 05:20:33 PDT 2024 ON: 21.31 +20.0 21.36 -21.5 18.8 22.6 28.0 20 0 Alarm State:  0
Fri Apr 19 05:19:31 PDT 2024 ON: 21.31 +20.0 21.36 -21.5 18.8 22.6 28.0 20 0 Alarm State:  0
Fri Apr 19 05:18:30 PDT 2024 ON: 21.31 +20.0 21.36 -21.4 18.9 22.5 28.0 20 0 Alarm State:  0
Fri Apr 19 05:17:28 PDT 2024 ON: 21.30 +20.0 21.35 -21.5 18.8 22.6 28.0 20 0 Alarm State:  0
Fri Apr 19 05:16:27 PDT 2024 ON: 21.30 +20.0 21.35 -21.4 18.9 22.5 28.0 20 0 Alarm State:  0
Fri Apr 19 05:15:25 PDT 2024 ON: 21.31 +20.0 21.36 -21.4 18.9 22.5 28.0 20 0 Alarm State:  0
Fri Apr 19 05:14:24 PDT 2024 ON: 21.31 +20.0 21.36 -21.4 18.9 22.5 28.0 20 0 Alarm State:  0
Fri Apr 19 05:13:22 PDT 2024 ON: 21.32 +20.0 21.38 -21.4 18.9 22.5 28.0 19 0 Alarm State:  0
Fri Apr 19 05:12:21 PDT 2024 ON: 21.31 +20.0 21.36 -21.5 18.8 22.6 28.0 20 0 Alarm State:  0
Fri Apr 19 05:11:19 PDT 2024 ON: 21.32 +20.0 21.37 -21.5 18.8 22.6 28.0 20 0 Alarm State:  0
Fri Apr 19 05:10:18 PDT 2024 ON: 21.33 +20.0 21.38 -21.4 18.9 22.5 28.0 20 0 Alarm State:  0
Fri Apr 19 05:09:16 PDT 2024 ON: 21.33 +20.0 21.38 -21.5 18.8 22.6 28.0 20 0 Alarm State:  0
Fri Apr 19 05:08:05 PDT 2024  Alarm State: 0
Fri Apr 19 05:08:05 PDT 2024 Chiller did not report ON, got this reading: 
Fri Apr 19 05:07:03 PDT 2024 ON: 21.33 +20.0 21.39 -21.4 18.9 22.5 28.0 20 0 Alarm State:  0
Fri Apr 19 05:06:02 PDT 2024 ON: 21.32 +20.0 21.37 -21.5 18.8 22.6 28.0 20 0 Alarm State:  0
Fri Apr 19 05:05:00 PDT 2024 ON: 21.33 +20.0 21.39 -21.5 18.8 22.6 28.0 20 0 Alarm State:  0
Fri Apr 19 05:03:59 PDT 2024 ON: 21.32 +20.0 21.37 -21.5 18.8 22.6 28.0 20 0 Alarm State:  0
Fri Apr 19 05:02:57 PDT 2024 ON: 21.33 +20.0 21.37 -21.4 18.9 22.5 28.0 20 0 Alarm State:  0
Fri Apr 19 05:01:56 PDT 2024 ON: 21.33 +20.0 21.38 -21.5 18.8 22.6 28.0 20 0 Alarm State:  0
Fri Apr 19 05:00:54 PDT 2024 ON: 21.34 +20.0 21.39 -21.3 19.0 22.5 28.0 20 0 Alarm State:  0
Fri Apr 19 04:59:53 PDT 2024 ON: 21.33 +20.0 21.39 -21.5 18.8 22.6 28.0 20 0 Alarm State:  0
Fri Apr 19 04:58:51 PDT 2024 ON: 21.34 +20.0 21.39 -21.4 18.9 22.5 28.0 20 0 Alarm State:  0
Fri Apr 19 04:57:50 PDT 2024 ON: 21.34 +20.0 21.39 -21.4 18.9 22.5 28.0 20 0 Alarm State:  0
Fri Apr 19 04:56:48 PDT 2024 ON: 21.33 +20.0 21.37 -21.5 18.8 22.6 28.0 20 0 Alarm State:  0
Fri Apr 19 04:55:47 PDT 2024 ON: 21.33 +20.0 21.39 -21.5 18.8 22.6 28.0 20 0 Alarm State:  0
Fri Apr 19 04:54:45 PDT 2024 ON: 21.33 +20.0 21.38 -21.5 18.8 22.6 28.0 20 0 Alarm State:  0
Fri Apr 19 04:53:44 PDT 2024 ON: 21.33 +20.0 21.38 -21.5 18.8 22.6 28.0 20 0 Alarm State:  0
Fri Apr 19 04:52:42 PDT 2024 ON: 21.33 +20.0 21.39 -21.5 18.8 22.6 28.0 20 0 Alarm State:  0
Fri Apr 19 04:51:41 PDT 2024 ON: 21.34 +20.0 21.39 -21.5 18.8 22.6 28.0 20 0 Alarm State:  0
Fri Apr 19 04:50:39 PDT 2024 ON: 21.34 +20.0 21.39 -21.5 18.8 22.6 28.0 20 0 Alarm State:  0
Fri Apr 19 04:49:38 PDT 2024 ON: 21.34 +20.0 21.39 -21.4 18.9 22.5 28.0 20 0 Alarm State:  0
Fri Apr 19 04:48:36 PDT 2024 ON: 21.34 +20.0 21.39 -21.5 18.8 22.6 28.0 20 0 Alarm State:  0
Fri Apr 19 04:47:35 PDT 2024 ON: 21.34 +20.0 21.39 -21.5 18.8 22.6 28.0 20 0 Alarm State:  0
Fri Apr 19 04:46:33 PDT 2024 ON: 21.34 +20.0 21.39 -21.4 18.9 22.5 28.0 20 0 Alarm State:  0
Fri Apr 19 04:45:32 PDT 2024 ON: 21.35 +20.0 21.40 -21.5 18.8 22.6 28.0 20 0 Alarm State:  0
Fri Apr 19 04:44:30 PDT 2024 ON: 21.35 +20.0 21.41 -21.4 18.9 22.5 28.0 20 0 Alarm State:  0
Fri Apr 19 04:43:29 PDT 2024 ON: 21.35 +20.0 21.39 -21.5 18.8 22.6 28.0 20 0 Alarm State:  0
Fri Apr 19 04:42:27 PDT 2024 ON: 21.35 +20.0 21.39 -21.4 18.9 22.5 28.0 20 0 Alarm State:  0
Fri Apr 19 04:41:26 PDT 2024 ON: 21.35 +20.0 21.41 -21.4 18.9 22.5 28.0 20 0 Alarm State:  0
Fri Apr 19 04:40:24 PDT 2024 ON: 21.35 +20.0 21.39 -21.5 18.8 22.6 28.0 20 0 Alarm State:  0
Fri Apr 19 04:39:23 PDT 2024 ON: 21.36 +20.0 21.40 -21.4 18.9 22.5 28.0 20 0 Alarm State:  0
Fri Apr 19 04:38:21 PDT 2024 ON: 21.36 +20.0 21.42 -21.4 18.9 22.5 28.0 20 0 Alarm State:  0
Fri Apr 19 04:37:20 PDT 2024 ON: 21.35 +20.0 21.40 -21.4 18.9 22.5 28.0 20 0 Alarm State:  0
Fri Apr 19 04:36:18 PDT 2024 ON: 21.36 +20.0 21.41 -21.5 18.8 22.6 28.0 19 0 Alarm State:  0
Fri Apr 19 04:35:17 PDT 2024 ON: 21.36 +20.0 21.41 -21.4 18.9 22.5 28.0 20 0 Alarm State:  0
Fri Apr 19 04:34:15 PDT 2024 ON: 21.36 +20.0 21.40 -21.4 18.9 22.5 28.0 20 0 Alarm State:  0
Fri Apr 19 04:33:14 PDT 2024 ON: 21.36 +20.0 21.41 -21.5 18.8 22.6 28.0 20 0 Alarm State:  0
Fri Apr 19 04:32:12 PDT 2024 ON: 21.36 +20.0 21.42 -21.4 18.9 22.5 28.0 20 0 Alarm State:  0
Fri Apr 19 04:31:11 PDT 2024 ON: 21.36 +20.0 21.41 -21.5 18.7 22.7 28.0 20 0 Alarm State:  0
Fri Apr 19 04:30:09 PDT 2024 ON: 21.37 +20.0 21.42 -21.4 18.9 22.5 28.0 20 0 Alarm State:  0
Fri Apr 19 04:29:08 PDT 2024 ON: 21.37 +20.0 21.42 -21.4 18.9 22.5 28.0 20 0 Alarm State:  0
Fri Apr 19 04:28:06 PDT 2024 ON: 21.37 +20.0 21.41 -21.4 18.9 22.5 28.0 20 0 Alarm State:  0
Fri Apr 19 04:26:55 PDT 2024  Alarm State: 0
Fri Apr 19 04:26:55 PDT 2024 Chiller did not report ON, got this reading: 
Fri Apr 19 04:25:53 PDT 2024 ON: 21.36 +20.0 21.42 -21.4 18.9 22.5 28.0 20 0 Alarm State:  0
Fri Apr 19 04:24:52 PDT 2024 ON: 21.36 +20.0 21.41 -21.4 18.9 22.5 28.0 20 0 Alarm State:  0
Fri Apr 19 04:23:50 PDT 2024 ON: 21.36 +20.0 21.41 -21.4 18.9 22.5 28.0 20 0 Alarm State:  0
Fri Apr 19 04:22:49 PDT 2024 ON: 21.37 +20.0 21.42 -21.4 18.9 22.5 28.0 20 0 Alarm State:  0
Fri Apr 19 04:21:47 PDT 2024 ON: 21.37 +20.0 21.42 -21.4 18.9 22.5 28.0 19 0 Alarm State:  0
Fri Apr 19 04:20:46 PDT 2024 ON: 21.38 +20.0 21.43 -21.5 18.8 22.6 28.0 20 0 Alarm State:  0
Fri Apr 19 04:19:44 PDT 2024 ON: 21.38 +20.0 21.43 -21.4 18.9 22.5 28.0 20 0 Alarm State:  0
Fri Apr 19 04:18:43 PDT 2024 ON: 21.37 +20.0 21.42 -21.5 18.8 22.6 28.0 20 0 Alarm State:  0
Fri Apr 19 04:17:41 PDT 2024 ON: 21.37 +20.0 21.42 -21.4 18.9 22.5 28.0 20 0 Alarm State:  0
Fri Apr 19 04:16:40 PDT 2024 ON: 21.37 +20.0 21.42 -21.4 18.9 22.5 28.0 20 0 Alarm State:  0
Fri Apr 19 04:15:38 PDT 2024 ON: 21.38 +20.0 21.43 -21.5 18.8 22.6 28.0 20 0 Alarm State:  0
Fri Apr 19 04:14:37 PDT 2024 ON: 21.38 +20.0 21.43 -21.5 18.8 22.6 28.0 20 0 Alarm State:  0
Fri Apr 19 04:13:35 PDT 2024 ON: 21.38 +20.0 21.42 -21.5 18.8 22.6 28.0 20 0 Alarm State:  0
Fri Apr 19 04:12:34 PDT 2024 ON: 21.37 +20.0 21.42 -21.5 18.8 22.6 28.0 20 0 Alarm State:  0
Fri Apr 19 04:11:32 PDT 2024 ON: 21.38 +20.0 21.43 -21.4 18.9 22.5 28.0 20 0 Alarm State:  0
Fri Apr 19 04:10:31 PDT 2024 ON: 21.39 +20.0 21.43 -21.4 18.9 22.5 28.0 20 0 Alarm State:  0
Fri Apr 19 04:09:29 PDT 2024 ON: 21.38 +20.0 21.43 -21.5 18.8 22.6 28.0 20 0 Alarm State:  0
Fri Apr 19 04:08:28 PDT 2024 ON: 21.38 +20.0 21.43 -21.3 19.0 22.5 28.0 20 0 Alarm State:  0
Fri Apr 19 04:07:26 PDT 2024 ON: 21.39 +20.0 21.44 -21.4 18.9 22.5 28.0 20 0 Alarm State:  0
Fri Apr 19 04:06:25 PDT 2024 ON: 21.39 +20.0 21.44 -21.4 18.9 22.5 28.0 20 0 Alarm State:  0
Fri Apr 19 04:05:23 PDT 2024 ON: 21.38 +20.0 21.43 -21.4 18.9 22.5 28.0 20 0 Alarm State:  0
Fri Apr 19 04:04:22 PDT 2024 ON: 21.38 +20.0 21.43 -21.4 18.9 22.5 28.0 20 0 Alarm State:  0
Fri Apr 19 04:03:20 PDT 2024 ON: 21.39 +20.0 21.44 -21.5 18.8 22.6 28.0 20 0 Alarm State:  0
Fri Apr 19 04:02:19 PDT 2024 ON: 21.39 +20.0 21.44 -21.4 18.9 22.5 28.0 20 0 Alarm State:  0
Fri Apr 19 04:01:17 PDT 2024 ON: 21.39 +20.0 21.44 -21.4 18.9 22.5 28.0 20 0 Alarm State:  0
Fri Apr 19 04:00:16 PDT 2024 ON: 21.39 +20.0 21.44 -21.4 18.9 22.5 28.0 20 0 Alarm State:  0
Fri Apr 19 03:59:14 PDT 2024 ON: 21.39 +20.0 21.43 -21.5 18.7 22.7 28.0 20 0 Alarm State:  0
Fri Apr 19 03:58:13 PDT 2024 ON: 21.39 +20.0 21.45 -21.4 18.9 22.5 28.0 20 0 Alarm State:  0
Fri Apr 19 03:57:11 PDT 2024 ON: 21.40 +20.0 21.45 -21.5 18.8 22.6 28.0 20 0 Alarm State:  0
Fri Apr 19 03:56:10 PDT 2024 ON: 21.39 +20.0 21.44 -21.4 18.9 22.5 28.0 20 0 Alarm State:  0
Fri Apr 19 03:55:08 PDT 2024 ON: 21.39 +20.0 21.44 -21.3 19.0 22.5 28.0 20 0 Alarm State:  0
Fri Apr 19 03:54:07 PDT 2024 ON: 21.39 +20.0 21.44 -21.3 19.0 22.5 28.0 19 0 Alarm State:  0
Fri Apr 19 03:53:05 PDT 2024 ON: 21.39 +20.0 21.44 -21.4 18.9 22.5 28.0 20 0 Alarm State:  0
Fri Apr 19 03:52:04 PDT 2024 ON: 21.40 +20.0 21.45 -21.4 18.9 22.5 28.0 20 0 Alarm State:  0
Fri Apr 19 03:51:02 PDT 2024 ON: 21.39 +20.0 21.45 -21.5 18.8 22.6 28.0 20 0 Alarm State:  0
Fri Apr 19 03:50:01 PDT 2024 ON: 21.40 +20.0 21.45 -21.5 18.8 22.6 28.0 20 0 Alarm State:  0
Fri Apr 19 03:48:59 PDT 2024 ON: 21.40 +20.0 21.45 -21.4 18.9 22.5 28.0 20 0 Alarm State:  0
Fri Apr 19 03:47:57 PDT 2024 ON: 21.40 +20.0 21.45 -21.4 18.9 22.5 28.0 20 0 Alarm State:  0
Fri Apr 19 03:46:56 PDT 2024 ON: 21.40 +20.0 21.44 -21.5 18.8 22.6 28.0 20 0 Alarm State:  0
Fri Apr 19 03:45:54 PDT 2024 ON: 21.40 +20.0 21.45 -21.4 18.9 22.5 28.0 20 0 Alarm State:  0
Fri Apr 19 03:44:53 PDT 2024 ON: 21.41 +20.0 21.46 -21.4 18.9 22.5 28.0 20 0 Alarm State:  0
Fri Apr 19 03:43:51 PDT 2024 ON: 21.40 +20.0 21.45 -21.4 18.9 22.5 28.0 20 0 Alarm State:  0
Fri Apr 19 03:42:50 PDT 2024 ON: 21.40 +20.0 21.44 -21.3 19.0 22.5 28.0 20 0 Alarm State:  0
Fri Apr 19 03:41:48 PDT 2024 ON: 21.40 +20.0 21.44 -21.4 18.9 22.5 28.0 20 0 Alarm State:  0
Fri Apr 19 03:40:47 PDT 2024 ON: 21.40 +20.0 21.45 -21.4 18.9 22.5 28.0 20 0 Alarm State:  0
Fri Apr 19 03:39:45 PDT 2024 ON: 21.40 +20.0 21.45 -21.3 19.0 22.5 28.0 20 0 Alarm State:  0
Fri Apr 19 03:38:44 PDT 2024 ON: 21.42 +20.0 21.46 -21.4 18.9 22.5 28.0 20 0 Alarm State:  0
Fri Apr 19 03:37:42 PDT 2024 ON: 21.42 +20.0 21.47 -21.4 18.9 22.5 28.0 20 0 Alarm State:  0
Fri Apr 19 03:36:41 PDT 2024 ON: 21.41 +20.0 21.46 -21.4 18.9 22.5 28.0 20 0 Alarm State:  0
Fri Apr 19 03:35:39 PDT 2024 ON: 21.42 +20.0 21.47 -21.4 18.9 22.5 28.0 20 0 Alarm State:  0
Fri Apr 19 03:34:38 PDT 2024 ON: 21.42 +20.0 21.47 -21.3 19.0 22.5 28.0 20 0 Alarm State:  0
Fri Apr 19 03:33:36 PDT 2024 ON: 21.42 +20.0 21.46 -21.5 18.8 22.6 28.0 20 0 Alarm State:  0
Fri Apr 19 03:32:35 PDT 2024 ON: 21.42 +20.0 21.46 -21.4 18.9 22.5 28.0 20 0 Alarm State:  0
Fri Apr 19 03:31:33 PDT 2024 ON: 21.42 +20.0 21.48 -21.3 19.0 22.5 28.0 20 0 Alarm State:  0
Fri Apr 19 03:30:32 PDT 2024 ON: 21.43 +20.0 21.48 -21.5 18.8 22.6 28.0 20 0 Alarm State:  0
Fri Apr 19 03:29:30 PDT 2024 ON: 21.42 +20.0 21.47 -21.4 18.9 22.5 28.0 20 0 Alarm State:  0
Fri Apr 19 03:28:29 PDT 2024 ON: 21.43 +20.0 21.48 -21.4 18.9 22.5 28.0 20 0 Alarm State:  0
Fri Apr 19 03:27:27 PDT 2024 ON: 21.43 +20.0 21.48 -21.4 18.9 22.5 28.0 20 0 Alarm State:  0
Fri Apr 19 03:26:26 PDT 2024 ON: 21.43 +20.0 21.48 -21.4 18.9 22.5 28.0 20 0 Alarm State:  0
Fri Apr 19 03:25:24 PDT 2024 ON: 21.43 +20.0 21.48 -21.4 18.9 22.5 28.0 20 0 Alarm State:  0
Fri Apr 19 03:24:23 PDT 2024 ON: 21.44 +20.0 21.48 -21.3 19.0 22.5 28.0 20 0 Alarm State:  0
Fri Apr 19 03:23:21 PDT 2024 ON: 21.44 +20.0 21.49 -21.4 18.9 22.5 28.0 20 0 Alarm State:  0
Fri Apr 19 03:22:20 PDT 2024 ON: 21.44 +20.0 21.48 -21.5 18.8 22.6 28.0 20 0 Alarm State:  0
Fri Apr 19 03:21:18 PDT 2024 ON: 21.45 +20.0 21.50 -21.4 18.9 22.5 28.0 20 0 Alarm State:  0
Fri Apr 19 03:20:17 PDT 2024 ON: 21.44 +20.0 21.49 -21.3 19.0 22.5 28.0 19 0 Alarm State:  0
Fri Apr 19 03:19:15 PDT 2024 ON: 21.45 +20.0 21.50 -21.4 18.9 22.5 28.0 19 0 Alarm State:  0
Fri Apr 19 03:18:14 PDT 2024 ON: 21.44 +20.0 21.49 -21.4 18.9 22.5 28.0 20 0 Alarm State:  0
Fri Apr 19 03:17:12 PDT 2024 ON: 21.44 +20.0 21.49 -21.4 18.9 22.5 28.0 20 0 Alarm State:  0
Fri Apr 19 03:16:11 PDT 2024 ON: 21.44 +20.0 21.49 -21.5 18.8 22.6 28.0 20 0 Alarm State:  0
Fri Apr 19 03:15:09 PDT 2024 ON: 21.45 +20.0 21.50 -21.4 18.9 22.5 28.0 20 0 Alarm State:  0
Fri Apr 19 03:14:08 PDT 2024 ON: 21.46 +20.0 21.51 -21.4 18.9 22.5 28.0 20 0 Alarm State:  0
Fri Apr 19 03:13:06 PDT 2024 ON: 21.45 +20.0 21.50 -21.4 18.9 22.5 28.0 20 0 Alarm State:  0
Fri Apr 19 03:12:05 PDT 2024 ON: 21.45 +20.0 21.50 -21.4 18.9 22.5 28.0 20 0 Alarm State:  0
Fri Apr 19 03:11:03 PDT 2024 ON: 21.45 +20.0 21.50 -21.4 18.9 22.5 28.0 20 0 Alarm State:  0
Fri Apr 19 03:10:02 PDT 2024 ON: 21.46 +20.0 21.51 -21.5 18.8 22.6 28.0 20 0 Alarm State:  0
Fri Apr 19 03:09:00 PDT 2024 ON: 21.46 +20.0 21.50 -21.5 18.8 22.6 28.0 20 0 Alarm State:  0
Fri Apr 19 03:07:59 PDT 2024 ON: 21.46 +20.0 21.51 -21.3 19.0 22.5 28.0 19 0 Alarm State:  0
Fri Apr 19 03:06:57 PDT 2024 ON: 21.47 +20.0 21.51 -21.4 18.9 22.5 28.0 20 0 Alarm State:  0
Fri Apr 19 03:05:56 PDT 2024 ON: 21.47 +20.0 21.52 -21.4 18.9 22.5 28.0 20 0 Alarm State:  0
Fri Apr 19 03:04:54 PDT 2024 ON: 21.47 +20.0 21.52 -21.5 18.8 22.6 28.0 20 0 Alarm State:  0
Fri Apr 19 03:03:53 PDT 2024 ON: 21.47 +20.0 21.52 -21.4 18.9 22.5 28.0 20 0 Alarm State:  0
Fri Apr 19 03:02:51 PDT 2024 ON: 21.47 +20.0 21.52 -21.5 18.8 22.6 28.0 20 0 Alarm State:  0
Fri Apr 19 03:01:50 PDT 2024 ON: 21.48 +20.0 21.53 -21.5 18.7 22.7 28.0 20 0 Alarm State:  0
Fri Apr 19 03:00:48 PDT 2024 ON: 21.48 +20.0 21.52 -21.4 18.9 22.5 28.0 20 0 Alarm State:  0
Fri Apr 19 02:59:47 PDT 2024 ON: 21.49 +20.0 21.53 -21.4 18.9 22.5 28.0 20 0 Alarm State:  0
Fri Apr 19 02:58:45 PDT 2024 ON: 21.48 +20.0 21.53 -21.4 18.9 22.5 28.0 20 0 Alarm State:  0
Fri Apr 19 02:57:44 PDT 2024 ON: 21.48 +20.0 21.52 -21.4 18.9 22.5 28.0 20 0 Alarm State:  0
Fri Apr 19 02:56:42 PDT 2024 ON: 21.50 +20.0 21.54 -21.4 18.9 22.5 28.0 20 0 Alarm State:  0
Fri Apr 19 02:55:41 PDT 2024 ON: 21.49 +20.0 21.54 -21.4 18.9 22.5 28.0 20 0 Alarm State:  0
Fri Apr 19 02:54:39 PDT 2024 ON: 21.48 +20.0 21.53 -21.4 18.9 22.5 28.0 19 0 Alarm State:  0
Fri Apr 19 02:53:38 PDT 2024 ON: 21.49 +20.0 21.54 -21.5 18.7 22.7 28.0 20 0 Alarm State:  0
Fri Apr 19 02:52:36 PDT 2024 ON: 21.49 +20.0 21.53 -21.3 19.0 22.5 28.0 20 0 Alarm State:  0
Fri Apr 19 02:51:35 PDT 2024 ON: 21.49 +20.0 21.55 -21.4 18.9 22.5 28.0 20 0 Alarm State:  0
Fri Apr 19 02:50:33 PDT 2024 ON: 21.50 +20.0 21.54 -21.4 18.9 22.5 28.0 20 0 Alarm State:  0
Fri Apr 19 02:49:32 PDT 2024 ON: 21.50 +20.0 21.55 -21.4 18.9 22.5 28.0 20 0 Alarm State:  0
Fri Apr 19 02:48:30 PDT 2024 ON: 21.50 +20.0 21.55 -21.4 18.9 22.5 28.0 20 0 Alarm State:  0
Fri Apr 19 02:47:28 PDT 2024 ON: 21.50 +20.0 21.54 -21.4 18.9 22.5 28.0 20 0 Alarm State:  0
Fri Apr 19 02:46:27 PDT 2024 ON: 21.50 +20.0 21.55 -21.5 18.8 22.6 28.0 20 0 Alarm State:  0
Fri Apr 19 02:45:25 PDT 2024 ON: 21.51 +20.0 21.56 -21.5 18.8 22.6 28.0 20 0 Alarm State:  0
Fri Apr 19 02:44:24 PDT 2024 ON: 21.50 +20.0 21.54 -21.4 18.9 22.5 28.0 20 0 Alarm State:  0
Fri Apr 19 02:43:22 PDT 2024 ON: 21.50 +20.0 21.54 -21.4 18.9 22.5 28.0 20 0 Alarm State:  0
Fri Apr 19 02:42:21 PDT 2024 ON: 21.50 +20.0 21.55 -21.4 18.9 22.5 28.0 20 0 Alarm State:  0
Fri Apr 19 02:41:19 PDT 2024 ON: 21.50 +20.0 21.55 -21.4 18.9 22.5 28.0 20 0 Alarm State:  0
Fri Apr 19 02:40:18 PDT 2024 ON: 21.51 +20.0 21.56 -21.4 18.9 22.5 28.0 20 0 Alarm State:  0
Fri Apr 19 02:39:16 PDT 2024 ON: 21.50 +20.0 21.55 -21.3 19.0 22.5 28.0 20 0 Alarm State:  0
Fri Apr 19 02:38:15 PDT 2024 ON: 21.52 +20.0 21.56 -21.5 18.8 22.6 28.0 20 0 Alarm State:  0
Fri Apr 19 02:37:13 PDT 2024 ON: 21.51 +20.0 21.56 -21.4 18.9 22.5 28.0 20 0 Alarm State:  0
Fri Apr 19 02:36:12 PDT 2024 ON: 21.51 +20.0 21.56 -21.5 18.8 22.6 28.0 20 0 Alarm State:  0
Fri Apr 19 02:35:10 PDT 2024 ON: 21.52 +20.0 21.57 -21.5 18.8 22.6 28.0 20 0 Alarm State:  0
Fri Apr 19 02:34:09 PDT 2024 ON: 21.51 +20.0 21.56 -21.4 18.9 22.5 28.0 20 0 Alarm State:  0
Fri Apr 19 02:33:07 PDT 2024 ON: 21.52 +20.0 21.56 -21.5 18.8 22.6 28.0 20 0 Alarm State:  0
Fri Apr 19 02:32:06 PDT 2024 ON: 21.50 +20.0 21.55 -21.4 18.9 22.5 28.0 20 0 Alarm State:  0
Fri Apr 19 02:31:04 PDT 2024 ON: 21.51 +20.0 21.55 -21.4 18.9 22.5 28.0 20 0 Alarm State:  0
Fri Apr 19 02:30:03 PDT 2024 ON: 21.50 +20.0 21.55 -21.5 18.8 22.6 28.0 20 0 Alarm State:  0
Fri Apr 19 02:29:01 PDT 2024 ON: 21.50 +20.0 21.55 -21.5 18.8 22.6 28.0 20 0 Alarm State:  0
Fri Apr 19 02:28:00 PDT 2024 ON: 21.50 +20.0 21.55 -21.4 18.9 22.5 28.0 20 0 Alarm State:  0
Fri Apr 19 02:26:58 PDT 2024 ON: 21.51 +20.0 21.56 -21.5 18.8 22.6 28.0 20 0 Alarm State:  0
Fri Apr 19 02:25:57 PDT 2024 ON: 21.51 +20.0 21.56 -21.4 18.9 22.5 28.0 20 0 Alarm State:  0
Fri Apr 19 02:24:55 PDT 2024 ON: 21.51 +20.0 21.57 -21.5 18.8 22.6 28.0 20 0 Alarm State:  0
Fri Apr 19 02:23:54 PDT 2024 ON: 21.50 +20.0 21.55 -21.5 18.8 22.6 28.0 20 0 Alarm State:  0
Fri Apr 19 02:22:52 PDT 2024 ON: 21.50 +20.0 21.55 -21.5 18.8 22.6 28.0 20 0 Alarm State:  0
Fri Apr 19 02:21:51 PDT 2024 ON: 21.51 +20.0 21.56 -21.5 18.8 22.6 28.0 20 0 Alarm State:  0
Fri Apr 19 02:20:49 PDT 2024 ON: 21.51 +20.0 21.55 -21.5 18.8 22.6 28.0 20 0 Alarm State:  0
Fri Apr 19 02:19:48 PDT 2024 ON: 21.50 +20.0 21.55 -21.4 18.9 22.5 28.0 19 0 Alarm State:  0
Fri Apr 19 02:18:46 PDT 2024 ON: 21.50 +20.0 21.54 -21.5 18.8 22.6 28.0 20 0 Alarm State:  0
Fri Apr 19 02:17:45 PDT 2024 ON: 21.51 +20.0 21.55 -21.4 18.9 22.5 28.0 19 0 Alarm State:  0
Fri Apr 19 02:16:43 PDT 2024 ON: 21.50 +20.0 21.55 -21.5 18.8 22.6 28.0 19 0 Alarm State:  0
Fri Apr 19 02:15:42 PDT 2024 ON: 21.50 +20.0 21.55 -21.4 18.9 22.5 28.0 20 0 Alarm State:  0
Fri Apr 19 02:14:40 PDT 2024 ON: 21.51 +20.0 21.55 -21.4 18.9 22.5 28.0 20 0 Alarm State:  0
Fri Apr 19 02:13:39 PDT 2024 ON: 21.50 +20.0 21.54 -21.4 18.9 22.5 28.0 20 0 Alarm State:  0
Fri Apr 19 02:12:37 PDT 2024 ON: 21.51 +20.0 21.56 -21.5 18.8 22.6 28.0 20 0 Alarm State:  0
Fri Apr 19 02:11:36 PDT 2024 ON: 21.49 +20.0 21.54 -21.5 18.7 22.7 28.0 20 0 Alarm State:  0
Fri Apr 19 02:10:34 PDT 2024 ON: 21.49 +20.0 21.54 -21.4 18.9 22.5 28.0 20 0 Alarm State:  0
Fri Apr 19 02:09:33 PDT 2024 ON: 21.49 +20.0 21.54 -21.4 18.9 22.5 28.0 20 0 Alarm State:  0
Fri Apr 19 02:08:31 PDT 2024 ON: 21.49 +20.0 21.54 -21.3 19.0 22.5 28.0 19 0 Alarm State:  0
Fri Apr 19 02:07:30 PDT 2024 ON: 21.50 +20.0 21.55 -21.3 19.0 22.5 28.0 20 0 Alarm State:  0
Fri Apr 19 02:06:28 PDT 2024 ON: 21.49 +20.0 21.53 -21.4 18.9 22.5 28.0 20 0 Alarm State:  0
Fri Apr 19 02:05:27 PDT 2024 ON: 21.49 +20.0 21.53 -21.5 18.7 22.7 28.0 20 0 Alarm State:  0
Fri Apr 19 02:04:25 PDT 2024 ON: 21.48 +20.0 21.53 -21.4 18.9 22.5 28.0 20 0 Alarm State:  0
Fri Apr 19 02:03:24 PDT 2024 ON: 21.48 +20.0 21.53 -21.4 18.9 22.5 28.0 20 0 Alarm State:  0
Fri Apr 19 02:02:22 PDT 2024 ON: 21.48 +20.0 21.52 -21.4 18.9 22.5 28.0 20 0 Alarm State:  0
Fri Apr 19 02:01:21 PDT 2024 ON: 21.48 +20.0 21.52 -21.5 18.8 22.6 28.0 20 0 Alarm State:  0
Fri Apr 19 02:00:19 PDT 2024 ON: 21.48 +20.0 21.53 -21.3 19.0 22.5 28.0 19 0 Alarm State:  0
Fri Apr 19 01:59:18 PDT 2024 ON: 21.48 +20.0 21.52 -21.4 18.9 22.5 28.0 20 0 Alarm State:  0
Fri Apr 19 01:58:16 PDT 2024 ON: 21.48 +20.0 21.53 -21.4 18.9 22.5 28.0 20 0 Alarm State:  0
Fri Apr 19 01:57:15 PDT 2024 ON: 21.48 +20.0 21.53 -21.5 18.7 22.7 27.9 20 0 Alarm State:  0
Fri Apr 19 01:56:13 PDT 2024 ON: 21.48 +20.0 21.53 -21.4 18.9 22.5 28.0 20 0 Alarm State:  0
Fri Apr 19 01:55:12 PDT 2024 ON: 21.49 +20.0 21.54 -21.5 18.8 22.6 28.0 20 0 Alarm State:  0
Fri Apr 19 01:54:10 PDT 2024 ON: 21.47 +20.0 21.52 -21.4 18.9 22.5 28.0 20 0 Alarm State:  0
Fri Apr 19 01:53:09 PDT 2024 ON: 21.48 +20.0 21.52 -21.4 18.9 22.5 28.0 20 0 Alarm State:  0
Fri Apr 19 01:52:07 PDT 2024 ON: 21.47 +20.0 21.52 -21.4 18.9 22.5 28.0 20 0 Alarm State:  0
Fri Apr 19 01:51:06 PDT 2024 ON: 21.49 +20.0 21.54 -21.5 18.8 22.6 28.0 20 0 Alarm State:  0
Fri Apr 19 01:50:04 PDT 2024 ON: 21.49 +20.0 21.53 -21.4 18.9 22.5 28.0 20 0 Alarm State:  0
Fri Apr 19 01:49:02 PDT 2024 ON: 21.48 +20.0 21.52 -21.5 18.8 22.6 28.0 20 0 Alarm State:  0
Fri Apr 19 01:48:01 PDT 2024 ON: 21.47 +20.0 21.52 -21.4 18.9 22.5 28.0 20 0 Alarm State:  0
Fri Apr 19 01:46:59 PDT 2024 ON: 21.47 +20.0 21.52 -21.4 18.9 22.5 28.0 20 0 Alarm State:  0
Fri Apr 19 01:45:58 PDT 2024 ON: 21.48 +20.0 21.53 -21.5 18.8 22.6 28.0 20 0 Alarm State:  0
Fri Apr 19 01:44:56 PDT 2024 ON: 21.48 +20.0 21.53 -21.5 18.8 22.6 28.0 20 0 Alarm State:  0
Fri Apr 19 01:43:55 PDT 2024 ON: 21.47 +20.0 21.52 -21.5 18.7 22.7 28.0 20 0 Alarm State:  0
Fri Apr 19 01:42:53 PDT 2024 ON: 21.47 +20.0 21.53 -21.5 18.8 22.6 28.0 20 0 Alarm State:  0
Fri Apr 19 01:41:52 PDT 2024 ON: 21.47 +20.0 21.51 -21.4 18.9 22.5 28.0 20 0 Alarm State:  0
Fri Apr 19 01:40:50 PDT 2024 ON: 21.47 +20.0 21.52 -21.4 18.9 22.5 28.0 20 0 Alarm State:  0
Fri Apr 19 01:39:49 PDT 2024 ON: 21.47 +20.0 21.52 -21.4 18.9 22.5 28.0 20 0 Alarm State:  0
Fri Apr 19 01:38:47 PDT 2024 ON: 21.47 +20.0 21.52 -21.4 18.9 22.5 28.0 20 0 Alarm State:  0
Fri Apr 19 01:37:46 PDT 2024 ON: 21.47 +20.0 21.52 -21.4 18.9 22.5 28.0 19 0 Alarm State:  0
Fri Apr 19 01:36:44 PDT 2024 ON: 21.47 +20.0 21.52 -21.5 18.8 22.6 28.0 20 0 Alarm State:  0
Fri Apr 19 01:35:43 PDT 2024 ON: 21.47 +20.0 21.52 -21.5 18.8 22.6 28.0 19 0 Alarm State:  0
Fri Apr 19 01:34:41 PDT 2024 ON: 21.47 +20.0 21.52 -21.5 18.8 22.6 28.0 20 0 Alarm State:  0
Fri Apr 19 01:33:40 PDT 2024 ON: 21.48 +20.0 21.53 -21.5 18.8 22.6 28.0 20 0 Alarm State:  0
Fri Apr 19 01:32:38 PDT 2024 ON: 21.47 +20.0 21.51 -21.4 18.9 22.5 28.0 20 0 Alarm State:  0
Fri Apr 19 01:31:37 PDT 2024 ON: 21.48 +20.0 21.54 -21.4 18.9 22.5 28.0 20 0 Alarm State:  0
Fri Apr 19 01:30:35 PDT 2024 ON: 21.48 +20.0 21.52 -21.4 18.9 22.5 28.0 19 0 Alarm State:  0
Fri Apr 19 01:29:34 PDT 2024 ON: 21.47 +20.0 21.52 -21.4 18.9 22.5 28.0 20 0 Alarm State:  0
Fri Apr 19 01:28:32 PDT 2024 ON: 21.48 +20.0 21.53 -21.4 18.9 22.5 28.0 20 0 Alarm State:  0
Fri Apr 19 01:27:31 PDT 2024 ON: 21.47 +20.0 21.51 -21.5 18.8 22.6 28.0 20 0 Alarm State:  0
Fri Apr 19 01:26:29 PDT 2024 ON: 21.47 +20.0 21.52 -21.5 18.8 22.6 28.0 20 0 Alarm State:  0
Fri Apr 19 01:25:28 PDT 2024 ON: 21.47 +20.0 21.50 -21.4 18.9 22.5 28.0 20 0 Alarm State:  0
Fri Apr 19 01:24:26 PDT 2024 ON: 21.48 +20.0 21.53 -21.4 18.9 22.5 28.0 19 0 Alarm State:  0
Fri Apr 19 01:23:25 PDT 2024 ON: 21.47 +20.0 21.52 -21.5 18.8 22.6 28.0 20 0 Alarm State:  0
Fri Apr 19 01:22:23 PDT 2024 ON: 21.47 +20.0 21.51 -21.4 18.9 22.5 28.0 20 0 Alarm State:  0
Fri Apr 19 01:21:22 PDT 2024 ON: 21.47 +20.0 21.51 -21.5 18.8 22.6 28.0 20 0 Alarm State:  0
Fri Apr 19 01:20:20 PDT 2024 ON: 21.46 +20.0 21.50 -21.5 18.8 22.6 28.0 20 0 Alarm State:  0
Fri Apr 19 01:19:19 PDT 2024 ON: 21.47 +20.0 21.52 -21.5 18.8 22.6 28.0 20 0 Alarm State:  0
Fri Apr 19 01:18:17 PDT 2024 ON: 21.46 +20.0 21.51 -21.4 18.9 22.5 28.0 19 0 Alarm State:  0
Fri Apr 19 01:17:16 PDT 2024 ON: 21.46 +20.0 21.51 -21.3 19.0 22.5 28.0 19 0 Alarm State:  0
Fri Apr 19 01:16:14 PDT 2024 ON: 21.46 +20.0 21.51 -21.4 18.9 22.5 28.0 20 0 Alarm State:  0
Fri Apr 19 01:15:13 PDT 2024 ON: 21.47 +20.0 21.51 -21.4 18.9 22.5 28.0 20 0 Alarm State:  0
Fri Apr 19 01:14:11 PDT 2024 ON: 21.46 +20.0 21.51 -21.5 18.8 22.6 28.0 20 0 Alarm State:  0
Fri Apr 19 01:13:10 PDT 2024 ON: 21.46 +20.0 21.52 -21.4 18.9 22.5 28.0 20 0 Alarm State:  0
Fri Apr 19 01:12:08 PDT 2024 ON: 21.47 +20.0 21.52 -21.4 18.9 22.5 28.0 20 0 Alarm State:  0
Fri Apr 19 01:11:07 PDT 2024 ON: 21.47 +20.0 21.51 -21.3 19.0 22.5 28.0 20 0 Alarm State:  0
Fri Apr 19 01:10:05 PDT 2024 ON: 21.47 +20.0 21.52 -21.5 18.8 22.6 28.0 20 0 Alarm State:  0
Fri Apr 19 01:09:04 PDT 2024 ON: 21.47 +20.0 21.52 -21.5 18.8 22.6 28.0 20 0 Alarm State:  0
Fri Apr 19 01:08:02 PDT 2024 ON: 21.47 +20.0 21.52 -21.4 18.9 22.5 28.0 20 0 Alarm State:  0
Fri Apr 19 01:07:01 PDT 2024 ON: 21.47 +20.0 21.52 -21.4 18.9 22.5 28.0 20 0 Alarm State:  0
Fri Apr 19 01:05:59 PDT 2024 ON: 21.48 +20.0 21.53 -21.4 18.9 22.5 28.0 20 0 Alarm State:  0
Fri Apr 19 01:04:58 PDT 2024 ON: 21.48 +20.0 21.53 -21.4 18.9 22.5 28.0 20 0 Alarm State:  0
Fri Apr 19 01:03:56 PDT 2024 ON: 21.48 +20.0 21.53 -21.4 18.9 22.5 28.0 20 0 Alarm State:  0
Fri Apr 19 01:02:55 PDT 2024 ON: 21.48 +20.0 21.53 -21.5 18.8 22.6 28.0 20 0 Alarm State:  0
Fri Apr 19 01:01:53 PDT 2024 ON: 21.48 +20.0 21.53 -21.4 18.9 22.5 28.0 20 0 Alarm State:  0
Fri Apr 19 01:00:52 PDT 2024 ON: 21.49 +20.0 21.54 -21.3 19.0 22.5 28.0 19 0 Alarm State:  0
Fri Apr 19 00:59:50 PDT 2024 ON: 21.48 +20.0 21.53 -21.5 18.8 22.6 28.0 20 0 Alarm State:  0
Fri Apr 19 00:58:49 PDT 2024 ON: 21.47 +20.0 21.52 -21.5 18.8 22.6 28.0 20 0 Alarm State:  0
Fri Apr 19 00:57:47 PDT 2024 ON: 21.47 +20.0 21.52 -21.5 18.8 22.6 28.0 20 0 Alarm State:  0
Fri Apr 19 00:56:46 PDT 2024 ON: 21.47 +20.0 21.52 -21.5 18.8 22.6 28.0 20 0 Alarm State:  0
Fri Apr 19 00:55:44 PDT 2024 ON: 21.48 +20.0 21.53 -21.5 18.8 22.6 28.0 20 0 Alarm State:  0
Fri Apr 19 00:54:43 PDT 2024 ON: 21.47 +20.0 21.51 -21.5 18.8 22.6 28.0 20 0 Alarm State:  0
Fri Apr 19 00:53:41 PDT 2024 ON: 21.46 +20.0 21.51 -21.3 19.0 22.5 28.0 20 0 Alarm State:  0
Fri Apr 19 00:52:40 PDT 2024 ON: 21.46 +20.0 21.50 -21.4 18.9 22.5 28.0 20 0 Alarm State:  0
Fri Apr 19 00:51:38 PDT 2024 ON: 21.47 +20.0 21.52 -21.5 18.8 22.6 28.0 20 0 Alarm State:  0
Fri Apr 19 00:50:36 PDT 2024 ON: 21.46 +20.0 21.51 -21.4 18.9 22.5 28.0 20 0 Alarm State:  0
Fri Apr 19 00:49:35 PDT 2024 ON: 21.47 +20.0 21.52 -21.5 18.8 22.6 28.0 20 0 Alarm State:  0
Fri Apr 19 00:48:33 PDT 2024 ON: 21.47 +20.0 21.52 -21.5 18.8 22.6 28.0 20 0 Alarm State:  0
Fri Apr 19 00:47:32 PDT 2024 ON: 21.47 +20.0 21.52 -21.4 18.9 22.5 28.0 20 0 Alarm State:  0
Fri Apr 19 00:46:30 PDT 2024 ON: 21.46 +20.0 21.51 -21.4 18.9 22.5 28.0 20 0 Alarm State:  0
Fri Apr 19 00:45:29 PDT 2024 ON: 21.46 +20.0 21.51 -21.4 18.9 22.5 28.0 20 0 Alarm State:  0
Fri Apr 19 00:44:27 PDT 2024 ON: 21.47 +20.0 21.51 -21.5 18.8 22.6 28.0 20 0 Alarm State:  0
Fri Apr 19 00:43:26 PDT 2024 ON: 21.46 +20.0 21.51 -21.4 18.9 22.5 28.0 20 0 Alarm State:  0
Fri Apr 19 00:42:24 PDT 2024 ON: 21.47 +20.0 21.51 -21.4 18.9 22.5 28.0 20 0 Alarm State:  0
Fri Apr 19 00:41:23 PDT 2024 ON: 21.46 +20.0 21.51 -21.5 18.8 22.6 28.0 20 0 Alarm State:  0
Fri Apr 19 00:40:21 PDT 2024 ON: 21.47 +20.0 21.52 -21.5 18.7 22.7 28.0 19 0 Alarm State:  0
Fri Apr 19 00:39:20 PDT 2024 ON: 21.46 +20.0 21.52 -21.5 18.8 22.6 28.0 20 0 Alarm State:  0
Fri Apr 19 00:38:18 PDT 2024 ON: 21.47 +20.0 21.51 -21.4 18.9 22.5 28.0 20 0 Alarm State:  0
Fri Apr 19 00:37:17 PDT 2024 ON: 21.46 +20.0 21.51 -21.4 18.9 22.5 28.0 20 0 Alarm State:  0
Fri Apr 19 00:36:15 PDT 2024 ON: 21.47 +20.0 21.53 -21.5 18.8 22.6 28.0 20 0 Alarm State:  0
Fri Apr 19 00:35:14 PDT 2024 ON: 21.48 +20.0 21.52 -21.4 18.9 22.5 28.0 20 0 Alarm State:  0
Fri Apr 19 00:34:12 PDT 2024 ON: 21.46 +20.0 21.51 -21.5 18.8 22.6 28.0 20 0 Alarm State:  0
Fri Apr 19 00:33:11 PDT 2024 ON: 21.47 +20.0 21.51 -21.4 18.9 22.5 28.0 20 0 Alarm State:  0
Fri Apr 19 00:32:09 PDT 2024 ON: 21.47 +20.0 21.52 -21.4 18.9 22.5 28.0 20 0 Alarm State:  0
Fri Apr 19 00:31:08 PDT 2024 ON: 21.48 +20.0 21.52 -21.4 18.9 22.5 28.0 20 0 Alarm State:  0
Fri Apr 19 00:30:06 PDT 2024 ON: 21.47 +20.0 21.51 -21.4 18.9 22.5 28.0 20 0 Alarm State:  0
Fri Apr 19 00:29:05 PDT 2024 ON: 21.48 +20.0 21.52 -21.4 18.9 22.5 28.0 20 0 Alarm State:  0
Fri Apr 19 00:28:03 PDT 2024 ON: 21.47 +20.0 21.52 -21.3 19.0 22.5 28.0 20 0 Alarm State:  0
Fri Apr 19 00:27:02 PDT 2024 ON: 21.47 +20.0 21.51 -21.4 18.9 22.5 28.0 20 0 Alarm State:  0
Fri Apr 19 00:26:00 PDT 2024 ON: 21.48 +20.0 21.53 -21.5 18.8 22.6 28.0 20 0 Alarm State:  0
Fri Apr 19 00:24:59 PDT 2024 ON: 21.48 +20.0 21.54 -21.5 18.8 22.6 28.0 20 0 Alarm State:  0
Fri Apr 19 00:23:57 PDT 2024 ON: 21.47 +20.0 21.52 -21.4 18.9 22.5 28.0 20 0 Alarm State:  0
Fri Apr 19 00:22:56 PDT 2024 ON: 21.47 +20.0 21.52 -21.5 18.8 22.6 28.0 20 0 Alarm State:  0
Fri Apr 19 00:21:54 PDT 2024 ON: 21.48 +20.0 21.52 -21.5 18.8 22.6 28.0 19 0 Alarm State:  0
Fri Apr 19 00:20:53 PDT 2024 ON: 21.48 +20.0 21.52 -21.5 18.8 22.6 28.0 20 0 Alarm State:  0
Fri Apr 19 00:19:51 PDT 2024 ON: 21.47 +20.0 21.52 -21.4 18.9 22.5 28.0 20 0 Alarm State:  0
Fri Apr 19 00:18:50 PDT 2024 ON: 21.47 +20.0 21.52 -21.4 18.9 22.5 28.0 19 0 Alarm State:  0
Fri Apr 19 00:17:48 PDT 2024 ON: 21.47 +20.0 21.52 -21.5 18.8 22.6 28.0 20 0 Alarm State:  0
Fri Apr 19 00:16:47 PDT 2024 ON: 21.47 +20.0 21.52 -21.4 18.9 22.5 28.0 20 0 Alarm State:  0
Fri Apr 19 00:15:45 PDT 2024 ON: 21.48 +20.0 21.52 -21.3 19.0 22.5 28.0 19 0 Alarm State:  0
Fri Apr 19 00:14:44 PDT 2024 ON: 21.48 +20.0 21.53 -21.5 18.8 22.6 28.0 20 0 Alarm State:  0
Fri Apr 19 00:13:42 PDT 2024 ON: 21.47 +20.0 21.51 -21.4 18.9 22.5 28.0 20 0 Alarm State:  0
Fri Apr 19 00:12:41 PDT 2024 ON: 21.47 +20.0 21.51 -21.4 18.9 22.5 28.0 20 0 Alarm State:  0
Fri Apr 19 00:11:39 PDT 2024 ON: 21.47 +20.0 21.52 -21.4 18.9 22.5 28.0 20 0 Alarm State:  0
Fri Apr 19 00:10:38 PDT 2024 ON: 21.47 +20.0 21.52 -21.5 18.8 22.6 28.0 20 0 Alarm State:  0
Fri Apr 19 00:09:36 PDT 2024 ON: 21.47 +20.0 21.51 -21.3 19.0 22.5 28.0 20 0 Alarm State:  0
Fri Apr 19 00:08:35 PDT 2024 ON: 21.48 +20.0 21.52 -21.5 18.8 22.6 28.0 20 0 Alarm State:  0
Fri Apr 19 00:07:33 PDT 2024 ON: 21.48 +20.0 21.53 -21.5 18.8 22.6 28.0 20 0 Alarm State:  0
Fri Apr 19 00:06:32 PDT 2024 ON: 21.47 +20.0 21.52 -21.4 18.9 22.5 28.0 20 0 Alarm State:  0
Fri Apr 19 00:05:30 PDT 2024 ON: 21.48 +20.0 21.52 -21.5 18.8 22.6 28.0 20 0 Alarm State:  0
Fri Apr 19 00:04:29 PDT 2024 ON: 21.47 +20.0 21.52 -21.4 18.9 22.5 28.0 20 0 Alarm State:  0
Fri Apr 19 00:03:27 PDT 2024 ON: 21.47 +20.0 21.52 -21.3 19.0 22.5 28.0 19 0 Alarm State:  0
Fri Apr 19 00:02:26 PDT 2024 ON: 21.47 +20.0 21.52 -21.5 18.8 22.6 28.0 20 0 Alarm State:  0
Fri Apr 19 00:01:24 PDT 2024 ON: 21.47 +20.0 21.52 -21.4 18.9 22.5 28.0 20 0 Alarm State:  0
Fri Apr 19 00:00:23 PDT 2024 ON: 21.48 +20.0 21.53 -21.4 18.9 22.5 28.0 20 0 Alarm State:  0
Thu Apr 18 23:59:21 PDT 2024 ON: 21.47 +20.0 21.52 -21.4 18.9 22.5 28.0 20 0 Alarm State:  0
Thu Apr 18 23:58:20 PDT 2024 ON: 21.48 +20.0 21.51 -21.4 18.9 22.5 28.0 20 0 Alarm State:  0
Thu Apr 18 23:57:18 PDT 2024 ON: 21.47 +20.0 21.52 -21.4 18.9 22.5 28.0 20 0 Alarm State:  0
Thu Apr 18 23:56:17 PDT 2024 ON: 21.48 +20.0 21.52 -21.4 18.9 22.5 28.0 20 0 Alarm State:  0
Thu Apr 18 23:55:15 PDT 2024 ON: 21.49 +20.0 21.54 -21.4 18.9 22.5 28.0 20 0 Alarm State:  0
Thu Apr 18 23:54:13 PDT 2024 ON: 21.49 +20.0 21.54 -21.4 18.9 22.5 28.0 20 0 Alarm State:  0
Thu Apr 18 23:53:12 PDT 2024 ON: 21.48 +20.0 21.52 -21.4 18.9 22.5 28.0 19 0 Alarm State:  0
Thu Apr 18 23:52:10 PDT 2024 ON: 21.48 +20.0 21.53 -21.3 19.0 22.5 28.0 20 0 Alarm State:  0
Thu Apr 18 23:51:09 PDT 2024 ON: 21.50 +20.0 21.55 -21.4 18.9 22.5 28.0 20 0 Alarm State:  0
Thu Apr 18 23:50:07 PDT 2024 ON: 21.49 +20.0 21.54 -21.5 18.8 22.6 28.0 20 0 Alarm State:  0
Thu Apr 18 23:49:06 PDT 2024 ON: 21.50 +20.0 21.55 -21.4 18.9 22.5 28.0 20 0 Alarm State:  0
Thu Apr 18 23:48:04 PDT 2024 ON: 21.50 +20.0 21.55 -21.5 18.8 22.6 28.0 20 0 Alarm State:  0
Thu Apr 18 23:47:03 PDT 2024 ON: 21.50 +20.0 21.55 -21.5 18.7 22.7 28.0 20 0 Alarm State:  0
Thu Apr 18 23:46:01 PDT 2024 ON: 21.50 +20.0 21.55 -21.4 18.9 22.5 28.0 20 0 Alarm State:  0
Thu Apr 18 23:45:00 PDT 2024 ON: 21.50 +20.0 21.55 -21.3 19.0 22.5 28.0 20 0 Alarm State:  0
Thu Apr 18 23:43:58 PDT 2024 ON: 21.49 +20.0 21.53 -21.4 18.9 22.5 28.0 20 0 Alarm State:  0
Thu Apr 18 23:42:57 PDT 2024 ON: 21.49 +20.0 21.54 -21.4 18.9 22.5 28.0 20 0 Alarm State:  0
Thu Apr 18 23:41:55 PDT 2024 ON: 21.50 +20.0 21.55 -21.4 18.9 22.5 28.0 20 0 Alarm State:  0
Thu Apr 18 23:40:54 PDT 2024 ON: 21.50 +20.0 21.54 -21.4 18.9 22.5 28.0 20 0 Alarm State:  0
Thu Apr 18 23:39:52 PDT 2024 ON: 21.49 +20.0 21.54 -21.5 18.8 22.6 28.0 20 0 Alarm State:  0
Thu Apr 18 23:38:51 PDT 2024 ON: 21.50 +20.0 21.55 -21.5 18.8 22.6 28.0 20 0 Alarm State:  0
Thu Apr 18 23:37:49 PDT 2024 ON: 21.49 +20.0 21.53 -21.4 18.9 22.5 28.0 20 0 Alarm State:  0
Thu Apr 18 23:36:48 PDT 2024 ON: 21.49 +20.0 21.54 -21.5 18.8 22.6 28.0 20 0 Alarm State:  0
Thu Apr 18 23:35:46 PDT 2024 ON: 21.49 +20.0 21.54 -21.5 18.8 22.6 28.0 20 0 Alarm State:  0
Thu Apr 18 23:34:45 PDT 2024 ON: 21.49 +20.0 21.54 -21.5 18.8 22.6 28.0 20 0 Alarm State:  0
Thu Apr 18 23:33:43 PDT 2024 ON: 21.49 +20.0 21.54 -21.4 18.9 22.5 28.0 20 0 Alarm State:  0
Thu Apr 18 23:32:42 PDT 2024 ON: 21.50 +20.0 21.55 -21.4 18.9 22.5 28.0 20 0 Alarm State:  0
Thu Apr 18 23:31:40 PDT 2024 ON: 21.49 +20.0 21.54 -21.5 18.8 22.6 28.0 20 0 Alarm State:  0
Thu Apr 18 23:30:39 PDT 2024 ON: 21.49 +20.0 21.54 -21.4 18.9 22.5 28.0 19 0 Alarm State:  0
Thu Apr 18 23:29:37 PDT 2024 ON: 21.50 +20.0 21.55 -21.5 18.8 22.6 28.0 20 0 Alarm State:  0
Thu Apr 18 23:28:36 PDT 2024 ON: 21.49 +20.0 21.54 -21.4 18.9 22.5 28.0 20 0 Alarm State:  0
Thu Apr 18 23:27:34 PDT 2024 ON: 21.49 +20.0 21.54 -21.4 18.9 22.5 28.0 20 0 Alarm State:  0
Thu Apr 18 23:26:33 PDT 2024 ON: 21.51 +20.0 21.55 -21.5 18.8 22.6 28.0 20 0 Alarm State:  0
Thu Apr 18 23:25:31 PDT 2024 ON: 21.51 +20.0 21.55 -21.4 18.9 22.5 28.0 20 0 Alarm State:  0
Thu Apr 18 23:24:30 PDT 2024 ON: 21.50 +20.0 21.55 -21.4 18.9 22.5 28.0 20 0 Alarm State:  0
Thu Apr 18 23:23:28 PDT 2024 ON: 21.50 +20.0 21.55 -21.5 18.8 22.6 28.0 20 0 Alarm State:  0
Thu Apr 18 23:22:27 PDT 2024 ON: 21.50 +20.0 21.53 -21.4 18.9 22.5 28.0 20 0 Alarm State:  0
Thu Apr 18 23:21:25 PDT 2024 ON: 21.51 +20.0 21.55 -21.4 18.9 22.5 28.0 20 0 Alarm State:  0
Thu Apr 18 23:20:24 PDT 2024 ON: 21.50 +20.0 21.55 -21.5 18.8 22.6 28.0 20 0 Alarm State:  0
Thu Apr 18 23:19:22 PDT 2024 ON: 21.51 +20.0 21.56 -21.4 18.9 22.5 28.0 19 0 Alarm State:  0
Thu Apr 18 23:18:21 PDT 2024 ON: 21.50 +20.0 21.55 -21.4 18.9 22.5 28.0 19 0 Alarm State:  0
Thu Apr 18 23:17:19 PDT 2024 ON: 21.50 +20.0 21.55 -21.4 18.9 22.5 28.0 20 0 Alarm State:  0
Thu Apr 18 23:16:18 PDT 2024 ON: 21.51 +20.0 21.56 -21.4 18.9 22.5 28.0 20 0 Alarm State:  0
Thu Apr 18 23:15:16 PDT 2024 ON: 21.51 +20.0 21.55 -21.4 18.9 22.5 28.0 20 0 Alarm State:  0
Thu Apr 18 23:14:15 PDT 2024 ON: 21.50 +20.0 21.54 -21.4 18.9 22.5 28.0 20 0 Alarm State:  0
Thu Apr 18 23:13:13 PDT 2024 ON: 21.51 +20.0 21.55 -21.4 18.9 22.5 28.0 20 0 Alarm State:  0
Thu Apr 18 23:12:12 PDT 2024 ON: 21.50 +20.0 21.54 -21.4 18.9 22.5 28.0 20 0 Alarm State:  0
Thu Apr 18 23:11:10 PDT 2024 ON: 21.51 +20.0 21.56 -21.5 18.8 22.6 28.0 20 0 Alarm State:  0
Thu Apr 18 23:10:08 PDT 2024 ON: 21.50 +20.0 21.55 -21.4 18.9 22.5 28.0 20 0 Alarm State:  0
Thu Apr 18 23:09:07 PDT 2024 ON: 21.50 +20.0 21.55 -21.3 19.0 22.5 28.0 19 0 Alarm State:  0
Thu Apr 18 23:08:05 PDT 2024 ON: 21.50 +20.0 21.56 -21.4 18.9 22.5 28.0 20 0 Alarm State:  0
Thu Apr 18 23:07:04 PDT 2024 ON: 21.50 +20.0 21.55 -21.4 18.9 22.5 28.0 20 0 Alarm State:  0
Thu Apr 18 23:06:02 PDT 2024 ON: 21.51 +20.0 21.56 -21.5 18.8 22.6 28.0 20 0 Alarm State:  0
Thu Apr 18 23:05:01 PDT 2024 ON: 21.51 +20.0 21.57 -21.4 18.9 22.5 28.0 20 0 Alarm State:  0
Thu Apr 18 23:03:59 PDT 2024 ON: 21.51 +20.0 21.56 -21.4 18.9 22.5 28.0 20 0 Alarm State:  0
Thu Apr 18 23:02:58 PDT 2024 ON: 21.51 +20.0 21.56 -21.4 18.9 22.5 28.0 20 0 Alarm State:  0
Thu Apr 18 23:01:56 PDT 2024 ON: 21.51 +20.0 21.55 -21.5 18.8 22.6 28.0 20 0 Alarm State:  0
Thu Apr 18 23:00:55 PDT 2024 ON: 21.52 +20.0 21.56 -21.5 18.8 22.6 28.0 20 0 Alarm State:  0
Thu Apr 18 22:59:53 PDT 2024 ON: 21.52 +20.0 21.56 -21.3 19.0 22.5 28.0 20 0 Alarm State:  0
Thu Apr 18 22:58:52 PDT 2024 ON: 21.50 +20.0 21.55 -21.4 18.9 22.5 28.0 19 0 Alarm State:  0
Thu Apr 18 22:57:50 PDT 2024 ON: 21.51 +20.0 21.56 -21.5 18.8 22.6 28.0 20 0 Alarm State:  0
Thu Apr 18 22:56:49 PDT 2024 ON: 21.51 +20.0 21.56 -21.5 18.8 22.6 28.0 20 0 Alarm State:  0
Thu Apr 18 22:55:47 PDT 2024 ON: 21.51 +20.0 21.56 -21.4 18.9 22.5 28.0 20 0 Alarm State:  0
Thu Apr 18 22:54:46 PDT 2024 ON: 21.51 +20.0 21.57 -21.4 18.9 22.5 28.0 20 0 Alarm State:  0
Thu Apr 18 22:53:44 PDT 2024 ON: 21.51 +20.0 21.55 -21.4 18.9 22.5 28.0 20 0 Alarm State:  0
Thu Apr 18 22:52:43 PDT 2024 ON: 21.51 +20.0 21.56 -21.5 18.8 22.6 28.0 20 0 Alarm State:  0
Thu Apr 18 22:51:41 PDT 2024 ON: 21.50 +20.0 21.55 -21.4 18.9 22.5 28.0 20 0 Alarm State:  0
Thu Apr 18 22:50:40 PDT 2024 ON: 21.50 +20.0 21.54 -21.4 18.9 22.5 28.0 20 0 Alarm State:  0
Thu Apr 18 22:49:38 PDT 2024 ON: 21.51 +20.0 21.55 -21.5 18.8 22.6 28.0 20 0 Alarm State:  0
Thu Apr 18 22:48:37 PDT 2024 ON: 21.50 +20.0 21.56 -21.5 18.8 22.6 28.0 20 0 Alarm State:  0
Thu Apr 18 22:47:35 PDT 2024 ON: 21.51 +20.0 21.56 -21.5 18.8 22.6 28.0 20 0 Alarm State:  0
Thu Apr 18 22:46:34 PDT 2024 ON: 21.50 +20.0 21.54 -21.5 18.8 22.6 28.0 20 0 Alarm State:  0
Thu Apr 18 22:45:32 PDT 2024 ON: 21.51 +20.0 21.55 -21.4 18.9 22.5 28.0 20 0 Alarm State:  0
Thu Apr 18 22:44:31 PDT 2024 ON: 21.49 +20.0 21.53 -21.4 18.9 22.5 28.0 20 0 Alarm State:  0
Thu Apr 18 22:43:29 PDT 2024 ON: 21.49 +20.0 21.54 -21.5 18.8 22.6 28.0 20 0 Alarm State:  0
Thu Apr 18 22:42:28 PDT 2024 ON: 21.49 +20.0 21.54 -21.5 18.7 22.7 28.0 20 0 Alarm State:  0
Thu Apr 18 22:41:26 PDT 2024 ON: 21.50 +20.0 21.55 -21.5 18.8 22.6 28.0 20 0 Alarm State:  0
Thu Apr 18 22:40:25 PDT 2024 ON: 21.49 +20.0 21.53 -21.4 18.9 22.5 28.0 20 0 Alarm State:  0
Thu Apr 18 22:39:23 PDT 2024 ON: 21.50 +20.0 21.54 -21.4 18.9 22.5 28.0 20 0 Alarm State:  0
Thu Apr 18 22:38:22 PDT 2024 ON: 21.49 +20.0 21.53 -21.5 18.8 22.6 28.0 20 0 Alarm State:  0
Thu Apr 18 22:37:20 PDT 2024 ON: 21.49 +20.0 21.54 -21.5 18.8 22.6 28.0 20 0 Alarm State:  0
Thu Apr 18 22:36:19 PDT 2024 ON: 21.49 +20.0 21.54 -21.4 18.9 22.5 28.0 20 0 Alarm State:  0
Thu Apr 18 22:35:17 PDT 2024 ON: 21.49 +20.0 21.54 -21.4 18.9 22.5 28.0 20 0 Alarm State:  0
Thu Apr 18 22:34:15 PDT 2024 ON: 21.50 +20.0 21.54 -21.4 18.9 22.5 28.0 20 0 Alarm State:  0
Thu Apr 18 22:33:14 PDT 2024 ON: 21.49 +20.0 21.54 -21.5 18.8 22.6 28.0 20 0 Alarm State:  0
Thu Apr 18 22:32:12 PDT 2024 ON: 21.49 +20.0 21.54 -21.4 18.9 22.5 28.0 20 0 Alarm State:  0
Thu Apr 18 22:31:11 PDT 2024 ON: 21.50 +20.0 21.55 -21.4 18.9 22.5 28.0 20 0 Alarm State:  0
Thu Apr 18 22:30:09 PDT 2024 ON: 21.49 +20.0 21.54 -21.4 18.9 22.5 28.0 20 0 Alarm State:  0
Thu Apr 18 22:29:08 PDT 2024 ON: 21.50 +20.0 21.55 -21.5 18.8 22.6 28.0 20 0 Alarm State:  0
Thu Apr 18 22:28:06 PDT 2024 ON: 21.50 +20.0 21.55 -21.4 18.9 22.5 28.0 20 0 Alarm State:  0
Thu Apr 18 22:27:05 PDT 2024 ON: 21.50 +20.0 21.55 -21.5 18.8 22.6 28.0 20 0 Alarm State:  0
Thu Apr 18 22:26:03 PDT 2024 ON: 21.50 +20.0 21.55 -21.4 18.9 22.5 28.0 20 0 Alarm State:  0
Thu Apr 18 22:25:02 PDT 2024 ON: 21.50 +20.0 21.55 -21.5 18.8 22.6 28.0 20 0 Alarm State:  0
Thu Apr 18 22:24:00 PDT 2024 ON: 21.51 +20.0 21.55 -21.5 18.8 22.6 28.0 20 0 Alarm State:  0
Thu Apr 18 22:22:59 PDT 2024 ON: 21.51 +20.0 21.56 -21.5 18.8 22.6 28.0 20 0 Alarm State:  0
Thu Apr 18 22:21:57 PDT 2024 ON: 21.50 +20.0 21.54 -21.4 18.9 22.5 28.0 20 0 Alarm State:  0
Thu Apr 18 22:20:56 PDT 2024 ON: 21.50 +20.0 21.54 -21.4 18.9 22.5 28.0 20 0 Alarm State:  0
Thu Apr 18 22:19:54 PDT 2024 ON: 21.51 +20.0 21.55 -21.5 18.7 22.7 28.0 20 0 Alarm State:  0
Thu Apr 18 22:18:53 PDT 2024 ON: 21.50 +20.0 21.54 -21.5 18.8 22.6 28.0 20 0 Alarm State:  0
Thu Apr 18 22:17:51 PDT 2024 ON: 21.51 +20.0 21.55 -21.5 18.8 22.6 28.0 20 0 Alarm State:  0
Thu Apr 18 22:16:50 PDT 2024 ON: 21.50 +20.0 21.54 -21.3 19.0 22.5 28.0 20 0 Alarm State:  0
Thu Apr 18 22:15:48 PDT 2024 ON: 21.50 +20.0 21.55 -21.4 18.9 22.5 28.0 20 0 Alarm State:  0
Thu Apr 18 22:14:47 PDT 2024 ON: 21.51 +20.0 21.56 -21.5 18.8 22.6 28.0 20 0 Alarm State:  0
Thu Apr 18 22:13:45 PDT 2024 ON: 21.50 +20.0 21.54 -21.5 18.8 22.6 28.0 20 0 Alarm State:  0
Thu Apr 18 22:12:44 PDT 2024 ON: 21.51 +20.0 21.56 -21.4 18.9 22.5 28.0 20 0 Alarm State:  0
Thu Apr 18 22:11:42 PDT 2024 ON: 21.51 +20.0 21.57 -21.5 18.8 22.6 28.0 20 0 Alarm State:  0
Thu Apr 18 22:10:41 PDT 2024 ON: 21.51 +20.0 21.56 -21.5 18.8 22.6 28.0 19 0 Alarm State:  0
Thu Apr 18 22:09:39 PDT 2024 ON: 21.51 +20.0 21.56 -21.5 18.8 22.7 28.0 20 0 Alarm State:  0
Thu Apr 18 22:08:38 PDT 2024 ON: 21.51 +20.0 21.55 -21.4 18.9 22.5 28.0 20 0 Alarm State:  0
Thu Apr 18 22:07:36 PDT 2024 ON: 21.50 +20.0 21.55 -21.4 18.9 22.5 28.0 20 0 Alarm State:  0
Thu Apr 18 22:06:35 PDT 2024 ON: 21.51 +20.0 21.55 -21.4 18.9 22.5 28.0 19 0 Alarm State:  0
Thu Apr 18 22:05:33 PDT 2024 ON: 21.51 +20.0 21.55 -21.5 18.8 22.6 28.0 20 0 Alarm State:  0
Thu Apr 18 22:04:32 PDT 2024 ON: 21.51 +20.0 21.56 -21.5 18.7 22.7 28.0 20 0 Alarm State:  0
Thu Apr 18 22:03:30 PDT 2024 ON: 21.50 +20.0 21.55 -21.5 18.7 22.7 27.9 20 0 Alarm State:  0
Thu Apr 18 22:02:29 PDT 2024 ON: 21.51 +20.0 21.56 -21.4 18.9 22.5 28.0 20 0 Alarm State:  0
Thu Apr 18 22:01:27 PDT 2024 ON: 21.50 +20.0 21.56 -21.4 18.9 22.5 28.0 19 0 Alarm State:  0
Thu Apr 18 22:00:26 PDT 2024 ON: 21.51 +20.0 21.57 -21.4 18.9 22.5 28.0 20 0 Alarm State:  0
Thu Apr 18 21:59:24 PDT 2024 ON: 21.51 +20.0 21.57 -21.4 18.9 22.5 28.0 20 0 Alarm State:  0
Thu Apr 18 21:58:23 PDT 2024 ON: 21.51 +20.0 21.56 -21.4 18.9 22.5 28.0 20 0 Alarm State:  0
Thu Apr 18 21:57:21 PDT 2024 ON: 21.51 +20.0 21.55 -21.4 18.9 22.5 28.0 20 0 Alarm State:  0
Thu Apr 18 21:56:20 PDT 2024 ON: 21.51 +20.0 21.56 -21.4 18.9 22.5 28.0 20 0 Alarm State:  0
Thu Apr 18 21:55:18 PDT 2024 ON: 21.50 +20.0 21.55 -21.5 18.7 22.7 28.0 20 0 Alarm State:  0
Thu Apr 18 21:54:17 PDT 2024 ON: 21.50 +20.0 21.55 -21.5 18.8 22.6 28.0 20 0 Alarm State:  0
Thu Apr 18 21:53:15 PDT 2024 ON: 21.51 +20.0 21.56 -21.4 18.9 22.5 28.0 19 0 Alarm State:  0
Thu Apr 18 21:52:14 PDT 2024 ON: 21.50 +20.0 21.56 -21.5 18.8 22.6 28.0 20 0 Alarm State:  0
Thu Apr 18 21:51:12 PDT 2024 ON: 21.51 +20.0 21.56 -21.4 18.9 22.5 28.0 20 0 Alarm State:  0
Thu Apr 18 21:50:11 PDT 2024 ON: 21.51 +20.0 21.55 -21.3 19.0 22.5 28.0 20 0 Alarm State:  0
Thu Apr 18 21:49:09 PDT 2024 ON: 21.51 +20.0 21.55 -21.3 19.0 22.5 28.0 20 0 Alarm State:  0
Thu Apr 18 21:48:08 PDT 2024 ON: 21.51 +20.0 21.56 -21.4 18.9 22.5 28.0 19 0 Alarm State:  0
Thu Apr 18 21:47:06 PDT 2024 ON: 21.51 +20.0 21.56 -21.5 18.8 22.6 28.0 20 0 Alarm State:  0
Thu Apr 18 21:46:05 PDT 2024 ON: 21.51 +20.0 21.56 -21.4 18.9 22.5 28.0 20 0 Alarm State:  0
Thu Apr 18 21:45:03 PDT 2024 ON: 21.51 +20.0 21.57 -21.4 18.9 22.5 28.0 19 0 Alarm State:  0
Thu Apr 18 21:44:02 PDT 2024 ON: 21.51 +20.0 21.56 -21.5 18.8 22.6 28.0 20 0 Alarm State:  0
Thu Apr 18 21:43:00 PDT 2024 ON: 21.52 +20.0 21.57 -21.5 18.8 22.6 27.9 20 0 Alarm State:  0
Thu Apr 18 21:41:59 PDT 2024 ON: 21.51 +20.0 21.56 -21.4 18.9 22.5 28.0 20 0 Alarm State:  0
Thu Apr 18 21:40:57 PDT 2024 ON: 21.51 +20.0 21.56 -21.5 18.8 22.6 28.0 20 0 Alarm State:  0
Thu Apr 18 21:39:56 PDT 2024 ON: 21.51 +20.0 21.55 -21.4 18.9 22.5 28.0 20 0 Alarm State:  0
Thu Apr 18 21:38:54 PDT 2024 ON: 21.51 +20.0 21.56 -21.4 18.9 22.5 28.0 20 0 Alarm State:  0
Thu Apr 18 21:37:53 PDT 2024 ON: 21.51 +20.0 21.55 -21.4 18.9 22.5 28.0 20 0 Alarm State:  0
Thu Apr 18 21:36:51 PDT 2024 ON: 21.51 +20.0 21.55 -21.5 18.8 22.6 28.0 20 0 Alarm State:  0
Thu Apr 18 21:35:50 PDT 2024 ON: 21.51 +20.0 21.56 -21.4 18.9 22.5 28.0 20 0 Alarm State:  0
Thu Apr 18 21:34:48 PDT 2024 ON: 21.51 +20.0 21.56 -21.5 18.8 22.6 28.0 20 0 Alarm State:  0
Thu Apr 18 21:33:46 PDT 2024 ON: 21.52 +20.0 21.57 -21.5 18.8 22.6 28.0 20 0 Alarm State:  0
Thu Apr 18 21:32:45 PDT 2024 ON: 21.51 +20.0 21.56 -21.4 18.9 22.5 28.0 20 0 Alarm State:  0
Thu Apr 18 21:31:43 PDT 2024 ON: 21.51 +20.0 21.55 -21.5 18.8 22.6 28.0 20 0 Alarm State:  0
Thu Apr 18 21:30:42 PDT 2024 ON: 21.50 +20.0 21.55 -21.4 18.9 22.6 28.0 20 0 Alarm State:  0
Thu Apr 18 21:29:40 PDT 2024 ON: 21.51 +20.0 21.56 -21.5 18.8 22.6 28.0 20 0 Alarm State:  0
Thu Apr 18 21:28:39 PDT 2024 ON: 21.50 +20.0 21.54 -21.4 18.9 22.5 28.0 20 0 Alarm State:  0
Thu Apr 18 21:27:37 PDT 2024 ON: 21.51 +20.0 21.56 -21.4 18.9 22.5 28.0 20 0 Alarm State:  0
Thu Apr 18 21:26:36 PDT 2024 ON: 21.50 +20.0 21.55 -21.4 18.9 22.5 28.0 20 0 Alarm State:  0
Thu Apr 18 21:25:34 PDT 2024 ON: 21.50 +20.0 21.55 -21.4 18.9 22.5 28.0 20 0 Alarm State:  0
Thu Apr 18 21:24:33 PDT 2024 ON: 21.51 +20.0 21.55 -21.5 18.8 22.7 28.0 20 0 Alarm State:  0
Thu Apr 18 21:23:31 PDT 2024 ON: 21.50 +20.0 21.56 -21.5 18.8 22.6 28.0 20 0 Alarm State:  0
Thu Apr 18 21:22:30 PDT 2024 ON: 21.51 +20.0 21.55 -21.5 18.7 22.7 28.0 20 0 Alarm State:  0
Thu Apr 18 21:21:28 PDT 2024 ON: 21.50 +20.0 21.55 -21.4 18.9 22.5 28.0 20 0 Alarm State:  0
Thu Apr 18 21:20:27 PDT 2024 ON: 21.51 +20.0 21.55 -21.4 18.9 22.5 28.0 20 0 Alarm State:  0
Thu Apr 18 21:19:25 PDT 2024 ON: 21.51 +20.0 21.55 -21.4 18.9 22.5 28.0 20 0 Alarm State:  0
Thu Apr 18 21:18:24 PDT 2024 ON: 21.51 +20.0 21.56 -21.4 18.9 22.5 28.0 20 0 Alarm State:  0
Thu Apr 18 21:17:22 PDT 2024 ON: 21.51 +20.0 21.56 -21.4 18.9 22.5 28.0 20 0 Alarm State:  0
Thu Apr 18 21:16:21 PDT 2024 ON: 21.51 +20.0 21.55 -21.4 18.9 22.5 28.0 20 0 Alarm State:  0
Thu Apr 18 21:15:19 PDT 2024 ON: 21.52 +20.0 21.57 -21.4 18.9 22.5 28.0 20 0 Alarm State:  0
Thu Apr 18 21:14:18 PDT 2024 ON: 21.51 +20.0 21.56 -21.4 18.9 22.5 28.0 19 0 Alarm State:  0
Thu Apr 18 21:13:16 PDT 2024 ON: 21.51 +20.0 21.56 -21.4 18.9 22.5 28.0 20 0 Alarm State:  0
Thu Apr 18 21:12:15 PDT 2024 ON: 21.52 +20.0 21.56 -21.4 18.9 22.5 28.0 19 0 Alarm State:  0
Thu Apr 18 21:11:13 PDT 2024 ON: 21.51 +20.0 21.56 -21.5 18.8 22.6 28.0 20 0 Alarm State:  0
Thu Apr 18 21:10:12 PDT 2024 ON: 21.51 +20.0 21.56 -21.5 18.8 22.6 28.0 20 0 Alarm State:  0
Thu Apr 18 21:09:10 PDT 2024 ON: 21.51 +20.0 21.56 -21.5 18.7 22.7 28.0 20 0 Alarm State:  0
Thu Apr 18 21:08:09 PDT 2024 ON: 21.51 +20.0 21.55 -21.5 18.8 22.6 28.0 20 0 Alarm State:  0
Thu Apr 18 21:07:07 PDT 2024 ON: 21.52 +20.0 21.56 -21.5 18.8 22.7 28.0 20 0 Alarm State:  0
Thu Apr 18 21:06:06 PDT 2024 ON: 21.51 +20.0 21.56 -21.5 18.8 22.6 28.0 20 0 Alarm State:  0
Thu Apr 18 21:05:04 PDT 2024 ON: 21.51 +20.0 21.55 -21.5 18.8 22.6 28.0 20 0 Alarm State:  0
Thu Apr 18 21:04:03 PDT 2024 ON: 21.51 +20.0 21.56 -21.5 18.8 22.6 28.0 20 0 Alarm State:  0
Thu Apr 18 21:03:01 PDT 2024 ON: 21.51 +20.0 21.56 -21.5 18.8 22.6 28.0 20 0 Alarm State:  0
Thu Apr 18 21:02:00 PDT 2024 ON: 21.51 +20.0 21.56 -21.5 18.8 22.6 28.0 20 0 Alarm State:  0
Thu Apr 18 21:00:58 PDT 2024 ON: 21.51 +20.0 21.56 -21.5 18.8 22.6 28.0 20 0 Alarm State:  0
Thu Apr 18 20:59:57 PDT 2024 ON: 21.52 +20.0 21.56 -21.5 18.8 22.6 28.0 20 0 Alarm State:  0
Thu Apr 18 20:58:55 PDT 2024 ON: 21.52 +20.0 21.57 -21.4 18.9 22.5 28.0 20 0 Alarm State:  0
Thu Apr 18 20:57:54 PDT 2024 ON: 21.51 +20.0 21.56 -21.5 18.8 22.6 28.0 20 0 Alarm State:  0
Thu Apr 18 20:56:52 PDT 2024 ON: 21.51 +20.0 21.56 -21.4 18.9 22.5 28.0 20 0 Alarm State:  0
Thu Apr 18 20:55:51 PDT 2024 ON: 21.52 +20.0 21.57 -21.4 18.9 22.6 28.0 20 0 Alarm State:  0
Thu Apr 18 20:54:49 PDT 2024 ON: 21.52 +20.0 21.57 -21.4 18.9 22.5 28.0 20 0 Alarm State:  0
Thu Apr 18 20:53:48 PDT 2024 ON: 21.52 +20.0 21.56 -21.5 18.8 22.6 28.0 20 0 Alarm State:  0
Thu Apr 18 20:52:46 PDT 2024 ON: 21.52 +20.0 21.56 -21.4 18.9 22.5 28.0 20 0 Alarm State:  0
Thu Apr 18 20:51:45 PDT 2024 ON: 21.52 +20.0 21.57 -21.4 18.9 22.5 28.0 20 0 Alarm State:  0
Thu Apr 18 20:50:43 PDT 2024 ON: 21.52 +20.0 21.57 -21.4 18.9 22.5 28.0 20 0 Alarm State:  0
Thu Apr 18 20:49:42 PDT 2024 ON: 21.52 +20.0 21.57 -21.5 18.8 22.6 28.0 20 0 Alarm State:  0
Thu Apr 18 20:48:40 PDT 2024 ON: 21.52 +20.0 21.57 -21.4 18.9 22.5 28.0 20 0 Alarm State:  0
Thu Apr 18 20:47:39 PDT 2024 ON: 21.52 +20.0 21.56 -21.5 18.8 22.6 28.0 20 0 Alarm State:  0
Thu Apr 18 20:46:37 PDT 2024 ON: 21.53 +20.0 21.57 -21.5 18.8 22.7 28.0 20 0 Alarm State:  0
Thu Apr 18 20:45:36 PDT 2024 ON: 21.52 +20.0 21.57 -21.4 18.9 22.5 28.0 20 0 Alarm State:  0
Thu Apr 18 20:44:34 PDT 2024 ON: 21.52 +20.0 21.57 -21.4 18.9 22.5 28.0 20 0 Alarm State:  0
Thu Apr 18 20:43:33 PDT 2024 ON: 21.53 +20.0 21.58 -21.4 18.9 22.6 28.0 20 0 Alarm State:  0
Thu Apr 18 20:42:31 PDT 2024 ON: 21.53 +20.0 21.58 -21.5 18.8 22.6 28.0 20 0 Alarm State:  0
Thu Apr 18 20:41:30 PDT 2024 ON: 21.53 +20.0 21.58 -21.4 18.9 22.5 28.0 20 0 Alarm State:  0
Thu Apr 18 20:40:28 PDT 2024 ON: 21.53 +20.0 21.58 -21.4 18.9 22.5 28.0 20 0 Alarm State:  0
Thu Apr 18 20:39:26 PDT 2024 ON: 21.53 +20.0 21.58 -21.4 18.9 22.5 28.0 20 0 Alarm State:  0
Thu Apr 18 20:38:25 PDT 2024 ON: 21.54 +20.0 21.59 -21.4 18.9 22.5 28.0 20 0 Alarm State:  0
Thu Apr 18 20:37:23 PDT 2024 ON: 21.54 +20.0 21.58 -21.4 18.9 22.5 28.0 20 0 Alarm State:  0
Thu Apr 18 20:36:22 PDT 2024 ON: 21.53 +20.0 21.58 -21.5 18.8 22.6 28.0 20 0 Alarm State:  0
Thu Apr 18 20:35:20 PDT 2024 ON: 21.54 +20.0 21.59 -21.5 18.8 22.6 28.0 20 0 Alarm State:  0
Thu Apr 18 20:34:19 PDT 2024 ON: 21.54 +20.0 21.58 -21.3 19.0 22.5 28.0 19 0 Alarm State:  0
Thu Apr 18 20:33:17 PDT 2024 ON: 21.54 +20.0 21.58 -21.4 18.9 22.5 28.0 19 0 Alarm State:  0
Thu Apr 18 20:32:16 PDT 2024 ON: 21.54 +20.0 21.58 -21.5 18.8 22.6 28.0 20 0 Alarm State:  0
Thu Apr 18 20:31:14 PDT 2024 ON: 21.54 +20.0 21.59 -21.4 18.9 22.5 28.0 20 0 Alarm State:  0
Thu Apr 18 20:30:13 PDT 2024 ON: 21.54 +20.0 21.59 -21.4 18.9 22.5 28.0 20 0 Alarm State:  0
Thu Apr 18 20:29:11 PDT 2024 ON: 21.54 +20.0 21.59 -21.4 18.9 22.5 28.0 20 0 Alarm State:  0
Thu Apr 18 20:28:10 PDT 2024 ON: 21.54 +20.0 21.59 -21.4 18.9 22.5 28.0 20 0 Alarm State:  0
Thu Apr 18 20:27:08 PDT 2024 ON: 21.54 +20.0 21.59 -21.4 18.9 22.5 28.0 20 0 Alarm State:  0
Thu Apr 18 20:26:07 PDT 2024 ON: 21.54 +20.0 21.59 -21.5 18.8 22.6 28.0 20 0 Alarm State:  0
Thu Apr 18 20:25:05 PDT 2024 ON: 21.54 +20.0 21.59 -21.4 18.9 22.5 28.0 20 0 Alarm State:  0
Thu Apr 18 20:24:04 PDT 2024 ON: 21.54 +20.0 21.59 -21.4 18.9 22.5 28.0 20 0 Alarm State:  0
Thu Apr 18 20:23:02 PDT 2024 ON: 21.54 +20.0 21.59 -21.4 18.9 22.6 28.0 20 0 Alarm State:  0
Thu Apr 18 20:22:01 PDT 2024 ON: 21.55 +20.0 21.59 -21.3 19.0 22.5 28.0 20 0 Alarm State:  0
Thu Apr 18 20:20:59 PDT 2024 ON: 21.55 +20.0 21.60 -21.4 18.9 22.5 28.0 20 0 Alarm State:  0
Thu Apr 18 20:19:58 PDT 2024 ON: 21.55 +20.0 21.59 -21.4 18.9 22.5 28.0 20 0 Alarm State:  0
Thu Apr 18 20:18:56 PDT 2024 ON: 21.55 +20.0 21.60 -21.4 18.9 22.5 28.0 19 0 Alarm State:  0
Thu Apr 18 20:17:55 PDT 2024 ON: 21.55 +20.0 21.60 -21.4 18.9 22.6 28.0 20 0 Alarm State:  0
Thu Apr 18 20:16:53 PDT 2024 ON: 21.56 +20.0 21.60 -21.4 18.9 22.5 28.0 20 0 Alarm State:  0
Thu Apr 18 20:15:52 PDT 2024 ON: 21.55 +20.0 21.60 -21.4 18.9 22.6 28.0 20 0 Alarm State:  0
Thu Apr 18 20:14:50 PDT 2024 ON: 21.55 +20.0 21.60 -21.5 18.8 22.6 28.0 20 0 Alarm State:  0
Thu Apr 18 20:13:49 PDT 2024 ON: 21.56 +20.0 21.61 -21.4 18.9 22.6 28.0 20 0 Alarm State:  0
Thu Apr 18 20:12:47 PDT 2024 ON: 21.55 +20.0 21.60 -21.5 18.8 22.7 28.0 20 0 Alarm State:  0
Thu Apr 18 20:11:46 PDT 2024 ON: 21.56 +20.0 21.60 -21.4 18.9 22.5 28.0 20 0 Alarm State:  0
Thu Apr 18 20:10:44 PDT 2024 ON: 21.56 +20.0 21.61 -21.3 19.0 22.5 28.0 20 0 Alarm State:  0
Thu Apr 18 20:09:43 PDT 2024 ON: 21.56 +20.0 21.61 -21.3 19.0 22.5 28.0 19 0 Alarm State:  0
Thu Apr 18 20:08:41 PDT 2024 ON: 21.56 +20.0 21.61 -21.4 18.9 22.5 28.0 20 0 Alarm State:  0
Thu Apr 18 20:07:40 PDT 2024 ON: 21.56 +20.0 21.60 -21.4 18.9 22.5 28.0 20 0 Alarm State:  0
Thu Apr 18 20:06:38 PDT 2024 ON: 21.56 +20.0 21.60 -21.3 19.0 22.5 28.0 20 0 Alarm State:  0
Thu Apr 18 20:05:37 PDT 2024 ON: 21.56 +20.0 21.60 -21.4 18.9 22.6 28.0 20 0 Alarm State:  0
Thu Apr 18 20:04:35 PDT 2024 ON: 21.56 +20.0 21.61 -21.3 19.0 22.5 28.0 19 0 Alarm State:  0
Thu Apr 18 20:03:34 PDT 2024 ON: 21.56 +20.0 21.61 -21.4 18.9 22.6 28.0 20 0 Alarm State:  0
Thu Apr 18 20:02:32 PDT 2024 ON: 21.56 +20.0 21.61 -21.4 18.9 22.5 28.0 20 0 Alarm State:  0
Thu Apr 18 20:01:31 PDT 2024 ON: 21.57 +20.0 21.61 -21.3 19.0 22.5 28.0 20 0 Alarm State:  0
Thu Apr 18 20:00:29 PDT 2024 ON: 21.56 +20.0 21.61 -21.3 19.0 22.5 28.0 20 0 Alarm State:  0
Thu Apr 18 19:59:28 PDT 2024 ON: 21.56 +20.0 21.60 -21.4 18.9 22.6 28.0 20 0 Alarm State:  0
Thu Apr 18 19:58:26 PDT 2024 ON: 21.57 +20.0 21.61 -21.4 18.9 22.5 28.0 20 0 Alarm State:  0
Thu Apr 18 19:57:25 PDT 2024 ON: 21.56 +20.0 21.62 -21.3 19.0 22.5 28.0 20 0 Alarm State:  0
Thu Apr 18 19:56:23 PDT 2024 ON: 21.57 +20.0 21.62 -21.3 19.0 22.5 28.0 20 0 Alarm State:  0
Thu Apr 18 19:55:22 PDT 2024 ON: 21.57 +20.0 21.62 -21.3 19.0 22.5 28.0 19 0 Alarm State:  0
Thu Apr 18 19:54:20 PDT 2024 ON: 21.57 +20.0 21.62 -21.4 18.9 22.6 28.0 20 0 Alarm State:  0
Thu Apr 18 19:53:19 PDT 2024 ON: 21.57 +20.0 21.62 -21.4 18.9 22.5 28.0 19 0 Alarm State:  0
Thu Apr 18 19:52:17 PDT 2024 ON: 21.57 +20.0 21.62 -21.4 18.9 22.6 28.0 20 0 Alarm State:  0
Thu Apr 18 19:51:16 PDT 2024 ON: 21.57 +20.0 21.62 -21.5 18.8 22.7 28.0 20 0 Alarm State:  0
Thu Apr 18 19:50:14 PDT 2024 ON: 21.57 +20.0 21.62 -21.4 18.9 22.5 28.0 20 0 Alarm State:  0
Thu Apr 18 19:49:13 PDT 2024 ON: 21.57 +20.0 21.62 -21.3 19.0 22.5 28.0 20 0 Alarm State:  0
Thu Apr 18 19:48:11 PDT 2024 ON: 21.57 +20.0 21.61 -21.4 18.9 22.6 28.0 20 0 Alarm State:  0
Thu Apr 18 19:47:10 PDT 2024 ON: 21.57 +20.0 21.62 -21.4 18.9 22.5 28.0 20 0 Alarm State:  0
Thu Apr 18 19:46:08 PDT 2024 ON: 21.58 +20.0 21.62 -21.4 18.9 22.6 28.0 20 0 Alarm State:  0
Thu Apr 18 19:45:07 PDT 2024 ON: 21.57 +20.0 21.63 -21.4 18.9 22.5 28.0 20 0 Alarm State:  0
Thu Apr 18 19:44:05 PDT 2024 ON: 21.57 +20.0 21.62 -21.4 18.9 22.6 28.0 20 0 Alarm State:  0
Thu Apr 18 19:43:04 PDT 2024 ON: 21.58 +20.0 21.63 -21.4 18.9 22.6 28.0 20 0 Alarm State:  0
Thu Apr 18 19:42:02 PDT 2024 ON: 21.58 +20.0 21.62 -21.4 18.9 22.6 28.0 20 0 Alarm State:  0
Thu Apr 18 19:41:01 PDT 2024 ON: 21.58 +20.0 21.62 -21.3 19.0 22.5 28.0 20 0 Alarm State:  0
Thu Apr 18 19:39:59 PDT 2024 ON: 21.57 +20.0 21.62 -21.4 18.9 22.5 28.0 20 0 Alarm State:  0
Thu Apr 18 19:38:58 PDT 2024 ON: 21.58 +20.0 21.62 -21.4 18.9 22.6 28.0 20 0 Alarm State:  0
Thu Apr 18 19:37:56 PDT 2024 ON: 21.58 +20.0 21.63 -21.4 18.9 22.6 28.0 20 0 Alarm State:  0
Thu Apr 18 19:36:55 PDT 2024 ON: 21.58 +20.0 21.63 -21.3 19.0 22.5 28.0 19 0 Alarm State:  0
Thu Apr 18 19:35:43 PDT 2024 ON: 21.58 +20.0 21.62 -21.4 18.9 22.6 28.0 20 0 Alarm State:  0
Thu Apr 18 19:34:42 PDT 2024 ON: 21.58 +20.0 21.63 -21.5 18.8 22.7 28.0 20 0 Alarm State:  0
Thu Apr 18 19:33:40 PDT 2024 ON: 21.58 +20.0 21.63 -21.4 18.9 22.6 28.0 20 0 Alarm State:  0
Thu Apr 18 19:32:39 PDT 2024 ON: 21.58 +20.0 21.63 -21.5 18.8 22.7 28.0 20 0 Alarm State:  0
Thu Apr 18 19:31:37 PDT 2024 ON: 21.59 +20.0 21.63 -21.4 18.9 22.6 28.0 20 0 Alarm State:  0
Thu Apr 18 19:30:36 PDT 2024 ON: 21.58 +20.0 21.63 -21.4 18.9 22.6 28.0 20 0 Alarm State:  0
Thu Apr 18 19:29:34 PDT 2024 ON: 21.58 +20.0 21.62 -21.4 18.9 22.5 28.0 20 0 Alarm State:  0
Thu Apr 18 19:28:33 PDT 2024 ON: 21.59 +20.0 21.63 -21.4 18.9 22.6 28.0 20 0 Alarm State:  0
Thu Apr 18 19:27:31 PDT 2024 ON: 21.58 +20.0 21.63 -21.4 18.9 22.6 28.0 20 0 Alarm State:  0
Thu Apr 18 19:26:30 PDT 2024 ON: 21.58 +20.0 21.63 -21.3 19.0 22.5 28.0 19 0 Alarm State:  0
Thu Apr 18 19:25:28 PDT 2024 ON: 21.58 +20.0 21.62 -21.5 18.8 22.7 28.0 20 0 Alarm State:  0
Thu Apr 18 19:24:27 PDT 2024 ON: 21.58 +20.0 21.62 -21.3 19.0 22.5 28.0 20 0 Alarm State:  0
Thu Apr 18 19:23:25 PDT 2024 ON: 21.58 +20.0 21.62 -21.3 19.0 22.5 28.0 20 0 Alarm State:  0
Thu Apr 18 19:22:24 PDT 2024 ON: 21.58 +20.0 21.62 -21.5 18.8 22.7 28.0 20 0 Alarm State:  0
Thu Apr 18 19:21:22 PDT 2024 ON: 21.58 +20.0 21.63 -21.4 18.9 22.6 28.0 20 0 Alarm State:  0
Thu Apr 18 19:20:11 PDT 2024  Alarm State: 0
Thu Apr 18 19:20:11 PDT 2024 Chiller did not report ON, got this reading: 
Thu Apr 18 19:19:09 PDT 2024 ON: 21.57 +20.0 21.62 -21.4 18.9 22.6 28.0 20 0 Alarm State:  0
Thu Apr 18 19:18:08 PDT 2024 ON: 21.57 +20.0 21.62 -21.4 18.9 22.6 28.0 20 0 Alarm State:  0
Thu Apr 18 19:17:06 PDT 2024 ON: 21.58 +20.0 21.63 -21.5 18.8 22.6 28.0 20 0 Alarm State:  0
Thu Apr 18 19:16:05 PDT 2024 ON: 21.57 +20.0 21.62 -21.4 18.9 22.6 28.0 20 0 Alarm State:  0
Thu Apr 18 19:15:03 PDT 2024 ON: 21.58 +20.0 21.63 -21.3 19.0 22.5 28.0 20 0 Alarm State:  0
Thu Apr 18 19:14:02 PDT 2024 ON: 21.57 +20.0 21.62 -21.4 18.9 22.6 28.0 20 0 Alarm State:  0
Thu Apr 18 19:13:00 PDT 2024 ON: 21.57 +20.0 21.62 -21.4 18.9 22.6 28.0 20 0 Alarm State:  0
Thu Apr 18 19:11:59 PDT 2024 ON: 21.57 +20.0 21.62 -21.3 19.0 22.5 28.0 20 0 Alarm State:  0
Thu Apr 18 19:10:57 PDT 2024 ON: 21.58 +20.0 21.63 -21.3 19.0 22.5 28.0 19 0 Alarm State:  0
Thu Apr 18 19:09:56 PDT 2024 ON: 21.58 +20.0 21.63 -21.4 18.9 22.6 28.0 20 0 Alarm State:  0
Thu Apr 18 19:08:54 PDT 2024 ON: 21.58 +20.0 21.62 -21.3 19.0 22.5 28.0 20 0 Alarm State:  0
Thu Apr 18 19:07:53 PDT 2024 ON: 21.58 +20.0 21.62 -21.4 18.9 22.5 28.0 20 0 Alarm State:  0
Thu Apr 18 19:06:51 PDT 2024 ON: 21.57 +20.0 21.62 -21.4 18.9 22.5 28.0 19 0 Alarm State:  0
Thu Apr 18 19:05:50 PDT 2024 ON: 21.57 +20.0 21.62 -21.4 18.9 22.5 28.0 20 0 Alarm State:  0
Thu Apr 18 19:04:48 PDT 2024 ON: 21.57 +20.0 21.62 -21.5 18.8 22.7 28.0 20 0 Alarm State:  0
Thu Apr 18 19:03:46 PDT 2024 ON: 21.57 +20.0 21.61 -21.4 18.9 22.5 28.0 20 0 Alarm State:  0
Thu Apr 18 19:02:45 PDT 2024 ON: 21.57 +20.0 21.61 -21.5 18.8 22.7 28.0 20 0 Alarm State:  0
Thu Apr 18 19:01:43 PDT 2024 ON: 21.57 +20.0 21.61 -21.4 18.9 22.6 28.0 20 0 Alarm State:  0
Thu Apr 18 19:00:42 PDT 2024 ON: 21.57 +20.0 21.62 -21.5 18.7 22.7 28.0 20 0 Alarm State:  0
Thu Apr 18 18:59:40 PDT 2024 ON: 21.56 +20.0 21.61 -21.5 18.8 22.6 28.0 20 0 Alarm State:  0
Thu Apr 18 18:58:39 PDT 2024 ON: 21.57 +20.0 21.61 -21.5 18.8 22.7 28.0 20 0 Alarm State:  0
Thu Apr 18 18:57:37 PDT 2024 ON: 21.56 +20.0 21.61 -21.4 18.9 22.6 28.0 20 0 Alarm State:  0
Thu Apr 18 18:56:36 PDT 2024 ON: 21.56 +20.0 21.61 -21.4 18.9 22.6 28.0 20 0 Alarm State:  0
Thu Apr 18 18:55:34 PDT 2024 ON: 21.56 +20.0 21.61 -21.5 18.8 22.6 28.0 20 0 Alarm State:  0
Thu Apr 18 18:54:33 PDT 2024 ON: 21.57 +20.0 21.62 -21.5 18.8 22.6 28.0 20 0 Alarm State:  0
Thu Apr 18 18:53:31 PDT 2024 ON: 21.56 +20.0 21.61 -21.4 18.9 22.6 28.0 20 0 Alarm State:  0
Thu Apr 18 18:52:30 PDT 2024 ON: 21.56 +20.0 21.60 -21.4 18.9 22.6 28.0 20 0 Alarm State:  0
Thu Apr 18 18:51:28 PDT 2024 ON: 21.57 +20.0 21.61 -21.3 19.0 22.5 28.0 20 0 Alarm State:  0
Thu Apr 18 18:50:27 PDT 2024 ON: 21.57 +20.0 21.62 -21.4 18.9 22.6 28.0 19 0 Alarm State:  0
Thu Apr 18 18:49:25 PDT 2024 ON: 21.57 +20.0 21.62 -21.5 18.8 22.7 28.0 20 0 Alarm State:  0
Thu Apr 18 18:48:24 PDT 2024 ON: 21.56 +20.0 21.61 -21.4 18.9 22.6 28.0 20 0 Alarm State:  0
Thu Apr 18 18:47:22 PDT 2024 ON: 21.56 +20.0 21.61 -21.4 18.9 22.5 28.0 20 0 Alarm State:  0
Thu Apr 18 18:46:21 PDT 2024 ON: 21.57 +20.0 21.61 -21.4 18.9 22.5 28.0 20 0 Alarm State:  0
Thu Apr 18 18:45:19 PDT 2024 ON: 21.57 +20.0 21.61 -21.4 18.9 22.6 28.0 20 0 Alarm State:  0
Thu Apr 18 18:44:18 PDT 2024 ON: 21.57 +20.0 21.61 -21.4 18.9 22.6 28.0 20 0 Alarm State:  0
Thu Apr 18 18:43:16 PDT 2024 ON: 21.57 +20.0 21.62 -21.5 18.8 22.6 28.0 20 0 Alarm State:  0
Thu Apr 18 18:42:15 PDT 2024 ON: 21.57 +20.0 21.61 -21.5 18.8 22.6 28.0 20 0 Alarm State:  0
Thu Apr 18 18:41:13 PDT 2024 ON: 21.57 +20.0 21.62 -21.4 18.9 22.6 28.0 20 0 Alarm State:  0
Thu Apr 18 18:40:12 PDT 2024 ON: 21.57 +20.0 21.61 -21.4 18.9 22.5 28.0 20 0 Alarm State:  0
Thu Apr 18 18:39:10 PDT 2024 ON: 21.57 +20.0 21.62 -21.5 18.8 22.6 28.0 20 0 Alarm State:  0
Thu Apr 18 18:38:09 PDT 2024 ON: 21.57 +20.0 21.62 -21.5 18.8 22.6 28.0 20 0 Alarm State:  0
Thu Apr 18 18:37:07 PDT 2024 ON: 21.57 +20.0 21.62 -21.3 19.0 22.5 28.0 20 0 Alarm State:  0
Thu Apr 18 18:36:06 PDT 2024 ON: 21.57 +20.0 21.62 -21.4 18.9 22.6 28.0 20 0 Alarm State:  0
Thu Apr 18 18:35:04 PDT 2024 ON: 21.58 +20.0 21.62 -21.4 18.9 22.5 28.0 19 0 Alarm State:  0
Thu Apr 18 18:34:03 PDT 2024 ON: 21.57 +20.0 21.62 -21.5 18.8 22.7 28.0 20 0 Alarm State:  0
Thu Apr 18 18:33:01 PDT 2024 ON: 21.57 +20.0 21.62 -21.5 18.8 22.7 28.0 20 0 Alarm State:  0
Thu Apr 18 18:32:00 PDT 2024 ON: 21.58 +20.0 21.62 -21.5 18.8 22.7 28.0 20 0 Alarm State:  0
Thu Apr 18 18:30:58 PDT 2024 ON: 21.57 +20.0 21.62 -21.3 19.0 22.5 28.0 19 0 Alarm State:  0
Thu Apr 18 18:29:57 PDT 2024 ON: 21.57 +20.0 21.62 -21.4 18.9 22.5 28.0 20 0 Alarm State:  0
Thu Apr 18 18:28:55 PDT 2024 ON: 21.57 +20.0 21.62 -21.5 18.8 22.7 28.0 20 0 Alarm State:  0
Thu Apr 18 18:27:54 PDT 2024 ON: 21.58 +20.0 21.63 -21.5 18.8 22.7 28.0 20 0 Alarm State:  0
Thu Apr 18 18:26:52 PDT 2024 ON: 21.57 +20.0 21.62 -21.4 18.9 22.6 28.0 20 0 Alarm State:  0
Thu Apr 18 18:25:51 PDT 2024 ON: 21.57 +20.0 21.62 -21.4 18.9 22.5 28.0 19 0 Alarm State:  0
Thu Apr 18 18:24:49 PDT 2024 ON: 21.57 +20.0 21.62 -21.4 18.9 22.6 28.0 20 0 Alarm State:  0
Thu Apr 18 18:23:48 PDT 2024 ON: 21.57 +20.0 21.62 -21.4 18.9 22.5 28.0 20 0 Alarm State:  0
Thu Apr 18 18:22:46 PDT 2024 ON: 21.57 +20.0 21.62 -21.4 18.9 22.5 28.0 20 0 Alarm State:  0
Thu Apr 18 18:21:45 PDT 2024 ON: 21.57 +20.0 21.62 -21.4 18.9 22.5 28.0 20 0 Alarm State:  0
Thu Apr 18 18:20:43 PDT 2024 ON: 21.57 +20.0 21.62 -21.4 18.9 22.6 28.0 20 0 Alarm State:  0
Thu Apr 18 18:19:42 PDT 2024 ON: 21.57 +20.0 21.62 -21.5 18.8 22.6 28.0 20 0 Alarm State:  0
Thu Apr 18 18:18:40 PDT 2024 ON: 21.57 +20.0 21.61 -21.5 18.8 22.7 28.0 20 0 Alarm State:  0
Thu Apr 18 18:17:39 PDT 2024 ON: 21.57 +20.0 21.62 -21.5 18.8 22.6 28.0 20 0 Alarm State:  0
Thu Apr 18 18:16:37 PDT 2024 ON: 21.57 +20.0 21.62 -21.5 18.8 22.6 27.9 20 0 Alarm State:  0
Thu Apr 18 18:15:36 PDT 2024 ON: 21.57 +20.0 21.62 -21.4 18.9 22.6 28.0 20 0 Alarm State:  0
Thu Apr 18 18:14:34 PDT 2024 ON: 21.57 +20.0 21.62 -21.5 18.7 22.7 28.0 20 0 Alarm State:  0
Thu Apr 18 18:13:33 PDT 2024 ON: 21.57 +20.0 21.61 -21.5 18.8 22.6 28.0 20 0 Alarm State:  0
Thu Apr 18 18:12:31 PDT 2024 ON: 21.58 +20.0 21.62 -21.5 18.8 22.7 28.0 20 0 Alarm State:  0
Thu Apr 18 18:11:30 PDT 2024 ON: 21.57 +20.0 21.62 -21.4 18.9 22.6 28.0 20 0 Alarm State:  0
Thu Apr 18 18:10:28 PDT 2024 ON: 21.57 +20.0 21.62 -21.5 18.8 22.7 28.0 20 0 Alarm State:  0
Thu Apr 18 18:09:27 PDT 2024 ON: 21.58 +20.0 21.62 -21.4 18.9 22.5 28.0 20 0 Alarm State:  0
Thu Apr 18 18:08:25 PDT 2024 ON: 21.58 +20.0 21.62 -21.4 18.9 22.6 28.0 20 0 Alarm State:  0
Thu Apr 18 18:07:23 PDT 2024 ON: 21.58 +20.0 21.63 -21.5 18.8 22.7 28.0 20 0 Alarm State:  0
Thu Apr 18 18:06:22 PDT 2024 ON: 21.58 +20.0 21.62 -21.5 18.8 22.6 28.0 20 0 Alarm State:  0
Thu Apr 18 18:05:20 PDT 2024 ON: 21.58 +20.0 21.63 -21.5 18.8 22.6 28.0 20 0 Alarm State:  0
Thu Apr 18 18:04:19 PDT 2024 ON: 21.58 +20.0 21.63 -21.5 18.8 22.6 28.0 20 0 Alarm State:  0
Thu Apr 18 18:03:17 PDT 2024 ON: 21.59 +20.0 21.63 -21.5 18.8 22.7 28.0 20 0 Alarm State:  0
Thu Apr 18 18:02:16 PDT 2024 ON: 21.58 +20.0 21.63 -21.4 18.9 22.5 28.0 20 0 Alarm State:  0
Thu Apr 18 18:01:14 PDT 2024 ON: 21.58 +20.0 21.63 -21.4 18.9 22.6 28.0 20 0 Alarm State:  0
Thu Apr 18 18:00:13 PDT 2024 ON: 21.58 +20.0 21.63 -21.4 18.9 22.5 28.0 20 0 Alarm State:  0
Thu Apr 18 17:59:11 PDT 2024 ON: 21.59 +20.0 21.64 -21.4 18.9 22.5 28.0 20 0 Alarm State:  0
Thu Apr 18 17:58:10 PDT 2024 ON: 21.58 +20.0 21.63 -21.4 18.9 22.6 28.0 19 0 Alarm State:  0
Thu Apr 18 17:57:08 PDT 2024 ON: 21.59 +20.0 21.63 -21.4 18.9 22.6 28.0 20 0 Alarm State:  0
Thu Apr 18 17:56:07 PDT 2024 ON: 21.59 +20.0 21.64 -21.5 18.8 22.7 28.0 20 0 Alarm State:  0
Thu Apr 18 17:55:05 PDT 2024 ON: 21.59 +20.0 21.63 -21.4 18.9 22.6 28.0 20 0 Alarm State:  0
Thu Apr 18 17:54:04 PDT 2024 ON: 21.59 +20.0 21.64 -21.4 18.9 22.5 28.0 20 0 Alarm State:  0
Thu Apr 18 17:53:02 PDT 2024 ON: 21.59 +20.0 21.64 -21.3 19.0 22.5 28.0 19 0 Alarm State:  0
Thu Apr 18 17:52:01 PDT 2024 ON: 21.59 +20.0 21.64 -21.5 18.8 22.6 28.0 20 0 Alarm State:  0
Thu Apr 18 17:50:59 PDT 2024 ON: 21.59 +20.0 21.64 -21.5 18.8 22.6 28.0 20 0 Alarm State:  0
Thu Apr 18 17:49:58 PDT 2024 ON: 21.59 +20.0 21.64 -21.6 18.6 22.8 27.9 20 0 Alarm State:  0
Thu Apr 18 17:48:56 PDT 2024 ON: 21.59 +20.0 21.64 -21.6 18.6 22.8 28.0 20 0 Alarm State:  0
Thu Apr 18 17:47:55 PDT 2024 ON: 21.59 +20.0 21.64 -21.4 18.9 22.6 28.0 20 0 Alarm State:  0
Thu Apr 18 17:46:53 PDT 2024 ON: 21.59 +20.0 21.64 -21.5 18.7 22.7 28.0 20 0 Alarm State:  0
Thu Apr 18 17:45:52 PDT 2024 ON: 21.59 +20.0 21.63 -21.5 18.7 22.7 28.0 20 0 Alarm State:  0
Thu Apr 18 17:44:50 PDT 2024 ON: 21.59 +20.0 21.64 -21.4 18.9 22.6 28.0 20 0 Alarm State:  0
Thu Apr 18 17:43:49 PDT 2024 ON: 21.59 +20.0 21.64 -21.5 18.8 22.7 28.0 20 0 Alarm State:  0
Thu Apr 18 17:42:47 PDT 2024 ON: 21.59 +20.0 21.64 -21.4 18.9 22.6 28.0 19 0 Alarm State:  0
Thu Apr 18 17:41:46 PDT 2024 ON: 21.59 +20.0 21.64 -21.4 18.9 22.6 28.0 20 0 Alarm State:  0
Thu Apr 18 17:40:44 PDT 2024 ON: 21.58 +20.0 21.63 -21.5 18.8 22.7 28.0 20 0 Alarm State:  0
Thu Apr 18 17:39:43 PDT 2024 ON: 21.59 +20.0 21.63 -21.4 18.9 22.6 28.0 20 0 Alarm State:  0
Thu Apr 18 17:38:41 PDT 2024 ON: 21.59 +20.0 21.64 -21.4 18.9 22.6 28.0 20 0 Alarm State:  0
Thu Apr 18 17:37:40 PDT 2024 ON: 21.59 +20.0 21.64 -21.5 18.8 22.6 28.0 20 0 Alarm State:  0
Thu Apr 18 17:36:38 PDT 2024 ON: 21.59 +20.0 21.64 -21.5 18.8 22.7 28.0 20 0 Alarm State:  0
Thu Apr 18 17:35:37 PDT 2024 ON: 21.59 +20.0 21.63 -21.4 18.9 22.5 28.0 20 0 Alarm State:  0
Thu Apr 18 17:34:35 PDT 2024 ON: 21.59 +20.0 21.63 -21.5 18.8 22.6 28.0 20 0 Alarm State:  0
Thu Apr 18 17:33:34 PDT 2024 ON: 21.59 +20.0 21.63 -21.4 18.9 22.6 28.0 19 0 Alarm State:  0
Thu Apr 18 17:32:32 PDT 2024 ON: 21.59 +20.0 21.63 -21.5 18.8 22.7 28.0 20 0 Alarm State:  0
Thu Apr 18 17:31:31 PDT 2024 ON: 21.59 +20.0 21.64 -21.4 18.9 22.6 28.0 20 0 Alarm State:  0
Thu Apr 18 17:30:29 PDT 2024 ON: 21.59 +20.0 21.64 -21.5 18.8 22.6 28.0 20 0 Alarm State:  0
Thu Apr 18 17:29:28 PDT 2024 ON: 21.59 +20.0 21.64 -21.4 18.9 22.6 28.0 20 0 Alarm State:  0
Thu Apr 18 17:28:26 PDT 2024 ON: 21.59 +20.0 21.63 -21.4 18.9 22.6 28.0 20 0 Alarm State:  0
Thu Apr 18 17:27:25 PDT 2024 ON: 21.59 +20.0 21.64 -21.5 18.8 22.6 28.0 20 0 Alarm State:  0
Thu Apr 18 17:26:23 PDT 2024 ON: 21.59 +20.0 21.64 -21.4 18.9 22.5 28.0 19 0 Alarm State:  0
Thu Apr 18 17:25:22 PDT 2024 ON: 21.59 +20.0 21.64 -21.4 18.9 22.5 28.0 19 0 Alarm State:  0
Thu Apr 18 17:24:20 PDT 2024 ON: 21.59 +20.0 21.64 -21.5 18.8 22.6 28.0 20 0 Alarm State:  0
Thu Apr 18 17:23:19 PDT 2024 ON: 21.59 +20.0 21.64 -21.5 18.8 22.7 28.0 20 0 Alarm State:  0
Thu Apr 18 17:22:17 PDT 2024 ON: 21.60 +20.0 21.65 -21.4 18.9 22.6 28.0 20 0 Alarm State:  0
Thu Apr 18 17:21:16 PDT 2024 ON: 21.59 +20.0 21.64 -21.4 18.9 22.5 28.0 20 0 Alarm State:  0
Thu Apr 18 17:20:14 PDT 2024 ON: 21.60 +20.0 21.65 -21.4 18.9 22.6 28.0 20 0 Alarm State:  0
Thu Apr 18 17:19:13 PDT 2024 ON: 21.60 +20.0 21.65 -21.4 18.9 22.5 28.0 20 0 Alarm State:  0
Thu Apr 18 17:18:11 PDT 2024 ON: 21.60 +20.0 21.65 -21.4 18.9 22.5 28.0 20 0 Alarm State:  0
Thu Apr 18 17:17:10 PDT 2024 ON: 21.60 +20.0 21.65 -21.4 18.9 22.5 28.0 20 0 Alarm State:  0
Thu Apr 18 17:16:08 PDT 2024 ON: 21.60 +20.0 21.65 -21.5 18.8 22.7 28.0 20 0 Alarm State:  0
Thu Apr 18 17:15:07 PDT 2024 ON: 21.60 +20.0 21.65 -21.5 18.7 22.7 28.0 20 0 Alarm State:  0
Thu Apr 18 17:14:05 PDT 2024 ON: 21.60 +20.0 21.66 -21.5 18.8 22.6 28.0 20 0 Alarm State:  0
Thu Apr 18 17:13:04 PDT 2024 ON: 21.60 +20.0 21.65 -21.5 18.8 22.6 28.0 20 0 Alarm State:  0
Thu Apr 18 17:12:02 PDT 2024 ON: 21.60 +20.0 21.65 -21.5 18.8 22.6 28.0 20 0 Alarm State:  0
Thu Apr 18 17:11:00 PDT 2024 ON: 21.61 +20.0 21.66 -21.4 18.9 22.6 28.0 20 0 Alarm State:  0
Thu Apr 18 17:09:59 PDT 2024 ON: 21.61 +20.0 21.65 -21.4 18.9 22.5 28.0 20 0 Alarm State:  0
Thu Apr 18 17:08:57 PDT 2024 ON: 21.60 +20.0 21.65 -21.5 18.8 22.6 27.9 20 0 Alarm State:  0
Thu Apr 18 17:07:56 PDT 2024 ON: 21.61 +20.0 21.65 -21.5 18.8 22.7 28.0 20 0 Alarm State:  0
Thu Apr 18 17:06:54 PDT 2024 ON: 21.60 +20.0 21.66 -21.5 18.8 22.7 28.0 20 0 Alarm State:  0
Thu Apr 18 17:05:53 PDT 2024 ON: 21.60 +20.0 21.64 -21.4 18.9 22.5 28.0 20 0 Alarm State:  0
Thu Apr 18 17:04:51 PDT 2024 ON: 21.60 +20.0 21.64 -21.4 18.9 22.5 28.0 20 0 Alarm State:  0
Thu Apr 18 17:03:50 PDT 2024 ON: 21.60 +20.0 21.65 -21.5 18.8 22.7 28.0 20 0 Alarm State:  0
Thu Apr 18 17:02:48 PDT 2024 ON: 21.60 +20.0 21.65 -21.5 18.8 22.6 28.0 20 0 Alarm State:  0
Thu Apr 18 17:01:47 PDT 2024 ON: 21.60 +20.0 21.64 -21.5 18.8 22.6 28.0 20 0 Alarm State:  0
Thu Apr 18 17:00:45 PDT 2024 ON: 21.60 +20.0 21.65 -21.5 18.8 22.6 28.0 20 0 Alarm State:  0
Thu Apr 18 16:59:44 PDT 2024 ON: 21.59 +20.0 21.64 -21.4 18.9 22.5 27.9 20 0 Alarm State:  0
Thu Apr 18 16:58:42 PDT 2024 ON: 21.60 +20.0 21.64 -21.4 18.9 22.6 28.0 20 0 Alarm State:  0
Thu Apr 18 16:57:41 PDT 2024 ON: 21.60 +20.0 21.64 -21.5 18.8 22.6 28.0 20 0 Alarm State:  0
Thu Apr 18 16:56:39 PDT 2024 ON: 21.60 +20.0 21.64 -21.5 18.8 22.7 28.0 20 0 Alarm State:  0
Thu Apr 18 16:55:38 PDT 2024 ON: 21.60 +20.0 21.65 -21.4 18.9 22.6 28.0 20 0 Alarm State:  0
Thu Apr 18 16:54:36 PDT 2024 ON: 21.60 +20.0 21.65 -21.4 18.9 22.5 28.0 20 0 Alarm State:  0
Thu Apr 18 16:53:35 PDT 2024 ON: 21.60 +20.0 21.64 -21.4 18.9 22.5 28.0 20 0 Alarm State:  0
Thu Apr 18 16:52:33 PDT 2024 ON: 21.60 +20.0 21.65 -21.4 18.9 22.6 28.0 20 0 Alarm State:  0
Thu Apr 18 16:51:32 PDT 2024 ON: 21.60 +20.0 21.64 -21.3 19.0 22.5 28.0 20 0 Alarm State:  0
Thu Apr 18 16:50:30 PDT 2024 ON: 21.60 +20.0 21.64 -21.5 18.7 22.7 28.0 20 0 Alarm State:  0
Thu Apr 18 16:49:29 PDT 2024 ON: 21.60 +20.0 21.65 -21.4 18.9 22.5 28.0 20 0 Alarm State:  0
Thu Apr 18 16:48:27 PDT 2024 ON: 21.60 +20.0 21.64 -21.3 19.0 22.5 28.0 20 0 Alarm State:  0
Thu Apr 18 16:47:26 PDT 2024 ON: 21.60 +20.0 21.64 -21.4 18.9 22.6 28.0 20 0 Alarm State:  0
Thu Apr 18 16:46:24 PDT 2024 ON: 21.60 +20.0 21.65 -21.4 18.9 22.5 28.0 20 0 Alarm State:  0
Thu Apr 18 16:45:23 PDT 2024 ON: 21.60 +20.0 21.65 -21.4 18.9 22.6 28.0 20 0 Alarm State:  0
Thu Apr 18 16:44:21 PDT 2024 ON: 21.60 +20.0 21.65 -21.4 18.9 22.6 28.0 20 0 Alarm State:  0
Thu Apr 18 16:43:20 PDT 2024 ON: 21.61 +20.0 21.65 -21.4 18.9 22.6 28.0 20 0 Alarm State:  0
Thu Apr 18 16:42:18 PDT 2024 ON: 21.60 +20.0 21.65 -21.5 18.8 22.6 28.0 20 0 Alarm State:  0
Thu Apr 18 16:41:17 PDT 2024 ON: 21.60 +20.0 21.65 -21.5 18.8 22.7 28.0 20 0 Alarm State:  0
Thu Apr 18 16:40:15 PDT 2024 ON: 21.60 +20.0 21.65 -21.4 18.9 22.5 28.0 20 0 Alarm State:  0
Thu Apr 18 16:39:14 PDT 2024 ON: 21.60 +20.0 21.65 -21.5 18.8 22.6 27.9 20 0 Alarm State:  0
Thu Apr 18 16:38:12 PDT 2024 ON: 21.60 +20.0 21.64 -21.4 18.9 22.5 28.0 20 0 Alarm State:  0
Thu Apr 18 16:37:11 PDT 2024 ON: 21.60 +20.0 21.64 -21.4 18.9 22.5 28.0 20 0 Alarm State:  0
Thu Apr 18 16:36:09 PDT 2024 ON: 21.60 +20.0 21.65 -21.4 18.9 22.6 28.0 20 0 Alarm State:  0
Thu Apr 18 16:35:08 PDT 2024 ON: 21.60 +20.0 21.64 -21.5 18.8 22.7 28.0 20 0 Alarm State:  0
Thu Apr 18 16:34:06 PDT 2024 ON: 21.60 +20.0 21.65 -21.4 18.9 22.6 28.0 20 0 Alarm State:  0
Thu Apr 18 16:33:05 PDT 2024 ON: 21.61 +20.0 21.65 -21.4 18.9 22.5 28.0 20 0 Alarm State:  0
Thu Apr 18 16:32:03 PDT 2024 ON: 21.60 +20.0 21.65 -21.4 18.9 22.6 28.0 20 0 Alarm State:  0
Thu Apr 18 16:31:02 PDT 2024 ON: 21.60 +20.0 21.65 -21.4 18.9 22.5 28.0 20 0 Alarm State:  0
Thu Apr 18 16:30:00 PDT 2024 ON: 21.61 +20.0 21.66 -21.4 18.9 22.6 28.0 20 0 Alarm State:  0
Thu Apr 18 16:28:59 PDT 2024 ON: 21.60 +20.0 21.65 -21.5 18.8 22.6 27.9 19 0 Alarm State:  0
Thu Apr 18 16:27:57 PDT 2024 ON: 21.60 +20.0 21.64 -21.4 18.9 22.5 28.0 20 0 Alarm State:  0
Thu Apr 18 16:26:56 PDT 2024 ON: 21.60 +20.0 21.65 -21.4 18.9 22.6 28.0 20 0 Alarm State:  0
Thu Apr 18 16:25:54 PDT 2024 ON: 21.61 +20.0 21.66 -21.4 18.9 22.6 28.0 20 0 Alarm State:  0
Thu Apr 18 16:24:53 PDT 2024 ON: 21.60 +20.0 21.65 -21.3 19.0 22.5 28.0 20 0 Alarm State:  0
Thu Apr 18 16:23:51 PDT 2024 ON: 21.61 +20.0 21.65 -21.5 18.8 22.6 28.0 20 0 Alarm State:  0
Thu Apr 18 16:22:50 PDT 2024 ON: 21.60 +20.0 21.65 -21.5 18.8 22.7 28.0 20 0 Alarm State:  0
Thu Apr 18 16:21:48 PDT 2024 ON: 21.61 +20.0 21.65 -21.4 18.9 22.6 28.0 20 0 Alarm State:  0
Thu Apr 18 16:20:47 PDT 2024 ON: 21.60 +20.0 21.65 -21.4 18.9 22.5 28.0 20 0 Alarm State:  0
Thu Apr 18 16:19:45 PDT 2024 ON: 21.60 +20.0 21.65 -21.4 18.9 22.6 28.0 20 0 Alarm State:  0
Thu Apr 18 16:18:44 PDT 2024 ON: 21.60 +20.0 21.64 -21.5 18.8 22.7 28.0 20 0 Alarm State:  0
Thu Apr 18 16:17:42 PDT 2024 ON: 21.60 +20.0 21.64 -21.4 18.9 22.6 28.0 20 0 Alarm State:  0
Thu Apr 18 16:16:41 PDT 2024 ON: 21.60 +20.0 21.64 -21.4 18.9 22.6 28.0 20 0 Alarm State:  0
Thu Apr 18 16:15:39 PDT 2024 ON: 21.59 +20.0 21.64 -21.4 18.9 22.5 28.0 20 0 Alarm State:  0
Thu Apr 18 16:14:37 PDT 2024 ON: 21.60 +20.0 21.65 -21.4 18.9 22.6 28.0 20 0 Alarm State:  0
Thu Apr 18 16:13:36 PDT 2024 ON: 21.59 +20.0 21.64 -21.4 18.9 22.6 28.0 20 0 Alarm State:  0
Thu Apr 18 16:12:34 PDT 2024 ON: 21.60 +20.0 21.64 -21.3 19.0 22.5 28.0 20 0 Alarm State:  0
Thu Apr 18 16:11:33 PDT 2024 ON: 21.59 +20.0 21.63 -21.4 18.9 22.6 28.0 20 0 Alarm State:  0
Thu Apr 18 16:10:31 PDT 2024 ON: 21.59 +20.0 21.63 -21.5 18.8 22.7 28.0 20 0 Alarm State:  0
Thu Apr 18 16:09:30 PDT 2024 ON: 21.59 +20.0 21.64 -21.4 18.9 22.5 28.0 20 0 Alarm State:  0
Thu Apr 18 16:08:28 PDT 2024 ON: 21.59 +20.0 21.64 -21.4 18.9 22.6 28.0 20 0 Alarm State:  0
Thu Apr 18 16:07:27 PDT 2024 ON: 21.59 +20.0 21.64 -21.4 18.9 22.6 28.0 20 0 Alarm State:  0
Thu Apr 18 16:06:25 PDT 2024 ON: 21.59 +20.0 21.64 -21.4 18.9 22.6 28.0 20 0 Alarm State:  0
Thu Apr 18 16:05:24 PDT 2024 ON: 21.59 +20.0 21.63 -21.4 18.9 22.5 28.0 20 0 Alarm State:  0
Thu Apr 18 16:04:22 PDT 2024 ON: 21.59 +20.0 21.64 -21.4 18.9 22.6 28.0 20 0 Alarm State:  0
Thu Apr 18 16:03:21 PDT 2024 ON: 21.59 +20.0 21.64 -21.4 18.9 22.6 28.0 20 0 Alarm State:  0
Thu Apr 18 16:02:19 PDT 2024 ON: 21.59 +20.0 21.64 -21.4 18.9 22.5 28.0 20 0 Alarm State:  0
Thu Apr 18 16:01:18 PDT 2024 ON: 21.59 +20.0 21.64 -21.4 18.9 22.5 28.0 20 0 Alarm State:  0
Thu Apr 18 16:00:16 PDT 2024 ON: 21.59 +20.0 21.64 -21.4 18.9 22.6 28.0 20 0 Alarm State:  0
Thu Apr 18 15:59:15 PDT 2024 ON: 21.59 +20.0 21.65 -21.4 18.9 22.6 28.0 19 0 Alarm State:  0
Thu Apr 18 15:58:13 PDT 2024 ON: 21.59 +20.0 21.64 -21.4 18.9 22.6 28.0 20 0 Alarm State:  0
Thu Apr 18 15:57:12 PDT 2024 ON: 21.59 +20.0 21.64 -21.3 19.0 22.5 28.0 20 0 Alarm State:  0
Thu Apr 18 15:56:10 PDT 2024 ON: 21.59 +20.0 21.64 -21.5 18.8 22.7 28.0 20 0 Alarm State:  0
Thu Apr 18 15:55:09 PDT 2024 ON: 21.59 +20.0 21.63 -21.4 18.9 22.6 28.0 20 0 Alarm State:  0
Thu Apr 18 15:54:07 PDT 2024 ON: 21.59 +20.0 21.64 -21.4 18.9 22.6 28.0 20 0 Alarm State:  0
Thu Apr 18 15:53:06 PDT 2024 ON: 21.59 +20.0 21.63 -21.5 18.8 22.6 28.0 20 0 Alarm State:  0
Thu Apr 18 15:52:04 PDT 2024 ON: 21.59 +20.0 21.64 -21.4 18.9 22.6 28.0 20 0 Alarm State:  0
Thu Apr 18 15:51:03 PDT 2024 ON: 21.59 +20.0 21.63 -21.5 18.8 22.7 28.0 20 0 Alarm State:  0
Thu Apr 18 15:50:01 PDT 2024 ON: 21.59 +20.0 21.64 -21.4 18.9 22.6 28.0 20 0 Alarm State:  0
Thu Apr 18 15:49:00 PDT 2024 ON: 21.58 +20.0 21.63 -21.4 18.9 22.6 28.0 20 0 Alarm State:  0
Thu Apr 18 15:47:58 PDT 2024 ON: 21.58 +20.0 21.62 -21.4 18.9 22.5 28.0 20 0 Alarm State:  0
Thu Apr 18 15:46:57 PDT 2024 ON: 21.59 +20.0 21.64 -21.4 18.9 22.6 28.0 20 0 Alarm State:  0
Thu Apr 18 15:45:55 PDT 2024 ON: 21.59 +20.0 21.63 -21.4 18.9 22.6 28.0 20 0 Alarm State:  0
Thu Apr 18 15:44:54 PDT 2024 ON: 21.59 +20.0 21.64 -21.4 18.9 22.6 28.0 20 0 Alarm State:  0
Thu Apr 18 15:43:52 PDT 2024 ON: 21.58 +20.0 21.63 -21.3 19.0 22.5 28.0 20 0 Alarm State:  0
Thu Apr 18 15:42:51 PDT 2024 ON: 21.58 +20.0 21.63 -21.5 18.8 22.7 28.0 19 0 Alarm State:  0
Thu Apr 18 15:41:49 PDT 2024 ON: 21.59 +20.0 21.63 -21.4 18.9 22.6 28.0 20 0 Alarm State:  0
Thu Apr 18 15:40:48 PDT 2024 ON: 21.59 +20.0 21.63 -21.4 18.9 22.6 28.0 20 0 Alarm State:  0
Thu Apr 18 15:39:46 PDT 2024 ON: 21.59 +20.0 21.63 -21.5 18.8 22.7 28.0 19 0 Alarm State:  0
Thu Apr 18 15:38:45 PDT 2024 ON: 21.59 +20.0 21.63 -21.4 18.9 22.6 28.0 20 0 Alarm State:  0
Thu Apr 18 15:37:43 PDT 2024 ON: 21.58 +20.0 21.63 -21.4 18.9 22.6 28.0 20 0 Alarm State:  0
Thu Apr 18 15:36:42 PDT 2024 ON: 21.59 +20.0 21.63 -21.5 18.8 22.7 28.0 20 0 Alarm State:  0
Thu Apr 18 15:35:40 PDT 2024 ON: 21.59 +20.0 21.63 -21.4 18.9 22.6 28.0 20 0 Alarm State:  0
Thu Apr 18 15:34:39 PDT 2024 ON: 21.59 +20.0 21.64 -21.5 18.8 22.7 28.0 20 0 Alarm State:  0
Thu Apr 18 15:33:37 PDT 2024 ON: 21.59 +20.0 21.63 -21.4 18.9 22.6 28.0 20 0 Alarm State:  0
Thu Apr 18 15:32:36 PDT 2024 ON: 21.59 +20.0 21.64 -21.4 18.9 22.6 28.0 20 0 Alarm State:  0
Thu Apr 18 15:31:34 PDT 2024 ON: 21.59 +20.0 21.64 -21.4 18.9 22.6 28.0 20 0 Alarm State:  0
Thu Apr 18 15:30:33 PDT 2024 ON: 21.59 +20.0 21.64 -21.4 18.9 22.6 28.0 20 0 Alarm State:  0
Thu Apr 18 15:29:31 PDT 2024 ON: 21.59 +20.0 21.64 -21.5 18.8 22.7 28.0 20 0 Alarm State:  0
Thu Apr 18 15:28:30 PDT 2024 ON: 21.59 +20.0 21.63 -21.4 18.9 22.6 28.0 20 0 Alarm State:  0
Thu Apr 18 15:27:28 PDT 2024 ON: 21.59 +20.0 21.64 -21.4 18.9 22.6 28.0 20 0 Alarm State:  0
Thu Apr 18 15:26:27 PDT 2024 ON: 21.59 +20.0 21.64 -21.5 18.8 22.7 28.0 20 0 Alarm State:  0
Thu Apr 18 15:25:15 PDT 2024  Alarm State: 0
Thu Apr 18 15:25:15 PDT 2024 Chiller did not report ON, got this reading: 
Thu Apr 18 15:24:14 PDT 2024 ON: 21.59 +20.0 21.63 -21.4 18.9 22.6 28.0 20 0 Alarm State:  0
Thu Apr 18 15:23:12 PDT 2024 ON: 21.59 +20.0 21.64 -21.3 19.0 22.5 28.0 20 0 Alarm State:  0
Thu Apr 18 15:22:11 PDT 2024 ON: 21.59 +20.0 21.64 -21.4 18.9 22.6 28.0 20 0 Alarm State:  0
Thu Apr 18 15:21:09 PDT 2024 ON: 21.59 +20.0 21.64 -21.5 18.8 22.7 28.0 19 0 Alarm State:  0
Thu Apr 18 15:20:08 PDT 2024 ON: 21.59 +20.0 21.64 -21.5 18.8 22.7 28.0 20 0 Alarm State:  0
Thu Apr 18 15:19:06 PDT 2024 ON: 21.59 +20.0 21.64 -21.4 18.9 22.6 28.0 20 0 Alarm State:  0
Thu Apr 18 15:18:05 PDT 2024 ON: 21.59 +20.0 21.64 -21.4 18.9 22.6 28.0 20 0 Alarm State:  0
Thu Apr 18 15:17:03 PDT 2024 ON: 21.59 +20.0 21.64 -21.4 18.9 22.6 28.0 20 0 Alarm State:  0
Thu Apr 18 15:16:02 PDT 2024 ON: 21.59 +20.0 21.63 -21.4 18.9 22.6 28.0 19 0 Alarm State:  0
Thu Apr 18 15:15:00 PDT 2024 ON: 21.59 +20.0 21.64 -21.4 18.9 22.6 28.0 20 0 Alarm State:  0
Thu Apr 18 15:13:59 PDT 2024 ON: 21.59 +20.0 21.64 -21.5 18.8 22.7 28.0 20 0 Alarm State:  0
Thu Apr 18 15:12:57 PDT 2024 ON: 21.59 +20.0 21.64 -21.4 18.9 22.6 28.0 20 0 Alarm State:  0
Thu Apr 18 15:11:56 PDT 2024 ON: 21.59 +20.0 21.64 -21.5 18.8 22.6 28.0 20 0 Alarm State:  0
Thu Apr 18 15:10:54 PDT 2024 ON: 21.59 +20.0 21.64 -21.4 18.9 22.6 28.0 19 0 Alarm State:  0
Thu Apr 18 15:09:53 PDT 2024 ON: 21.59 +20.0 21.64 -21.4 18.9 22.6 28.0 20 0 Alarm State:  0
Thu Apr 18 15:08:51 PDT 2024 ON: 21.59 +20.0 21.64 -21.4 18.9 22.6 28.0 19 0 Alarm State:  0
Thu Apr 18 15:07:50 PDT 2024 ON: 21.59 +20.0 21.64 -21.4 18.9 22.6 28.0 20 0 Alarm State:  0
Thu Apr 18 15:06:48 PDT 2024 ON: 21.59 +20.0 21.63 -21.4 18.9 22.6 28.0 19 0 Alarm State:  0
Thu Apr 18 15:05:47 PDT 2024 ON: 21.59 +20.0 21.64 -21.4 18.9 22.6 28.0 20 0 Alarm State:  0
Thu Apr 18 15:04:45 PDT 2024 ON: 21.59 +20.0 21.64 -21.5 18.8 22.7 28.0 20 0 Alarm State:  0
Thu Apr 18 15:03:44 PDT 2024 ON: 21.59 +20.0 21.64 -21.4 18.9 22.6 28.0 20 0 Alarm State:  0
Thu Apr 18 15:02:42 PDT 2024 ON: 21.59 +20.0 21.64 -21.4 18.9 22.6 28.0 20 0 Alarm State:  0
Thu Apr 18 15:01:41 PDT 2024 ON: 21.59 +20.0 21.64 -21.4 18.9 22.6 28.0 20 0 Alarm State:  0
Thu Apr 18 15:00:39 PDT 2024 ON: 21.59 +20.0 21.64 -21.4 18.9 22.6 28.0 20 0 Alarm State:  0
Thu Apr 18 14:59:37 PDT 2024 ON: 21.60 +20.0 21.64 -21.5 18.8 22.7 28.0 20 0 Alarm State:  0
Thu Apr 18 14:58:36 PDT 2024 ON: 21.59 +20.0 21.64 -21.5 18.8 22.7 28.0 20 0 Alarm State:  0
Thu Apr 18 14:57:34 PDT 2024 ON: 21.60 +20.0 21.64 -21.4 18.9 22.6 28.0 20 0 Alarm State:  0
Thu Apr 18 14:56:33 PDT 2024 ON: 21.60 +20.0 21.64 -21.4 18.9 22.6 28.0 20 0 Alarm State:  0
Thu Apr 18 14:55:31 PDT 2024 ON: 21.59 +20.0 21.64 -21.5 18.8 22.7 28.0 20 0 Alarm State:  0
Thu Apr 18 14:54:30 PDT 2024 ON: 21.59 +20.0 21.64 -21.5 18.8 22.7 28.0 20 0 Alarm State:  0
Thu Apr 18 14:53:28 PDT 2024 ON: 21.59 +20.0 21.63 -21.4 18.9 22.6 28.0 20 0 Alarm State:  0
Thu Apr 18 14:52:27 PDT 2024 ON: 21.59 +20.0 21.63 -21.4 18.9 22.6 28.0 20 0 Alarm State:  0
Thu Apr 18 14:51:25 PDT 2024 ON: 21.59 +20.0 21.64 -21.4 18.9 22.6 28.0 20 0 Alarm State:  0
Thu Apr 18 14:50:24 PDT 2024 ON: 21.59 +20.0 21.64 -21.4 18.9 22.6 28.0 20 0 Alarm State:  0
Thu Apr 18 14:49:22 PDT 2024 ON: 21.59 +20.0 21.63 -21.4 18.9 22.6 28.0 20 0 Alarm State:  0
Thu Apr 18 14:48:21 PDT 2024 ON: 21.59 +20.0 21.63 -21.5 18.8 22.7 28.0 20 0 Alarm State:  0
Thu Apr 18 14:47:19 PDT 2024 ON: 21.59 +20.0 21.64 -21.3 19.0 22.5 28.0 20 0 Alarm State:  0
Thu Apr 18 14:46:18 PDT 2024 ON: 21.59 +20.0 21.63 -21.4 18.9 22.6 28.0 20 0 Alarm State:  0
Thu Apr 18 14:45:16 PDT 2024 ON: 21.59 +20.0 21.64 -21.5 18.8 22.7 28.0 20 0 Alarm State:  0
Thu Apr 18 14:44:15 PDT 2024 ON: 21.59 +20.0 21.63 -21.4 18.9 22.6 28.0 20 0 Alarm State:  0
Thu Apr 18 14:43:13 PDT 2024 ON: 21.59 +20.0 21.63 -21.5 18.8 22.7 28.0 20 0 Alarm State:  0
Thu Apr 18 14:42:12 PDT 2024 ON: 21.59 +20.0 21.63 -21.4 18.9 22.6 28.0 20 0 Alarm State:  0
Thu Apr 18 14:41:10 PDT 2024 ON: 21.58 +20.0 21.63 -21.4 18.9 22.6 28.0 20 0 Alarm State:  0
Thu Apr 18 14:40:09 PDT 2024 ON: 21.58 +20.0 21.63 -21.4 18.9 22.6 28.0 20 0 Alarm State:  0
Thu Apr 18 14:39:07 PDT 2024 ON: 21.59 +20.0 21.63 -21.4 18.9 22.6 28.0 20 0 Alarm State:  0
Thu Apr 18 14:38:06 PDT 2024 ON: 21.58 +20.0 21.63 -21.4 18.9 22.6 28.0 20 0 Alarm State:  0
Thu Apr 18 14:37:04 PDT 2024 ON: 21.58 +20.0 21.63 -21.5 18.8 22.7 28.0 20 0 Alarm State:  0
Thu Apr 18 14:36:03 PDT 2024 ON: 21.58 +20.0 21.62 -21.4 18.9 22.6 28.0 20 0 Alarm State:  0
Thu Apr 18 14:35:01 PDT 2024 ON: 21.58 +20.0 21.63 -21.5 18.8 22.7 28.0 20 0 Alarm State:  0
Thu Apr 18 14:34:00 PDT 2024 ON: 21.57 +20.0 21.62 -21.4 18.9 22.6 28.0 20 0 Alarm State:  0
Thu Apr 18 14:32:58 PDT 2024 ON: 21.58 +20.0 21.62 -21.5 18.8 22.7 28.0 20 0 Alarm State:  0
Thu Apr 18 14:31:57 PDT 2024 ON: 21.57 +20.0 21.62 -21.5 18.8 22.7 28.0 20 0 Alarm State:  0
Thu Apr 18 14:30:55 PDT 2024 ON: 21.57 +20.0 21.62 -21.5 18.8 22.7 28.0 20 0 Alarm State:  0
Thu Apr 18 14:29:54 PDT 2024 ON: 21.57 +20.0 21.62 -21.4 18.9 22.6 28.0 20 0 Alarm State:  0
Thu Apr 18 14:28:52 PDT 2024 ON: 21.57 +20.0 21.62 -21.4 18.9 22.6 28.0 20 0 Alarm State:  0
Thu Apr 18 14:27:51 PDT 2024 ON: 21.57 +20.0 21.61 -21.4 18.9 22.6 28.0 20 0 Alarm State:  0
Thu Apr 18 14:26:49 PDT 2024 ON: 21.57 +20.0 21.61 -21.4 18.9 22.6 28.0 20 0 Alarm State:  0
Thu Apr 18 14:25:48 PDT 2024 ON: 21.57 +20.0 21.62 -21.3 19.0 22.5 28.0 20 0 Alarm State:  0
Thu Apr 18 14:24:46 PDT 2024 ON: 21.57 +20.0 21.62 -21.5 18.8 22.7 28.0 19 0 Alarm State:  0
Thu Apr 18 14:23:45 PDT 2024 ON: 21.56 +20.0 21.61 -21.5 18.8 22.7 28.0 20 0 Alarm State:  0
Thu Apr 18 14:22:43 PDT 2024 ON: 21.56 +20.0 21.61 -21.5 18.8 22.7 28.0 20 0 Alarm State:  0
Thu Apr 18 14:21:42 PDT 2024 ON: 21.56 +20.0 21.61 -21.5 18.8 22.7 28.0 20 0 Alarm State:  0
Thu Apr 18 14:20:40 PDT 2024 ON: 21.56 +20.0 21.61 -21.4 18.9 22.6 28.0 20 0 Alarm State:  0
Thu Apr 18 14:19:39 PDT 2024 ON: 21.55 +20.0 21.60 -21.5 18.8 22.7 28.0 20 0 Alarm State:  0
Thu Apr 18 14:18:37 PDT 2024 ON: 21.55 +20.0 21.59 -21.5 18.8 22.7 28.0 20 0 Alarm State:  0
Thu Apr 18 14:17:36 PDT 2024 ON: 21.55 +20.0 21.60 -21.4 18.9 22.6 28.0 20 0 Alarm State:  0
Thu Apr 18 14:16:34 PDT 2024 ON: 21.55 +20.0 21.60 -21.4 18.9 22.5 28.0 20 0 Alarm State:  0
Thu Apr 18 14:15:33 PDT 2024 ON: 21.54 +20.0 21.59 -21.5 18.8 22.7 28.0 20 0 Alarm State:  0
Thu Apr 18 14:14:31 PDT 2024 ON: 21.55 +20.0 21.60 -21.4 18.9 22.6 28.0 20 0 Alarm State:  0
Thu Apr 18 14:13:30 PDT 2024 ON: 21.54 +20.0 21.58 -21.4 18.9 22.6 28.0 20 0 Alarm State:  0
Thu Apr 18 14:12:28 PDT 2024 ON: 21.54 +20.0 21.58 -21.4 18.9 22.6 28.0 20 0 Alarm State:  0
Thu Apr 18 14:11:27 PDT 2024 ON: 21.54 +20.0 21.58 -21.4 18.9 22.6 28.0 20 0 Alarm State:  0
Thu Apr 18 14:10:25 PDT 2024 ON: 21.53 +20.0 21.58 -21.4 18.9 22.6 28.0 20 0 Alarm State:  0
Thu Apr 18 14:09:24 PDT 2024 ON: 21.53 +20.0 21.58 -21.4 18.9 22.6 28.0 20 0 Alarm State:  0
Thu Apr 18 14:08:22 PDT 2024 ON: 21.53 +20.0 21.58 -21.4 18.9 22.6 28.0 20 0 Alarm State:  0
Thu Apr 18 14:07:21 PDT 2024 ON: 21.53 +20.0 21.59 -21.6 18.6 22.8 28.0 20 0 Alarm State:  0
Thu Apr 18 14:06:19 PDT 2024 ON: 21.52 +20.0 21.57 -21.4 18.9 22.6 28.0 20 0 Alarm State:  0
Thu Apr 18 14:05:18 PDT 2024 ON: 21.53 +20.0 21.58 -21.4 18.9 22.6 28.0 20 0 Alarm State:  0
Thu Apr 18 14:04:16 PDT 2024 ON: 21.53 +20.0 21.57 -21.4 18.9 22.6 28.0 20 0 Alarm State:  0
Thu Apr 18 14:03:15 PDT 2024 ON: 21.52 +20.0 21.57 -21.4 18.9 22.6 28.0 20 0 Alarm State:  0
Thu Apr 18 14:02:13 PDT 2024 ON: 21.52 +20.0 21.57 -21.4 18.9 22.6 28.0 20 0 Alarm State:  0
Thu Apr 18 14:01:12 PDT 2024 ON: 21.52 +20.0 21.57 -21.5 18.8 22.7 28.0 20 0 Alarm State:  0
Thu Apr 18 14:00:10 PDT 2024 ON: 21.52 +20.0 21.56 -21.3 19.0 22.5 28.0 20 0 Alarm State:  0
Thu Apr 18 13:59:09 PDT 2024 ON: 21.52 +20.0 21.58 -21.4 18.9 22.6 28.0 20 0 Alarm State:  0
Thu Apr 18 13:58:07 PDT 2024 ON: 21.52 +20.0 21.57 -21.3 19.0 22.5 28.0 20 0 Alarm State:  0
Thu Apr 18 13:57:05 PDT 2024 ON: 21.52 +20.0 21.57 -21.5 18.8 22.6 28.0 20 0 Alarm State:  0
Thu Apr 18 13:56:04 PDT 2024 ON: 21.51 +20.0 21.56 -21.3 19.0 22.5 28.0 20 0 Alarm State:  0
Thu Apr 18 13:55:02 PDT 2024 ON: 21.52 +20.0 21.57 -21.4 18.9 22.5 28.0 20 0 Alarm State:  0
Thu Apr 18 13:54:01 PDT 2024 ON: 21.52 +20.0 21.57 -21.4 18.9 22.6 28.0 20 0 Alarm State:  0
Thu Apr 18 13:52:59 PDT 2024 ON: 21.52 +20.0 21.57 -21.5 18.7 22.7 28.0 20 0 Alarm State:  0
Thu Apr 18 13:51:58 PDT 2024 ON: 21.52 +20.0 21.56 -21.3 19.0 22.5 28.0 19 0 Alarm State:  0
Thu Apr 18 13:50:56 PDT 2024 ON: 21.51 +20.0 21.56 -21.5 18.8 22.7 28.0 20 0 Alarm State:  0
Thu Apr 18 13:49:55 PDT 2024 ON: 21.52 +20.0 21.57 -21.4 18.9 22.6 28.0 20 0 Alarm State:  0
Thu Apr 18 13:48:53 PDT 2024 ON: 21.51 +20.0 21.56 -21.5 18.8 22.7 28.0 20 0 Alarm State:  0
Thu Apr 18 13:47:52 PDT 2024 ON: 21.51 +20.0 21.57 -21.3 19.0 22.5 28.0 20 0 Alarm State:  0
Thu Apr 18 13:46:50 PDT 2024 ON: 21.52 +20.0 21.56 -21.5 18.8 22.7 28.0 20 0 Alarm State:  0
Thu Apr 18 13:45:49 PDT 2024 ON: 21.51 +20.0 21.57 -21.5 18.8 22.7 28.0 20 0 Alarm State:  0
Thu Apr 18 13:44:47 PDT 2024 ON: 21.51 +20.0 21.56 -21.3 19.0 22.5 28.0 20 0 Alarm State:  0
Thu Apr 18 13:43:46 PDT 2024 ON: 21.52 +20.0 21.57 -21.3 19.0 22.5 28.0 20 0 Alarm State:  0
Thu Apr 18 13:42:44 PDT 2024 ON: 21.51 +20.0 21.56 -21.4 18.9 22.5 28.0 20 0 Alarm State:  0
Thu Apr 18 13:41:43 PDT 2024 ON: 21.51 +20.0 21.56 -21.4 18.9 22.6 28.0 20 0 Alarm State:  0
Thu Apr 18 13:40:41 PDT 2024 ON: 21.51 +20.0 21.57 -21.4 18.9 22.6 28.0 20 0 Alarm State:  0
Thu Apr 18 13:39:40 PDT 2024 ON: 21.52 +20.0 21.57 -21.4 18.9 22.6 28.0 20 0 Alarm State:  0
Thu Apr 18 13:38:38 PDT 2024 ON: 21.52 +20.0 21.56 -21.4 18.9 22.6 28.0 20 0 Alarm State:  0
Thu Apr 18 13:37:37 PDT 2024 ON: 21.52 +20.0 21.57 -21.6 18.6 22.8 28.0 19 0 Alarm State:  0
Thu Apr 18 13:36:35 PDT 2024 ON: 21.51 +20.0 21.55 -21.4 18.9 22.6 28.0 20 0 Alarm State:  0
Thu Apr 18 13:35:34 PDT 2024 ON: 21.51 +20.0 21.55 -21.4 18.9 22.6 28.0 20 0 Alarm State:  0
Thu Apr 18 13:34:32 PDT 2024 ON: 21.51 +20.0 21.56 -21.3 19.0 22.5 28.0 20 0 Alarm State:  0
Thu Apr 18 13:33:31 PDT 2024 ON: 21.51 +20.0 21.56 -21.4 18.9 22.6 28.0 20 0 Alarm State:  0
Thu Apr 18 13:32:29 PDT 2024 ON: 21.51 +20.0 21.56 -21.4 18.9 22.6 28.0 20 0 Alarm State:  0
Thu Apr 18 13:31:28 PDT 2024 ON: 21.51 +20.0 21.55 -21.4 18.9 22.6 28.0 20 0 Alarm State:  0
Thu Apr 18 13:30:26 PDT 2024 ON: 21.50 +20.0 21.56 -21.4 18.9 22.6 28.0 20 0 Alarm State:  0
Thu Apr 18 13:29:25 PDT 2024 ON: 21.50 +20.0 21.55 -21.4 18.9 22.6 28.0 19 0 Alarm State:  0
Thu Apr 18 13:28:23 PDT 2024 ON: 21.50 +20.0 21.55 -21.3 19.0 22.5 28.0 20 0 Alarm State:  0
Thu Apr 18 13:27:22 PDT 2024 ON: 21.51 +20.0 21.56 -21.3 19.0 22.5 28.0 19 0 Alarm State:  0
Thu Apr 18 13:26:20 PDT 2024 ON: 21.50 +20.0 21.54 -21.5 18.8 22.7 28.0 20 0 Alarm State:  0
Thu Apr 18 13:25:19 PDT 2024 ON: 21.50 +20.0 21.54 -21.4 18.9 22.6 28.0 20 0 Alarm State:  0
Thu Apr 18 13:24:17 PDT 2024 ON: 21.50 +20.0 21.55 -21.3 19.0 22.5 28.0 20 0 Alarm State:  0
Thu Apr 18 13:23:16 PDT 2024 ON: 21.50 +20.0 21.55 -21.3 19.0 22.5 28.0 20 0 Alarm State:  0
Thu Apr 18 13:22:14 PDT 2024 ON: 21.50 +20.0 21.54 -21.5 18.8 22.7 28.0 20 0 Alarm State:  0
Thu Apr 18 13:21:13 PDT 2024 ON: 21.50 +20.0 21.55 -21.4 18.9 22.6 28.0 20 0 Alarm State:  0
Thu Apr 18 13:20:11 PDT 2024 ON: 21.50 +20.0 21.56 -21.3 19.0 22.5 28.0 20 0 Alarm State:  0
Thu Apr 18 13:19:10 PDT 2024 ON: 21.50 +20.0 21.55 -21.5 18.8 22.6 28.0 20 0 Alarm State:  0
Thu Apr 18 13:18:08 PDT 2024 ON: 21.50 +20.0 21.55 -21.4 18.9 22.6 28.0 20 0 Alarm State:  0
Thu Apr 18 13:17:07 PDT 2024 ON: 21.50 +20.0 21.55 -21.5 18.8 22.6 28.0 20 0 Alarm State:  0
Thu Apr 18 13:16:05 PDT 2024 ON: 21.50 +20.0 21.54 -21.4 18.9 22.5 28.0 20 0 Alarm State:  0
Thu Apr 18 13:15:04 PDT 2024 ON: 21.50 +20.0 21.55 -21.4 18.9 22.6 28.0 20 0 Alarm State:  0
Thu Apr 18 13:14:02 PDT 2024 ON: 21.50 +20.0 21.55 -21.4 18.9 22.6 28.0 20 0 Alarm State:  0
Thu Apr 18 13:13:01 PDT 2024 ON: 21.50 +20.0 21.54 -21.4 18.9 22.6 28.0 20 0 Alarm State:  0
Thu Apr 18 13:11:59 PDT 2024 ON: 21.50 +20.0 21.55 -21.4 18.9 22.5 28.0 20 0 Alarm State:  0
Thu Apr 18 13:10:58 PDT 2024 ON: 21.50 +20.0 21.55 -21.4 18.9 22.5 28.0 20 0 Alarm State:  0
Thu Apr 18 13:09:56 PDT 2024 ON: 21.50 +20.0 21.54 -21.4 18.9 22.6 28.0 20 0 Alarm State:  0
Thu Apr 18 13:08:55 PDT 2024 ON: 21.50 +20.0 21.55 -21.5 18.8 22.6 28.0 20 0 Alarm State:  0
Thu Apr 18 13:07:53 PDT 2024 ON: 21.49 +20.0 21.54 -21.4 18.9 22.6 28.0 19 0 Alarm State:  0
Thu Apr 18 13:06:52 PDT 2024 ON: 21.49 +20.0 21.54 -21.3 19.0 22.5 28.0 20 0 Alarm State:  0
Thu Apr 18 13:05:50 PDT 2024 ON: 21.49 +20.0 21.54 -21.4 18.9 22.6 28.0 20 0 Alarm State:  0
Thu Apr 18 13:04:49 PDT 2024 ON: 21.49 +20.0 21.54 -21.5 18.8 22.6 28.0 20 0 Alarm State:  0
Thu Apr 18 13:03:47 PDT 2024 ON: 21.49 +20.0 21.54 -21.4 18.9 22.5 28.0 20 0 Alarm State:  0
Thu Apr 18 13:02:45 PDT 2024 ON: 21.49 +20.0 21.54 -21.4 18.9 22.6 28.0 20 0 Alarm State:  0
Thu Apr 18 13:01:44 PDT 2024 ON: 21.49 +20.0 21.54 -21.5 18.8 22.6 28.0 20 0 Alarm State:  0
Thu Apr 18 13:00:42 PDT 2024 ON: 21.49 +20.0 21.54 -21.5 18.8 22.7 28.0 20 0 Alarm State:  0
Thu Apr 18 12:59:41 PDT 2024 ON: 21.49 +20.0 21.54 -21.4 18.9 22.6 28.0 20 0 Alarm State:  0
Thu Apr 18 12:58:39 PDT 2024 ON: 21.49 +20.0 21.54 -21.3 19.0 22.5 28.0 20 0 Alarm State:  0
Thu Apr 18 12:57:38 PDT 2024 ON: 21.49 +20.0 21.55 -21.4 18.9 22.5 28.0 19 0 Alarm State:  0
Thu Apr 18 12:56:36 PDT 2024 ON: 21.49 +20.0 21.54 -21.4 18.9 22.5 28.0 20 0 Alarm State:  0
Thu Apr 18 12:55:35 PDT 2024 ON: 21.49 +20.0 21.54 -21.4 18.9 22.6 28.0 20 0 Alarm State:  0
Thu Apr 18 12:54:33 PDT 2024 ON: 21.49 +20.0 21.53 -21.5 18.8 22.7 28.0 20 0 Alarm State:  0
Thu Apr 18 12:53:32 PDT 2024 ON: 21.49 +20.0 21.55 -21.3 19.0 22.5 28.0 20 0 Alarm State:  0
Thu Apr 18 12:52:30 PDT 2024 ON: 21.49 +20.0 21.54 -21.5 18.8 22.6 28.0 20 0 Alarm State:  0
Thu Apr 18 12:51:29 PDT 2024 ON: 21.49 +20.0 21.54 -21.3 19.0 22.5 28.0 19 0 Alarm State:  0
Thu Apr 18 12:50:27 PDT 2024 ON: 21.49 +20.0 21.53 -21.3 19.0 22.5 28.0 20 0 Alarm State:  0
Thu Apr 18 12:49:26 PDT 2024 ON: 21.49 +20.0 21.54 -21.4 18.9 22.6 28.0 20 0 Alarm State:  0
Thu Apr 18 12:48:24 PDT 2024 ON: 21.49 +20.0 21.54 -21.4 18.9 22.5 28.0 20 0 Alarm State:  0
Thu Apr 18 12:47:23 PDT 2024 ON: 21.49 +20.0 21.53 -21.3 19.0 22.5 28.0 20 0 Alarm State:  0
Thu Apr 18 12:46:21 PDT 2024 ON: 21.49 +20.0 21.54 -21.4 18.9 22.5 28.0 20 0 Alarm State:  0
Thu Apr 18 12:45:20 PDT 2024 ON: 21.49 +20.0 21.53 -21.3 19.0 22.5 28.0 20 0 Alarm State:  0
Thu Apr 18 12:44:18 PDT 2024 ON: 21.49 +20.0 21.53 -21.4 18.9 22.6 28.0 20 0 Alarm State:  0
Thu Apr 18 12:43:17 PDT 2024 ON: 21.49 +20.0 21.53 -21.4 18.9 22.5 28.0 20 0 Alarm State:  0
Thu Apr 18 12:42:15 PDT 2024 ON: 21.49 +20.0 21.53 -21.5 18.8 22.7 28.0 20 0 Alarm State:  0
Thu Apr 18 12:41:14 PDT 2024 ON: 21.49 +20.0 21.54 -21.4 18.9 22.5 28.0 20 0 Alarm State:  0
Thu Apr 18 12:40:12 PDT 2024 ON: 21.49 +20.0 21.54 -21.3 19.0 22.5 28.0 20 0 Alarm State:  0
Thu Apr 18 12:39:11 PDT 2024 ON: 21.49 +20.0 21.54 -21.4 18.9 22.6 28.0 20 0 Alarm State:  0
Thu Apr 18 12:38:09 PDT 2024 ON: 21.49 +20.0 21.54 -21.4 18.9 22.6 28.0 20 0 Alarm State:  0
Thu Apr 18 12:37:08 PDT 2024 ON: 21.49 +20.0 21.54 -21.5 18.8 22.6 28.0 20 0 Alarm State:  0
Thu Apr 18 12:36:06 PDT 2024 ON: 21.48 +20.0 21.54 -21.4 18.9 22.5 28.0 20 0 Alarm State:  0
Thu Apr 18 12:35:05 PDT 2024 ON: 21.48 +20.0 21.53 -21.3 19.0 22.5 28.0 19 0 Alarm State:  0
Thu Apr 18 12:34:03 PDT 2024 ON: 21.49 +20.0 21.53 -21.4 18.9 22.5 28.0 20 0 Alarm State:  0
Thu Apr 18 12:33:02 PDT 2024 ON: 21.49 +20.0 21.53 -21.4 18.9 22.5 28.0 19 0 Alarm State:  0
Thu Apr 18 12:32:00 PDT 2024 ON: 21.48 +20.0 21.53 -21.4 18.9 22.5 28.0 20 0 Alarm State:  0
Thu Apr 18 12:30:59 PDT 2024 ON: 21.48 +20.0 21.53 -21.4 18.9 22.5 28.0 20 0 Alarm State:  0
Thu Apr 18 12:29:57 PDT 2024 ON: 21.48 +20.0 21.53 -21.3 19.0 22.5 28.0 20 0 Alarm State:  0
Thu Apr 18 12:28:56 PDT 2024 ON: 21.48 +20.0 21.53 -21.4 18.9 22.5 28.0 20 0 Alarm State:  0
Thu Apr 18 12:27:54 PDT 2024 ON: 21.49 +20.0 21.54 -21.4 18.9 22.6 28.0 20 0 Alarm State:  0
Thu Apr 18 12:26:53 PDT 2024 ON: 21.48 +20.0 21.54 -21.4 18.9 22.5 28.0 20 0 Alarm State:  0
Thu Apr 18 12:25:51 PDT 2024 ON: 21.48 +20.0 21.53 -21.3 19.0 22.5 28.0 19 0 Alarm State:  0
Thu Apr 18 12:24:50 PDT 2024 ON: 21.48 +20.0 21.54 -21.4 18.9 22.5 28.0 20 0 Alarm State:  0
Thu Apr 18 12:23:48 PDT 2024 ON: 21.48 +20.0 21.53 -21.5 18.8 22.6 28.0 20 0 Alarm State:  0
Thu Apr 18 12:22:47 PDT 2024 ON: 21.49 +20.0 21.55 -21.4 18.9 22.6 28.0 20 0 Alarm State:  0
Thu Apr 18 12:21:45 PDT 2024 ON: 21.49 +20.0 21.54 -21.3 19.0 22.5 28.0 20 0 Alarm State:  0
Thu Apr 18 12:20:44 PDT 2024 ON: 21.49 +20.0 21.54 -21.3 19.0 22.5 28.0 20 0 Alarm State:  0
Thu Apr 18 12:19:42 PDT 2024 ON: 21.49 +20.0 21.54 -21.5 18.8 22.6 28.0 20 0 Alarm State:  0
Thu Apr 18 12:18:41 PDT 2024 ON: 21.49 +20.0 21.54 -21.4 18.9 22.5 28.0 20 0 Alarm State:  0
Thu Apr 18 12:17:39 PDT 2024 ON: 21.49 +20.0 21.54 -21.3 19.0 22.5 28.0 19 0 Alarm State:  0
Thu Apr 18 12:16:38 PDT 2024 ON: 21.49 +20.0 21.54 -21.4 18.9 22.6 28.0 20 0 Alarm State:  0
Thu Apr 18 12:15:36 PDT 2024 ON: 21.49 +20.0 21.54 -21.4 18.9 22.5 28.0 20 0 Alarm State:  0
Thu Apr 18 12:14:35 PDT 2024 ON: 21.49 +20.0 21.54 -21.4 18.9 22.5 28.0 20 0 Alarm State:  0
Thu Apr 18 12:13:33 PDT 2024 ON: 21.49 +20.0 21.55 -21.4 18.9 22.5 28.0 20 0 Alarm State:  0
Thu Apr 18 12:12:32 PDT 2024 ON: 21.49 +20.0 21.54 -21.4 18.9 22.5 28.0 20 0 Alarm State:  0
Thu Apr 18 12:11:30 PDT 2024 ON: 21.49 +20.0 21.54 -21.4 18.9 22.5 28.0 20 0 Alarm State:  0
Thu Apr 18 12:10:29 PDT 2024 ON: 21.49 +20.0 21.54 -21.4 18.9 22.5 28.0 20 0 Alarm State:  0
Thu Apr 18 12:09:27 PDT 2024 ON: 21.49 +20.0 21.54 -21.4 18.9 22.5 28.0 20 0 Alarm State:  0
Thu Apr 18 12:08:26 PDT 2024 ON: 21.49 +20.0 21.54 -21.4 18.9 22.6 28.0 20 0 Alarm State:  0
Thu Apr 18 12:07:24 PDT 2024 ON: 21.49 +20.0 21.53 -21.4 18.9 22.5 28.0 20 0 Alarm State:  0
Thu Apr 18 12:06:23 PDT 2024 ON: 21.50 +20.0 21.55 -21.4 18.9 22.6 28.0 20 0 Alarm State:  0
Thu Apr 18 12:05:21 PDT 2024 ON: 21.50 +20.0 21.54 -21.4 18.9 22.5 28.0 20 0 Alarm State:  0
Thu Apr 18 12:04:19 PDT 2024 ON: 21.50 +20.0 21.54 -21.4 18.9 22.5 28.0 20 0 Alarm State:  0
Thu Apr 18 12:03:18 PDT 2024 ON: 21.50 +20.0 21.55 -21.4 18.9 22.5 28.0 20 0 Alarm State:  0
Thu Apr 18 12:02:16 PDT 2024 ON: 21.50 +20.0 21.55 -21.4 18.9 22.6 28.0 20 0 Alarm State:  0
Thu Apr 18 12:01:15 PDT 2024 ON: 21.50 +20.0 21.55 -21.3 19.0 22.5 28.0 20 0 Alarm State:  0
Thu Apr 18 12:00:13 PDT 2024 ON: 21.51 +20.0 21.56 -21.4 18.9 22.6 28.0 20 0 Alarm State:  0
Thu Apr 18 11:59:12 PDT 2024 ON: 21.50 +20.0 21.55 -21.4 18.9 22.6 28.0 20 0 Alarm State:  0
Thu Apr 18 11:58:10 PDT 2024 ON: 21.50 +20.0 21.56 -21.4 18.9 22.5 28.0 20 0 Alarm State:  0
Thu Apr 18 11:57:09 PDT 2024 ON: 21.50 +20.0 21.55 -21.4 18.9 22.5 28.0 20 0 Alarm State:  0
Thu Apr 18 11:56:07 PDT 2024 ON: 21.50 +20.0 21.55 -21.3 19.0 22.5 28.0 20 0 Alarm State:  0
Thu Apr 18 11:55:06 PDT 2024 ON: 21.50 +20.0 21.55 -21.5 18.8 22.6 28.0 20 0 Alarm State:  0
Thu Apr 18 11:54:04 PDT 2024 ON: 21.51 +20.0 21.56 -21.3 19.0 22.5 28.0 20 0 Alarm State:  0
Thu Apr 18 11:53:03 PDT 2024 ON: 21.50 +20.0 21.56 -21.5 18.8 22.6 28.0 20 0 Alarm State:  0
Thu Apr 18 11:52:01 PDT 2024 ON: 21.50 +20.0 21.55 -21.5 18.8 22.6 28.0 20 0 Alarm State:  0
Thu Apr 18 11:51:00 PDT 2024 ON: 21.51 +20.0 21.55 -21.3 19.0 22.5 28.0 20 0 Alarm State:  0
Thu Apr 18 11:49:49 PDT 2024  Alarm State: 0
Thu Apr 18 11:49:49 PDT 2024 Chiller did not report ON, got this reading: 
Thu Apr 18 11:48:47 PDT 2024 ON: 21.51 +20.0 21.55 -21.3 19.0 22.5 28.0 20 0 Alarm State:  0
Thu Apr 18 11:47:45 PDT 2024 ON: 21.51 +20.0 21.56 -21.4 18.9 22.6 28.0 20 0 Alarm State:  0
Thu Apr 18 11:46:44 PDT 2024 ON: 21.51 +20.0 21.56 -21.4 18.9 22.5 28.0 20 0 Alarm State:  0
Thu Apr 18 11:45:42 PDT 2024 ON: 21.51 +20.0 21.56 -21.4 18.9 22.5 28.0 20 0 Alarm State:  0
Thu Apr 18 11:44:41 PDT 2024 ON: 21.51 +20.0 21.56 -21.4 18.9 22.5 28.0 20 0 Alarm State:  0
Thu Apr 18 11:43:39 PDT 2024 ON: 21.51 +20.0 21.56 -21.4 18.9 22.5 28.0 20 0 Alarm State:  0
Thu Apr 18 11:42:38 PDT 2024 ON: 21.51 +20.0 21.56 -21.4 18.9 22.5 28.0 20 0 Alarm State:  0
Thu Apr 18 11:41:36 PDT 2024 ON: 21.51 +20.0 21.56 -21.3 19.0 22.5 28.0 19 0 Alarm State:  0
Thu Apr 18 11:40:35 PDT 2024 ON: 21.51 +20.0 21.56 -21.5 18.8 22.6 28.0 20 0 Alarm State:  0
Thu Apr 18 11:39:33 PDT 2024 ON: 21.50 +20.0 21.55 -21.4 18.9 22.5 28.0 20 0 Alarm State:  0
Thu Apr 18 11:38:32 PDT 2024 ON: 21.51 +20.0 21.55 -21.4 18.9 22.5 28.0 20 0 Alarm State:  0
Thu Apr 18 11:37:30 PDT 2024 ON: 21.51 +20.0 21.56 -21.4 18.9 22.5 28.0 20 0 Alarm State:  0
Thu Apr 18 11:36:29 PDT 2024 ON: 21.50 +20.0 21.55 -21.4 18.9 22.5 28.0 20 0 Alarm State:  0
Thu Apr 18 11:35:27 PDT 2024 ON: 21.51 +20.0 21.56 -21.4 18.9 22.5 28.0 20 0 Alarm State:  0
Thu Apr 18 11:34:26 PDT 2024 ON: 21.50 +20.0 21.55 -21.5 18.8 22.6 28.0 20 0 Alarm State:  0
Thu Apr 18 11:33:24 PDT 2024 ON: 21.51 +20.0 21.55 -21.4 18.9 22.5 28.0 20 0 Alarm State:  0
Thu Apr 18 11:32:23 PDT 2024 ON: 21.50 +20.0 21.55 -21.4 18.9 22.5 28.0 20 0 Alarm State:  0
Thu Apr 18 11:31:21 PDT 2024 ON: 21.50 +20.0 21.55 -21.5 18.8 22.6 28.0 20 0 Alarm State:  0
Thu Apr 18 11:30:20 PDT 2024 ON: 21.50 +20.0 21.55 -21.4 18.9 22.5 28.0 20 0 Alarm State:  0
Thu Apr 18 11:29:18 PDT 2024 ON: 21.50 +20.0 21.55 -21.4 18.9 22.5 28.0 20 0 Alarm State:  0
Thu Apr 18 11:28:17 PDT 2024 ON: 21.51 +20.0 21.56 -21.3 19.0 22.5 28.0 19 0 Alarm State:  0
Thu Apr 18 11:27:15 PDT 2024 ON: 21.50 +20.0 21.56 -21.5 18.8 22.6 28.0 20 0 Alarm State:  0
Thu Apr 18 11:26:14 PDT 2024 ON: 21.51 +20.0 21.56 -21.4 18.9 22.5 28.0 19 0 Alarm State:  0
Thu Apr 18 11:25:12 PDT 2024 ON: 21.50 +20.0 21.55 -21.4 18.9 22.5 28.0 20 0 Alarm State:  0
Thu Apr 18 11:24:11 PDT 2024 ON: 21.51 +20.0 21.56 -21.4 18.9 22.5 28.0 20 0 Alarm State:  0
Thu Apr 18 11:23:09 PDT 2024 ON: 21.51 +20.0 21.56 -21.4 18.9 22.6 28.0 20 0 Alarm State:  0
Thu Apr 18 11:22:08 PDT 2024 ON: 21.50 +20.0 21.55 -21.5 18.8 22.6 28.0 20 0 Alarm State:  0
Thu Apr 18 11:21:06 PDT 2024 ON: 21.51 +20.0 21.55 -21.4 18.9 22.5 28.0 20 0 Alarm State:  0
Thu Apr 18 11:20:05 PDT 2024 ON: 21.50 +20.0 21.55 -21.5 18.8 22.6 28.0 20 0 Alarm State:  0
Thu Apr 18 11:19:03 PDT 2024 ON: 21.51 +20.0 21.56 -21.3 19.0 22.5 28.0 20 0 Alarm State:  0
Thu Apr 18 11:18:02 PDT 2024 ON: 21.50 +20.0 21.55 -21.4 18.9 22.5 28.0 19 0 Alarm State:  0
Thu Apr 18 11:17:00 PDT 2024 ON: 21.51 +20.0 21.56 -21.5 18.8 22.6 28.0 20 0 Alarm State:  0
Thu Apr 18 11:15:59 PDT 2024 ON: 21.51 +20.0 21.56 -21.4 18.9 22.6 28.0 20 0 Alarm State:  0